<?xml version="1.0" encoding="UTF-8" standalone="no" ?>
<gpx xmlns="http://www.topografix.com/GPX/1/1" xmlns:xsi="http://www.w3.org/2001/XMLSchema-instance" xsi:schemaLocation="http://www.topografix.com/GPX/1/1 http://www.topografix.com/GPX/1/1/gpx.xsd" version="1.1" creator="VisuGPX - https://www.visugpx.com">
  <metadata>
    <name>VTT XC Grabels</name>
    <desc><![CDATA[Sortie typée XC "pause déjeuner". Dans la même idée que la semaine dernière c'est une petite boucle réalisable en 1 heure. On part en sens inverse cette fois ci, mais pas complètement sur la même trace. on va aller chercher des cotes mais qui sont un peu moins physiques à mon goût ! ( ça monte quand même, surtout la dernière qui aboutit sur les "Hauts de Massane". 
ça permet de varier les sorties en attendant que ça sèche un peu plus sur les autres monotraces.]]></desc>
  </metadata>
  <trk>
    <name><![CDATA[VTT XC Grabels_1]]></name>
    <trkseg>
      <trkpt lat="43.63743" lon="3.8284">
        <ele>223.7</ele>
        <time>2017-03-16T11:23:42Z</time>
      </trkpt>
      <trkpt lat="43.63743" lon="3.8284">
        <ele>223.7</ele>
        <time>2017-03-16T11:24:14Z</time>
      </trkpt>
      <trkpt lat="43.63749" lon="3.82848">
        <ele>213.1</ele>
        <time>2017-03-16T11:24:19Z</time>
      </trkpt>
      <trkpt lat="43.63743" lon="3.82845">
        <ele>216.1</ele>
        <time>2017-03-16T11:24:35Z</time>
      </trkpt>
      <trkpt lat="43.63748" lon="3.82846">
        <ele>195.9</ele>
        <time>2017-03-16T11:24:51Z</time>
      </trkpt>
      <trkpt lat="43.63765" lon="3.82845">
        <ele>173.7</ele>
        <time>2017-03-16T11:24:34Z</time>
      </trkpt>
      <trkpt lat="43.6377" lon="3.82852">
        <ele>165.9</ele>
        <time>2017-03-16T11:26:11Z</time>
      </trkpt>
      <trkpt lat="43.63778" lon="3.82853">
        <ele>152.4</ele>
        <time>2017-03-16T11:26:14Z</time>
      </trkpt>
      <trkpt lat="43.63775" lon="3.82841">
        <ele>151.1</ele>
        <time>2017-03-16T11:26:17Z</time>
      </trkpt>
      <trkpt lat="43.6377" lon="3.82832">
        <ele>144.8</ele>
        <time>2017-03-16T11:26:19Z</time>
      </trkpt>
      <trkpt lat="43.63775" lon="3.8282">
        <ele>144</ele>
        <time>2017-03-16T11:26:22Z</time>
      </trkpt>
      <trkpt lat="43.63783" lon="3.82816">
        <ele>143.3</ele>
        <time>2017-03-16T11:26:26Z</time>
      </trkpt>
      <trkpt lat="43.63786" lon="3.82812">
        <ele>142.6</ele>
        <time>2017-03-16T11:26:33Z</time>
      </trkpt>
      <trkpt lat="43.63796" lon="3.82809">
        <ele>139.3</ele>
        <time>2017-03-16T11:26:59Z</time>
      </trkpt>
      <trkpt lat="43.63806" lon="3.82804">
        <ele>138.3</ele>
        <time>2017-03-16T11:27:02Z</time>
      </trkpt>
      <trkpt lat="43.63815" lon="3.82801">
        <ele>137.7</ele>
        <time>2017-03-16T11:27:05Z</time>
      </trkpt>
      <trkpt lat="43.63824" lon="3.82798">
        <ele>137.2</ele>
        <time>2017-03-16T11:27:08Z</time>
      </trkpt>
      <trkpt lat="43.63836" lon="3.828">
        <ele>137.4</ele>
        <time>2017-03-16T11:27:11Z</time>
      </trkpt>
      <trkpt lat="43.63845" lon="3.82797">
        <ele>137</ele>
        <time>2017-03-16T11:27:13Z</time>
      </trkpt>
      <trkpt lat="43.63852" lon="3.82792">
        <ele>135.9</ele>
        <time>2017-03-16T11:27:15Z</time>
      </trkpt>
      <trkpt lat="43.6386" lon="3.82786">
        <ele>135.3</ele>
        <time>2017-03-16T11:27:17Z</time>
      </trkpt>
      <trkpt lat="43.63869" lon="3.82782">
        <ele>136.3</ele>
        <time>2017-03-16T11:27:19Z</time>
      </trkpt>
      <trkpt lat="43.63877" lon="3.82779">
        <ele>136.7</ele>
        <time>2017-03-16T11:27:21Z</time>
      </trkpt>
      <trkpt lat="43.63886" lon="3.82785">
        <ele>136.8</ele>
        <time>2017-03-16T11:27:24Z</time>
      </trkpt>
      <trkpt lat="43.63891" lon="3.82797">
        <ele>137</ele>
        <time>2017-03-16T11:27:27Z</time>
      </trkpt>
      <trkpt lat="43.63898" lon="3.82806">
        <ele>137.3</ele>
        <time>2017-03-16T11:27:30Z</time>
      </trkpt>
      <trkpt lat="43.63907" lon="3.8281">
        <ele>137.4</ele>
        <time>2017-03-16T11:27:33Z</time>
      </trkpt>
      <trkpt lat="43.63912" lon="3.82819">
        <ele>137.7</ele>
        <time>2017-03-16T11:27:37Z</time>
      </trkpt>
      <trkpt lat="43.6392" lon="3.8282">
        <ele>137.9</ele>
        <time>2017-03-16T11:27:44Z</time>
      </trkpt>
      <trkpt lat="43.63924" lon="3.82817">
        <ele>137.8</ele>
        <time>2017-03-16T11:27:51Z</time>
      </trkpt>
      <trkpt lat="43.63932" lon="3.8281">
        <ele>137.6</ele>
        <time>2017-03-16T11:27:58Z</time>
      </trkpt>
      <trkpt lat="43.63942" lon="3.82806">
        <ele>137.6</ele>
        <time>2017-03-16T11:28:01Z</time>
      </trkpt>
      <trkpt lat="43.63949" lon="3.828">
        <ele>137.8</ele>
        <time>2017-03-16T11:28:04Z</time>
      </trkpt>
      <trkpt lat="43.63956" lon="3.82795">
        <ele>138.2</ele>
        <time>2017-03-16T11:28:07Z</time>
      </trkpt>
      <trkpt lat="43.63963" lon="3.8279">
        <ele>138.5</ele>
        <time>2017-03-16T11:28:09Z</time>
      </trkpt>
      <trkpt lat="43.63971" lon="3.82788">
        <ele>138.7</ele>
        <time>2017-03-16T11:28:11Z</time>
      </trkpt>
      <trkpt lat="43.63982" lon="3.82786">
        <ele>139.1</ele>
        <time>2017-03-16T11:28:13Z</time>
      </trkpt>
      <trkpt lat="43.63992" lon="3.82786">
        <ele>144.2</ele>
        <time>2017-03-16T11:28:15Z</time>
      </trkpt>
      <trkpt lat="43.64" lon="3.82787">
        <ele>144.5</ele>
        <time>2017-03-16T11:28:17Z</time>
      </trkpt>
      <trkpt lat="43.6401" lon="3.82783">
        <ele>145.1</ele>
        <time>2017-03-16T11:28:20Z</time>
      </trkpt>
      <trkpt lat="43.64019" lon="3.82776">
        <ele>145.7</ele>
        <time>2017-03-16T11:28:23Z</time>
      </trkpt>
      <trkpt lat="43.64028" lon="3.82772">
        <ele>146.7</ele>
        <time>2017-03-16T11:28:25Z</time>
      </trkpt>
      <trkpt lat="43.64037" lon="3.82766">
        <ele>146.6</ele>
        <time>2017-03-16T11:28:27Z</time>
      </trkpt>
      <trkpt lat="43.64045" lon="3.82761">
        <ele>146.4</ele>
        <time>2017-03-16T11:28:29Z</time>
      </trkpt>
      <trkpt lat="43.64054" lon="3.82754">
        <ele>145.9</ele>
        <time>2017-03-16T11:28:31Z</time>
      </trkpt>
      <trkpt lat="43.64061" lon="3.82748">
        <ele>145.2</ele>
        <time>2017-03-16T11:28:33Z</time>
      </trkpt>
      <trkpt lat="43.64068" lon="3.82742">
        <ele>145.2</ele>
        <time>2017-03-16T11:28:35Z</time>
      </trkpt>
      <trkpt lat="43.64077" lon="3.82734">
        <ele>145</ele>
        <time>2017-03-16T11:28:37Z</time>
      </trkpt>
      <trkpt lat="43.64086" lon="3.82726">
        <ele>145.6</ele>
        <time>2017-03-16T11:28:39Z</time>
      </trkpt>
      <trkpt lat="43.64094" lon="3.82719">
        <ele>144.7</ele>
        <time>2017-03-16T11:28:41Z</time>
      </trkpt>
      <trkpt lat="43.64101" lon="3.82712">
        <ele>143.8</ele>
        <time>2017-03-16T11:28:43Z</time>
      </trkpt>
      <trkpt lat="43.64109" lon="3.82704">
        <ele>142.8</ele>
        <time>2017-03-16T11:28:45Z</time>
      </trkpt>
      <trkpt lat="43.64116" lon="3.82696">
        <ele>141.7</ele>
        <time>2017-03-16T11:28:47Z</time>
      </trkpt>
      <trkpt lat="43.64123" lon="3.82689">
        <ele>140.4</ele>
        <time>2017-03-16T11:28:49Z</time>
      </trkpt>
      <trkpt lat="43.64131" lon="3.8268">
        <ele>139.1</ele>
        <time>2017-03-16T11:28:51Z</time>
      </trkpt>
      <trkpt lat="43.64138" lon="3.82671">
        <ele>139.5</ele>
        <time>2017-03-16T11:28:53Z</time>
      </trkpt>
      <trkpt lat="43.64147" lon="3.82663">
        <ele>139.9</ele>
        <time>2017-03-16T11:28:55Z</time>
      </trkpt>
      <trkpt lat="43.64154" lon="3.82654">
        <ele>139.7</ele>
        <time>2017-03-16T11:28:57Z</time>
      </trkpt>
      <trkpt lat="43.64163" lon="3.82644">
        <ele>140.1</ele>
        <time>2017-03-16T11:28:59Z</time>
      </trkpt>
      <trkpt lat="43.6417" lon="3.82643">
        <ele>140.3</ele>
        <time>2017-03-16T11:29:01Z</time>
      </trkpt>
      <trkpt lat="43.6418" lon="3.82641">
        <ele>140.4</ele>
        <time>2017-03-16T11:29:04Z</time>
      </trkpt>
      <trkpt lat="43.6419" lon="3.82639">
        <ele>140.2</ele>
        <time>2017-03-16T11:29:07Z</time>
      </trkpt>
      <trkpt lat="43.64198" lon="3.82646">
        <ele>141.3</ele>
        <time>2017-03-16T11:29:09Z</time>
      </trkpt>
      <trkpt lat="43.64208" lon="3.82653">
        <ele>140.7</ele>
        <time>2017-03-16T11:29:11Z</time>
      </trkpt>
      <trkpt lat="43.64218" lon="3.82657">
        <ele>140.8</ele>
        <time>2017-03-16T11:29:13Z</time>
      </trkpt>
      <trkpt lat="43.6423" lon="3.82662">
        <ele>141.5</ele>
        <time>2017-03-16T11:29:15Z</time>
      </trkpt>
      <trkpt lat="43.64244" lon="3.82669">
        <ele>141</ele>
        <time>2017-03-16T11:29:17Z</time>
      </trkpt>
      <trkpt lat="43.64257" lon="3.82675">
        <ele>140.3</ele>
        <time>2017-03-16T11:29:19Z</time>
      </trkpt>
      <trkpt lat="43.64268" lon="3.82676">
        <ele>139</ele>
        <time>2017-03-16T11:29:21Z</time>
      </trkpt>
      <trkpt lat="43.64276" lon="3.8268">
        <ele>137.7</ele>
        <time>2017-03-16T11:29:23Z</time>
      </trkpt>
      <trkpt lat="43.64286" lon="3.82681">
        <ele>137.3</ele>
        <time>2017-03-16T11:29:26Z</time>
      </trkpt>
      <trkpt lat="43.64295" lon="3.82686">
        <ele>137.2</ele>
        <time>2017-03-16T11:29:30Z</time>
      </trkpt>
      <trkpt lat="43.64301" lon="3.82692">
        <ele>137.3</ele>
        <time>2017-03-16T11:29:32Z</time>
      </trkpt>
      <trkpt lat="43.64309" lon="3.82695">
        <ele>137.6</ele>
        <time>2017-03-16T11:29:35Z</time>
      </trkpt>
      <trkpt lat="43.64315" lon="3.82699">
        <ele>137.8</ele>
        <time>2017-03-16T11:29:37Z</time>
      </trkpt>
      <trkpt lat="43.64323" lon="3.82705">
        <ele>138</ele>
        <time>2017-03-16T11:29:40Z</time>
      </trkpt>
      <trkpt lat="43.6433" lon="3.82709">
        <ele>138.4</ele>
        <time>2017-03-16T11:29:44Z</time>
      </trkpt>
      <trkpt lat="43.64338" lon="3.82714">
        <ele>139.1</ele>
        <time>2017-03-16T11:29:49Z</time>
      </trkpt>
      <trkpt lat="43.64348" lon="3.82718">
        <ele>139.8</ele>
        <time>2017-03-16T11:29:53Z</time>
      </trkpt>
      <trkpt lat="43.64355" lon="3.8272">
        <ele>140.6</ele>
        <time>2017-03-16T11:29:56Z</time>
      </trkpt>
      <trkpt lat="43.64365" lon="3.82719">
        <ele>141.6</ele>
        <time>2017-03-16T11:30:00Z</time>
      </trkpt>
      <trkpt lat="43.64372" lon="3.82719">
        <ele>142.5</ele>
        <time>2017-03-16T11:30:03Z</time>
      </trkpt>
      <trkpt lat="43.6438" lon="3.8272">
        <ele>143.8</ele>
        <time>2017-03-16T11:30:07Z</time>
      </trkpt>
      <trkpt lat="43.64387" lon="3.8272">
        <ele>144.5</ele>
        <time>2017-03-16T11:30:09Z</time>
      </trkpt>
      <trkpt lat="43.64396" lon="3.8272">
        <ele>145.4</ele>
        <time>2017-03-16T11:30:12Z</time>
      </trkpt>
      <trkpt lat="43.64405" lon="3.82721">
        <ele>146.2</ele>
        <time>2017-03-16T11:30:15Z</time>
      </trkpt>
      <trkpt lat="43.64414" lon="3.82723">
        <ele>146.7</ele>
        <time>2017-03-16T11:30:18Z</time>
      </trkpt>
      <trkpt lat="43.64423" lon="3.82725">
        <ele>147.2</ele>
        <time>2017-03-16T11:30:22Z</time>
      </trkpt>
      <trkpt lat="43.64433" lon="3.82727">
        <ele>147.7</ele>
        <time>2017-03-16T11:30:25Z</time>
      </trkpt>
      <trkpt lat="43.6444" lon="3.82727">
        <ele>148</ele>
        <time>2017-03-16T11:30:27Z</time>
      </trkpt>
      <trkpt lat="43.64448" lon="3.82727">
        <ele>148.1</ele>
        <time>2017-03-16T11:30:29Z</time>
      </trkpt>
      <trkpt lat="43.64456" lon="3.82729">
        <ele>149.9</ele>
        <time>2017-03-16T11:30:31Z</time>
      </trkpt>
      <trkpt lat="43.64466" lon="3.8273">
        <ele>150.3</ele>
        <time>2017-03-16T11:30:34Z</time>
      </trkpt>
      <trkpt lat="43.64474" lon="3.8273">
        <ele>150.6</ele>
        <time>2017-03-16T11:30:37Z</time>
      </trkpt>
      <trkpt lat="43.64484" lon="3.82728">
        <ele>150.9</ele>
        <time>2017-03-16T11:30:40Z</time>
      </trkpt>
      <trkpt lat="43.64494" lon="3.82729">
        <ele>151.1</ele>
        <time>2017-03-16T11:30:43Z</time>
      </trkpt>
      <trkpt lat="43.64503" lon="3.82729">
        <ele>151.5</ele>
        <time>2017-03-16T11:30:46Z</time>
      </trkpt>
      <trkpt lat="43.64511" lon="3.82732">
        <ele>152</ele>
        <time>2017-03-16T11:30:50Z</time>
      </trkpt>
      <trkpt lat="43.6452" lon="3.82735">
        <ele>152.3</ele>
        <time>2017-03-16T11:30:53Z</time>
      </trkpt>
      <trkpt lat="43.64527" lon="3.8273">
        <ele>152.4</ele>
        <time>2017-03-16T11:30:55Z</time>
      </trkpt>
      <trkpt lat="43.64533" lon="3.82725">
        <ele>152.5</ele>
        <time>2017-03-16T11:30:57Z</time>
      </trkpt>
      <trkpt lat="43.64542" lon="3.82719">
        <ele>154.3</ele>
        <time>2017-03-16T11:31:00Z</time>
      </trkpt>
      <trkpt lat="43.64552" lon="3.82711">
        <ele>154.8</ele>
        <time>2017-03-16T11:31:03Z</time>
      </trkpt>
      <trkpt lat="43.64558" lon="3.82706">
        <ele>155</ele>
        <time>2017-03-16T11:31:05Z</time>
      </trkpt>
      <trkpt lat="43.64565" lon="3.82701">
        <ele>155.1</ele>
        <time>2017-03-16T11:31:07Z</time>
      </trkpt>
      <trkpt lat="43.64572" lon="3.82695">
        <ele>155.2</ele>
        <time>2017-03-16T11:31:09Z</time>
      </trkpt>
      <trkpt lat="43.64578" lon="3.82689">
        <ele>157</ele>
        <time>2017-03-16T11:31:11Z</time>
      </trkpt>
      <trkpt lat="43.64588" lon="3.8268">
        <ele>158.8</ele>
        <time>2017-03-16T11:31:13Z</time>
      </trkpt>
      <trkpt lat="43.64596" lon="3.82674">
        <ele>159.9</ele>
        <time>2017-03-16T11:31:15Z</time>
      </trkpt>
      <trkpt lat="43.64605" lon="3.8267">
        <ele>160</ele>
        <time>2017-03-16T11:31:17Z</time>
      </trkpt>
      <trkpt lat="43.64615" lon="3.82671">
        <ele>159.2</ele>
        <time>2017-03-16T11:31:19Z</time>
      </trkpt>
      <trkpt lat="43.64623" lon="3.82673">
        <ele>160.3</ele>
        <time>2017-03-16T11:31:21Z</time>
      </trkpt>
      <trkpt lat="43.64632" lon="3.82671">
        <ele>160.4</ele>
        <time>2017-03-16T11:31:23Z</time>
      </trkpt>
      <trkpt lat="43.64639" lon="3.82671">
        <ele>160.5</ele>
        <time>2017-03-16T11:31:25Z</time>
      </trkpt>
      <trkpt lat="43.64647" lon="3.8267">
        <ele>160.4</ele>
        <time>2017-03-16T11:31:27Z</time>
      </trkpt>
      <trkpt lat="43.64655" lon="3.82668">
        <ele>160.3</ele>
        <time>2017-03-16T11:31:29Z</time>
      </trkpt>
      <trkpt lat="43.64664" lon="3.82664">
        <ele>160.3</ele>
        <time>2017-03-16T11:31:31Z</time>
      </trkpt>
      <trkpt lat="43.64671" lon="3.82657">
        <ele>160.1</ele>
        <time>2017-03-16T11:31:33Z</time>
      </trkpt>
      <trkpt lat="43.64679" lon="3.82646">
        <ele>160.3</ele>
        <time>2017-03-16T11:31:36Z</time>
      </trkpt>
      <trkpt lat="43.64687" lon="3.82644">
        <ele>161.1</ele>
        <time>2017-03-16T11:31:38Z</time>
      </trkpt>
      <trkpt lat="43.64695" lon="3.82637">
        <ele>160.7</ele>
        <time>2017-03-16T11:31:40Z</time>
      </trkpt>
      <trkpt lat="43.64703" lon="3.82633">
        <ele>161.1</ele>
        <time>2017-03-16T11:31:42Z</time>
      </trkpt>
      <trkpt lat="43.64712" lon="3.82631">
        <ele>161.6</ele>
        <time>2017-03-16T11:31:44Z</time>
      </trkpt>
      <trkpt lat="43.6472" lon="3.82629">
        <ele>161.5</ele>
        <time>2017-03-16T11:31:46Z</time>
      </trkpt>
      <trkpt lat="43.6473" lon="3.82625">
        <ele>160.3</ele>
        <time>2017-03-16T11:31:48Z</time>
      </trkpt>
      <trkpt lat="43.64739" lon="3.82622">
        <ele>160.6</ele>
        <time>2017-03-16T11:31:50Z</time>
      </trkpt>
      <trkpt lat="43.64749" lon="3.82619">
        <ele>161.2</ele>
        <time>2017-03-16T11:31:52Z</time>
      </trkpt>
      <trkpt lat="43.64757" lon="3.82616">
        <ele>161.5</ele>
        <time>2017-03-16T11:31:54Z</time>
      </trkpt>
      <trkpt lat="43.64766" lon="3.82614">
        <ele>162.3</ele>
        <time>2017-03-16T11:31:56Z</time>
      </trkpt>
      <trkpt lat="43.64774" lon="3.82611">
        <ele>162.6</ele>
        <time>2017-03-16T11:31:58Z</time>
      </trkpt>
      <trkpt lat="43.64784" lon="3.82606">
        <ele>162.6</ele>
        <time>2017-03-16T11:32:00Z</time>
      </trkpt>
      <trkpt lat="43.64793" lon="3.82602">
        <ele>162.1</ele>
        <time>2017-03-16T11:32:02Z</time>
      </trkpt>
      <trkpt lat="43.64804" lon="3.82597">
        <ele>162.2</ele>
        <time>2017-03-16T11:32:04Z</time>
      </trkpt>
      <trkpt lat="43.64815" lon="3.82595">
        <ele>161.8</ele>
        <time>2017-03-16T11:32:06Z</time>
      </trkpt>
      <trkpt lat="43.64825" lon="3.82593">
        <ele>162.1</ele>
        <time>2017-03-16T11:32:08Z</time>
      </trkpt>
      <trkpt lat="43.64835" lon="3.82591">
        <ele>162.5</ele>
        <time>2017-03-16T11:32:10Z</time>
      </trkpt>
      <trkpt lat="43.64846" lon="3.82588">
        <ele>162.8</ele>
        <time>2017-03-16T11:32:12Z</time>
      </trkpt>
      <trkpt lat="43.64853" lon="3.82589">
        <ele>163</ele>
        <time>2017-03-16T11:32:13Z</time>
      </trkpt>
      <trkpt lat="43.64863" lon="3.82591">
        <ele>163.2</ele>
        <time>2017-03-16T11:32:15Z</time>
      </trkpt>
      <trkpt lat="43.64874" lon="3.82592">
        <ele>162.4</ele>
        <time>2017-03-16T11:32:17Z</time>
      </trkpt>
      <trkpt lat="43.64885" lon="3.82594">
        <ele>161.4</ele>
        <time>2017-03-16T11:32:19Z</time>
      </trkpt>
      <trkpt lat="43.64896" lon="3.82595">
        <ele>161.4</ele>
        <time>2017-03-16T11:32:21Z</time>
      </trkpt>
      <trkpt lat="43.64906" lon="3.82595">
        <ele>161</ele>
        <time>2017-03-16T11:32:23Z</time>
      </trkpt>
      <trkpt lat="43.64918" lon="3.82596">
        <ele>161</ele>
        <time>2017-03-16T11:32:25Z</time>
      </trkpt>
      <trkpt lat="43.64927" lon="3.82596">
        <ele>161.1</ele>
        <time>2017-03-16T11:32:27Z</time>
      </trkpt>
      <trkpt lat="43.64936" lon="3.82592">
        <ele>161.4</ele>
        <time>2017-03-16T11:32:29Z</time>
      </trkpt>
      <trkpt lat="43.64946" lon="3.82594">
        <ele>161.7</ele>
        <time>2017-03-16T11:32:31Z</time>
      </trkpt>
      <trkpt lat="43.64955" lon="3.82595">
        <ele>162</ele>
        <time>2017-03-16T11:32:33Z</time>
      </trkpt>
      <trkpt lat="43.64963" lon="3.82596">
        <ele>161.8</ele>
        <time>2017-03-16T11:32:35Z</time>
      </trkpt>
      <trkpt lat="43.64972" lon="3.82595">
        <ele>162</ele>
        <time>2017-03-16T11:32:38Z</time>
      </trkpt>
      <trkpt lat="43.6498" lon="3.82593">
        <ele>162.2</ele>
        <time>2017-03-16T11:32:40Z</time>
      </trkpt>
      <trkpt lat="43.64987" lon="3.82592">
        <ele>162.4</ele>
        <time>2017-03-16T11:32:42Z</time>
      </trkpt>
      <trkpt lat="43.64995" lon="3.82591">
        <ele>162.7</ele>
        <time>2017-03-16T11:32:44Z</time>
      </trkpt>
      <trkpt lat="43.65003" lon="3.8259">
        <ele>162.9</ele>
        <time>2017-03-16T11:32:46Z</time>
      </trkpt>
      <trkpt lat="43.65011" lon="3.8259">
        <ele>163.7</ele>
        <time>2017-03-16T11:32:48Z</time>
      </trkpt>
      <trkpt lat="43.65019" lon="3.8259">
        <ele>163.8</ele>
        <time>2017-03-16T11:32:50Z</time>
      </trkpt>
      <trkpt lat="43.65026" lon="3.82588">
        <ele>163.9</ele>
        <time>2017-03-16T11:32:52Z</time>
      </trkpt>
      <trkpt lat="43.65034" lon="3.82587">
        <ele>163.9</ele>
        <time>2017-03-16T11:32:54Z</time>
      </trkpt>
      <trkpt lat="43.65042" lon="3.82584">
        <ele>164.5</ele>
        <time>2017-03-16T11:32:56Z</time>
      </trkpt>
      <trkpt lat="43.65051" lon="3.82582">
        <ele>164.9</ele>
        <time>2017-03-16T11:32:58Z</time>
      </trkpt>
      <trkpt lat="43.65062" lon="3.82582">
        <ele>164.8</ele>
        <time>2017-03-16T11:33:01Z</time>
      </trkpt>
      <trkpt lat="43.65073" lon="3.8258">
        <ele>165.7</ele>
        <time>2017-03-16T11:33:04Z</time>
      </trkpt>
      <trkpt lat="43.65081" lon="3.82578">
        <ele>165.7</ele>
        <time>2017-03-16T11:33:06Z</time>
      </trkpt>
      <trkpt lat="43.65088" lon="3.82575">
        <ele>165.3</ele>
        <time>2017-03-16T11:33:08Z</time>
      </trkpt>
      <trkpt lat="43.65093" lon="3.82566">
        <ele>166.1</ele>
        <time>2017-03-16T11:33:10Z</time>
      </trkpt>
      <trkpt lat="43.65099" lon="3.82555">
        <ele>166.3</ele>
        <time>2017-03-16T11:33:12Z</time>
      </trkpt>
      <trkpt lat="43.65106" lon="3.82544">
        <ele>164.7</ele>
        <time>2017-03-16T11:33:14Z</time>
      </trkpt>
      <trkpt lat="43.65114" lon="3.82534">
        <ele>163.5</ele>
        <time>2017-03-16T11:33:16Z</time>
      </trkpt>
      <trkpt lat="43.65121" lon="3.82526">
        <ele>166</ele>
        <time>2017-03-16T11:33:18Z</time>
      </trkpt>
      <trkpt lat="43.65127" lon="3.82516">
        <ele>168.6</ele>
        <time>2017-03-16T11:33:20Z</time>
      </trkpt>
      <trkpt lat="43.65133" lon="3.82502">
        <ele>170.6</ele>
        <time>2017-03-16T11:33:22Z</time>
      </trkpt>
      <trkpt lat="43.6514" lon="3.82488">
        <ele>171.7</ele>
        <time>2017-03-16T11:33:24Z</time>
      </trkpt>
      <trkpt lat="43.65147" lon="3.82474">
        <ele>172.1</ele>
        <time>2017-03-16T11:33:26Z</time>
      </trkpt>
      <trkpt lat="43.65152" lon="3.8246">
        <ele>171.9</ele>
        <time>2017-03-16T11:33:28Z</time>
      </trkpt>
      <trkpt lat="43.65152" lon="3.82445">
        <ele>171.9</ele>
        <time>2017-03-16T11:33:30Z</time>
      </trkpt>
      <trkpt lat="43.65149" lon="3.82431">
        <ele>173.2</ele>
        <time>2017-03-16T11:33:32Z</time>
      </trkpt>
      <trkpt lat="43.65147" lon="3.82417">
        <ele>174.7</ele>
        <time>2017-03-16T11:33:34Z</time>
      </trkpt>
      <trkpt lat="43.65143" lon="3.82406">
        <ele>176.2</ele>
        <time>2017-03-16T11:33:36Z</time>
      </trkpt>
      <trkpt lat="43.65139" lon="3.82396">
        <ele>176.4</ele>
        <time>2017-03-16T11:33:38Z</time>
      </trkpt>
      <trkpt lat="43.65134" lon="3.82387">
        <ele>176.3</ele>
        <time>2017-03-16T11:33:40Z</time>
      </trkpt>
      <trkpt lat="43.6513" lon="3.82379">
        <ele>177</ele>
        <time>2017-03-16T11:33:44Z</time>
      </trkpt>
      <trkpt lat="43.65122" lon="3.82369">
        <ele>177.1</ele>
        <time>2017-03-16T11:33:47Z</time>
      </trkpt>
      <trkpt lat="43.65113" lon="3.82362">
        <ele>176.5</ele>
        <time>2017-03-16T11:33:49Z</time>
      </trkpt>
      <trkpt lat="43.65104" lon="3.82358">
        <ele>176.5</ele>
        <time>2017-03-16T11:33:51Z</time>
      </trkpt>
      <trkpt lat="43.65092" lon="3.82352">
        <ele>177</ele>
        <time>2017-03-16T11:33:53Z</time>
      </trkpt>
      <trkpt lat="43.65084" lon="3.82351">
        <ele>176.4</ele>
        <time>2017-03-16T11:33:55Z</time>
      </trkpt>
      <trkpt lat="43.65088" lon="3.82337">
        <ele>176.4</ele>
        <time>2017-03-16T11:33:59Z</time>
      </trkpt>
      <trkpt lat="43.65091" lon="3.82326">
        <ele>176.3</ele>
        <time>2017-03-16T11:34:01Z</time>
      </trkpt>
      <trkpt lat="43.65093" lon="3.82315">
        <ele>176.4</ele>
        <time>2017-03-16T11:34:03Z</time>
      </trkpt>
      <trkpt lat="43.65093" lon="3.82302">
        <ele>176.7</ele>
        <time>2017-03-16T11:34:06Z</time>
      </trkpt>
      <trkpt lat="43.65093" lon="3.82293">
        <ele>176.2</ele>
        <time>2017-03-16T11:34:09Z</time>
      </trkpt>
      <trkpt lat="43.65096" lon="3.82281">
        <ele>175.2</ele>
        <time>2017-03-16T11:34:12Z</time>
      </trkpt>
      <trkpt lat="43.65098" lon="3.82268">
        <ele>174</ele>
        <time>2017-03-16T11:34:15Z</time>
      </trkpt>
      <trkpt lat="43.65101" lon="3.82259">
        <ele>173.1</ele>
        <time>2017-03-16T11:34:17Z</time>
      </trkpt>
      <trkpt lat="43.65108" lon="3.82262">
        <ele>166.4</ele>
        <time>2017-03-16T11:34:20Z</time>
      </trkpt>
      <trkpt lat="43.65118" lon="3.82268">
        <ele>161.6</ele>
        <time>2017-03-16T11:34:23Z</time>
      </trkpt>
      <trkpt lat="43.65126" lon="3.82272">
        <ele>161.1</ele>
        <time>2017-03-16T11:34:25Z</time>
      </trkpt>
      <trkpt lat="43.65134" lon="3.82272">
        <ele>160.3</ele>
        <time>2017-03-16T11:34:28Z</time>
      </trkpt>
      <trkpt lat="43.65144" lon="3.82274">
        <ele>159.6</ele>
        <time>2017-03-16T11:34:31Z</time>
      </trkpt>
      <trkpt lat="43.65151" lon="3.8228">
        <ele>159.2</ele>
        <time>2017-03-16T11:34:33Z</time>
      </trkpt>
      <trkpt lat="43.6516" lon="3.82285">
        <ele>158.5</ele>
        <time>2017-03-16T11:34:36Z</time>
      </trkpt>
      <trkpt lat="43.65169" lon="3.82292">
        <ele>155.9</ele>
        <time>2017-03-16T11:34:39Z</time>
      </trkpt>
      <trkpt lat="43.65176" lon="3.82298">
        <ele>155.6</ele>
        <time>2017-03-16T11:34:41Z</time>
      </trkpt>
      <trkpt lat="43.65185" lon="3.82304">
        <ele>155.4</ele>
        <time>2017-03-16T11:34:44Z</time>
      </trkpt>
      <trkpt lat="43.65194" lon="3.82311">
        <ele>152.3</ele>
        <time>2017-03-16T11:34:47Z</time>
      </trkpt>
      <trkpt lat="43.65201" lon="3.82319">
        <ele>151.7</ele>
        <time>2017-03-16T11:34:49Z</time>
      </trkpt>
      <trkpt lat="43.65206" lon="3.82328">
        <ele>150.2</ele>
        <time>2017-03-16T11:34:51Z</time>
      </trkpt>
      <trkpt lat="43.6521" lon="3.82339">
        <ele>150.1</ele>
        <time>2017-03-16T11:34:54Z</time>
      </trkpt>
      <trkpt lat="43.65214" lon="3.82352">
        <ele>150.2</ele>
        <time>2017-03-16T11:34:57Z</time>
      </trkpt>
      <trkpt lat="43.65216" lon="3.82363">
        <ele>150.9</ele>
        <time>2017-03-16T11:34:59Z</time>
      </trkpt>
      <trkpt lat="43.65218" lon="3.82373">
        <ele>150.6</ele>
        <time>2017-03-16T11:35:01Z</time>
      </trkpt>
      <trkpt lat="43.65227" lon="3.82382">
        <ele>150.9</ele>
        <time>2017-03-16T11:35:05Z</time>
      </trkpt>
      <trkpt lat="43.65234" lon="3.82392">
        <ele>150.7</ele>
        <time>2017-03-16T11:35:07Z</time>
      </trkpt>
      <trkpt lat="43.65239" lon="3.82399">
        <ele>150.8</ele>
        <time>2017-03-16T11:35:09Z</time>
      </trkpt>
      <trkpt lat="43.65245" lon="3.82406">
        <ele>151.2</ele>
        <time>2017-03-16T11:35:12Z</time>
      </trkpt>
      <trkpt lat="43.65252" lon="3.82412">
        <ele>151.5</ele>
        <time>2017-03-16T11:35:15Z</time>
      </trkpt>
      <trkpt lat="43.6526" lon="3.82417">
        <ele>151.9</ele>
        <time>2017-03-16T11:35:19Z</time>
      </trkpt>
      <trkpt lat="43.6527" lon="3.82414">
        <ele>152.6</ele>
        <time>2017-03-16T11:35:21Z</time>
      </trkpt>
      <trkpt lat="43.65286" lon="3.82418">
        <ele>152.5</ele>
        <time>2017-03-16T11:35:23Z</time>
      </trkpt>
      <trkpt lat="43.65295" lon="3.8242">
        <ele>151.9</ele>
        <time>2017-03-16T11:35:24Z</time>
      </trkpt>
      <trkpt lat="43.65304" lon="3.82418">
        <ele>150.8</ele>
        <time>2017-03-16T11:35:25Z</time>
      </trkpt>
      <trkpt lat="43.65314" lon="3.82428">
        <ele>148.5</ele>
        <time>2017-03-16T11:35:27Z</time>
      </trkpt>
      <trkpt lat="43.65323" lon="3.8244">
        <ele>148.1</ele>
        <time>2017-03-16T11:35:29Z</time>
      </trkpt>
      <trkpt lat="43.6533" lon="3.82442">
        <ele>148</ele>
        <time>2017-03-16T11:35:31Z</time>
      </trkpt>
      <trkpt lat="43.65333" lon="3.8243">
        <ele>146.7</ele>
        <time>2017-03-16T11:35:35Z</time>
      </trkpt>
      <trkpt lat="43.65332" lon="3.82412">
        <ele>144.5</ele>
        <time>2017-03-16T11:35:37Z</time>
      </trkpt>
      <trkpt lat="43.65333" lon="3.82394">
        <ele>145.1</ele>
        <time>2017-03-16T11:35:39Z</time>
      </trkpt>
      <trkpt lat="43.65334" lon="3.82375">
        <ele>144.8</ele>
        <time>2017-03-16T11:35:41Z</time>
      </trkpt>
      <trkpt lat="43.65336" lon="3.82358">
        <ele>144</ele>
        <time>2017-03-16T11:35:43Z</time>
      </trkpt>
      <trkpt lat="43.65338" lon="3.82339">
        <ele>144.3</ele>
        <time>2017-03-16T11:35:45Z</time>
      </trkpt>
      <trkpt lat="43.6534" lon="3.8233">
        <ele>144.1</ele>
        <time>2017-03-16T11:35:46Z</time>
      </trkpt>
      <trkpt lat="43.65342" lon="3.8232">
        <ele>144.2</ele>
        <time>2017-03-16T11:35:47Z</time>
      </trkpt>
      <trkpt lat="43.65344" lon="3.82309">
        <ele>143.6</ele>
        <time>2017-03-16T11:35:48Z</time>
      </trkpt>
      <trkpt lat="43.65346" lon="3.82298">
        <ele>143.1</ele>
        <time>2017-03-16T11:35:49Z</time>
      </trkpt>
      <trkpt lat="43.65347" lon="3.82287">
        <ele>142.3</ele>
        <time>2017-03-16T11:35:50Z</time>
      </trkpt>
      <trkpt lat="43.65348" lon="3.82277">
        <ele>142.2</ele>
        <time>2017-03-16T11:35:51Z</time>
      </trkpt>
      <trkpt lat="43.6535" lon="3.82267">
        <ele>141.4</ele>
        <time>2017-03-16T11:35:52Z</time>
      </trkpt>
      <trkpt lat="43.65352" lon="3.82247">
        <ele>139.5</ele>
        <time>2017-03-16T11:35:54Z</time>
      </trkpt>
      <trkpt lat="43.65355" lon="3.82231">
        <ele>139</ele>
        <time>2017-03-16T11:35:56Z</time>
      </trkpt>
      <trkpt lat="43.65359" lon="3.82218">
        <ele>138.3</ele>
        <time>2017-03-16T11:35:58Z</time>
      </trkpt>
      <trkpt lat="43.65366" lon="3.82205">
        <ele>138.7</ele>
        <time>2017-03-16T11:36:00Z</time>
      </trkpt>
      <trkpt lat="43.65371" lon="3.82197">
        <ele>138.1</ele>
        <time>2017-03-16T11:36:01Z</time>
      </trkpt>
      <trkpt lat="43.65377" lon="3.82188">
        <ele>137.5</ele>
        <time>2017-03-16T11:36:02Z</time>
      </trkpt>
      <trkpt lat="43.65382" lon="3.82179">
        <ele>137.2</ele>
        <time>2017-03-16T11:36:03Z</time>
      </trkpt>
      <trkpt lat="43.65387" lon="3.82166">
        <ele>136.3</ele>
        <time>2017-03-16T11:36:05Z</time>
      </trkpt>
      <trkpt lat="43.65391" lon="3.82156">
        <ele>135.3</ele>
        <time>2017-03-16T11:36:07Z</time>
      </trkpt>
      <trkpt lat="43.65395" lon="3.82143">
        <ele>135</ele>
        <time>2017-03-16T11:36:09Z</time>
      </trkpt>
      <trkpt lat="43.65398" lon="3.82131">
        <ele>134.2</ele>
        <time>2017-03-16T11:36:11Z</time>
      </trkpt>
      <trkpt lat="43.65399" lon="3.82122">
        <ele>133.5</ele>
        <time>2017-03-16T11:36:13Z</time>
      </trkpt>
      <trkpt lat="43.65401" lon="3.82111">
        <ele>133.9</ele>
        <time>2017-03-16T11:36:15Z</time>
      </trkpt>
      <trkpt lat="43.65399" lon="3.82098">
        <ele>135.5</ele>
        <time>2017-03-16T11:36:18Z</time>
      </trkpt>
      <trkpt lat="43.65393" lon="3.82091">
        <ele>135.8</ele>
        <time>2017-03-16T11:36:23Z</time>
      </trkpt>
      <trkpt lat="43.65387" lon="3.82084">
        <ele>136.4</ele>
        <time>2017-03-16T11:36:27Z</time>
      </trkpt>
      <trkpt lat="43.65381" lon="3.82074">
        <ele>136.8</ele>
        <time>2017-03-16T11:36:30Z</time>
      </trkpt>
      <trkpt lat="43.65371" lon="3.82062">
        <ele>137.2</ele>
        <time>2017-03-16T11:36:32Z</time>
      </trkpt>
      <trkpt lat="43.65372" lon="3.82048">
        <ele>140.3</ele>
        <time>2017-03-16T11:36:34Z</time>
      </trkpt>
      <trkpt lat="43.65378" lon="3.82035">
        <ele>142.1</ele>
        <time>2017-03-16T11:36:36Z</time>
      </trkpt>
      <trkpt lat="43.65384" lon="3.82024">
        <ele>142.2</ele>
        <time>2017-03-16T11:36:38Z</time>
      </trkpt>
      <trkpt lat="43.65391" lon="3.82011">
        <ele>141</ele>
        <time>2017-03-16T11:36:40Z</time>
      </trkpt>
      <trkpt lat="43.65395" lon="3.81996">
        <ele>139.5</ele>
        <time>2017-03-16T11:36:42Z</time>
      </trkpt>
      <trkpt lat="43.65401" lon="3.8198">
        <ele>139.1</ele>
        <time>2017-03-16T11:36:44Z</time>
      </trkpt>
      <trkpt lat="43.65411" lon="3.81976">
        <ele>138.1</ele>
        <time>2017-03-16T11:36:46Z</time>
      </trkpt>
      <trkpt lat="43.65422" lon="3.8197">
        <ele>137.8</ele>
        <time>2017-03-16T11:36:48Z</time>
      </trkpt>
      <trkpt lat="43.65423" lon="3.81959">
        <ele>138.1</ele>
        <time>2017-03-16T11:36:51Z</time>
      </trkpt>
      <trkpt lat="43.65415" lon="3.81948">
        <ele>140.5</ele>
        <time>2017-03-16T11:36:54Z</time>
      </trkpt>
      <trkpt lat="43.6541" lon="3.81938">
        <ele>142.3</ele>
        <time>2017-03-16T11:36:56Z</time>
      </trkpt>
      <trkpt lat="43.65405" lon="3.81926">
        <ele>141.4</ele>
        <time>2017-03-16T11:36:58Z</time>
      </trkpt>
      <trkpt lat="43.65402" lon="3.81908">
        <ele>140.1</ele>
        <time>2017-03-16T11:37:00Z</time>
      </trkpt>
      <trkpt lat="43.654" lon="3.81894">
        <ele>140.1</ele>
        <time>2017-03-16T11:37:02Z</time>
      </trkpt>
      <trkpt lat="43.65398" lon="3.81884">
        <ele>140.2</ele>
        <time>2017-03-16T11:37:04Z</time>
      </trkpt>
      <trkpt lat="43.65397" lon="3.81871">
        <ele>140.1</ele>
        <time>2017-03-16T11:37:06Z</time>
      </trkpt>
      <trkpt lat="43.65399" lon="3.81861">
        <ele>140.3</ele>
        <time>2017-03-16T11:37:07Z</time>
      </trkpt>
      <trkpt lat="43.65405" lon="3.8185">
        <ele>140.1</ele>
        <time>2017-03-16T11:37:08Z</time>
      </trkpt>
      <trkpt lat="43.65414" lon="3.81841">
        <ele>138.6</ele>
        <time>2017-03-16T11:37:10Z</time>
      </trkpt>
      <trkpt lat="43.65426" lon="3.81834">
        <ele>137.2</ele>
        <time>2017-03-16T11:37:12Z</time>
      </trkpt>
      <trkpt lat="43.65435" lon="3.81829">
        <ele>134.8</ele>
        <time>2017-03-16T11:37:14Z</time>
      </trkpt>
      <trkpt lat="43.65445" lon="3.81824">
        <ele>132.5</ele>
        <time>2017-03-16T11:37:16Z</time>
      </trkpt>
      <trkpt lat="43.65456" lon="3.81821">
        <ele>130.9</ele>
        <time>2017-03-16T11:37:18Z</time>
      </trkpt>
      <trkpt lat="43.65467" lon="3.81818">
        <ele>129.7</ele>
        <time>2017-03-16T11:37:20Z</time>
      </trkpt>
      <trkpt lat="43.65478" lon="3.81813">
        <ele>130.3</ele>
        <time>2017-03-16T11:37:22Z</time>
      </trkpt>
      <trkpt lat="43.65485" lon="3.81803">
        <ele>130.3</ele>
        <time>2017-03-16T11:37:24Z</time>
      </trkpt>
      <trkpt lat="43.65493" lon="3.81795">
        <ele>129.6</ele>
        <time>2017-03-16T11:37:26Z</time>
      </trkpt>
      <trkpt lat="43.655" lon="3.81787">
        <ele>129.7</ele>
        <time>2017-03-16T11:37:28Z</time>
      </trkpt>
      <trkpt lat="43.65508" lon="3.81778">
        <ele>130.6</ele>
        <time>2017-03-16T11:37:30Z</time>
      </trkpt>
      <trkpt lat="43.65515" lon="3.81769">
        <ele>131.1</ele>
        <time>2017-03-16T11:37:32Z</time>
      </trkpt>
      <trkpt lat="43.65524" lon="3.8176">
        <ele>131.5</ele>
        <time>2017-03-16T11:37:34Z</time>
      </trkpt>
      <trkpt lat="43.65532" lon="3.81752">
        <ele>132.4</ele>
        <time>2017-03-16T11:37:36Z</time>
      </trkpt>
      <trkpt lat="43.6554" lon="3.81744">
        <ele>133.2</ele>
        <time>2017-03-16T11:37:38Z</time>
      </trkpt>
      <trkpt lat="43.65547" lon="3.81736">
        <ele>133.6</ele>
        <time>2017-03-16T11:37:40Z</time>
      </trkpt>
      <trkpt lat="43.65556" lon="3.81727">
        <ele>134.2</ele>
        <time>2017-03-16T11:37:42Z</time>
      </trkpt>
      <trkpt lat="43.65564" lon="3.81718">
        <ele>134.3</ele>
        <time>2017-03-16T11:37:44Z</time>
      </trkpt>
      <trkpt lat="43.65573" lon="3.81709">
        <ele>133.2</ele>
        <time>2017-03-16T11:37:46Z</time>
      </trkpt>
      <trkpt lat="43.65579" lon="3.81703">
        <ele>132.2</ele>
        <time>2017-03-16T11:37:48Z</time>
      </trkpt>
      <trkpt lat="43.65587" lon="3.81694">
        <ele>131.8</ele>
        <time>2017-03-16T11:37:50Z</time>
      </trkpt>
      <trkpt lat="43.65596" lon="3.81684">
        <ele>132.1</ele>
        <time>2017-03-16T11:37:52Z</time>
      </trkpt>
      <trkpt lat="43.65606" lon="3.81678">
        <ele>131.8</ele>
        <time>2017-03-16T11:37:54Z</time>
      </trkpt>
      <trkpt lat="43.65615" lon="3.81676">
        <ele>133.2</ele>
        <time>2017-03-16T11:37:56Z</time>
      </trkpt>
      <trkpt lat="43.65623" lon="3.81674">
        <ele>133.5</ele>
        <time>2017-03-16T11:37:58Z</time>
      </trkpt>
      <trkpt lat="43.6563" lon="3.81669">
        <ele>134.4</ele>
        <time>2017-03-16T11:38:00Z</time>
      </trkpt>
      <trkpt lat="43.65638" lon="3.81663">
        <ele>134.5</ele>
        <time>2017-03-16T11:38:02Z</time>
      </trkpt>
      <trkpt lat="43.65647" lon="3.81661">
        <ele>134.5</ele>
        <time>2017-03-16T11:38:04Z</time>
      </trkpt>
      <trkpt lat="43.65654" lon="3.8166">
        <ele>134.6</ele>
        <time>2017-03-16T11:38:06Z</time>
      </trkpt>
      <trkpt lat="43.65662" lon="3.81659">
        <ele>134.5</ele>
        <time>2017-03-16T11:38:08Z</time>
      </trkpt>
      <trkpt lat="43.6567" lon="3.81655">
        <ele>134.6</ele>
        <time>2017-03-16T11:38:11Z</time>
      </trkpt>
      <trkpt lat="43.65679" lon="3.81653">
        <ele>136.5</ele>
        <time>2017-03-16T11:38:14Z</time>
      </trkpt>
      <trkpt lat="43.65685" lon="3.81661">
        <ele>137.4</ele>
        <time>2017-03-16T11:38:16Z</time>
      </trkpt>
      <trkpt lat="43.65694" lon="3.81658">
        <ele>138.1</ele>
        <time>2017-03-16T11:38:19Z</time>
      </trkpt>
      <trkpt lat="43.657" lon="3.81652">
        <ele>138.2</ele>
        <time>2017-03-16T11:38:22Z</time>
      </trkpt>
      <trkpt lat="43.65708" lon="3.81641">
        <ele>138.5</ele>
        <time>2017-03-16T11:38:25Z</time>
      </trkpt>
      <trkpt lat="43.65712" lon="3.81634">
        <ele>138.6</ele>
        <time>2017-03-16T11:38:27Z</time>
      </trkpt>
      <trkpt lat="43.65717" lon="3.81626">
        <ele>138.9</ele>
        <time>2017-03-16T11:38:29Z</time>
      </trkpt>
      <trkpt lat="43.65722" lon="3.81617">
        <ele>139.2</ele>
        <time>2017-03-16T11:38:31Z</time>
      </trkpt>
      <trkpt lat="43.65728" lon="3.81611">
        <ele>139.5</ele>
        <time>2017-03-16T11:38:33Z</time>
      </trkpt>
      <trkpt lat="43.65735" lon="3.81605">
        <ele>140.8</ele>
        <time>2017-03-16T11:38:35Z</time>
      </trkpt>
      <trkpt lat="43.65744" lon="3.81598">
        <ele>141.8</ele>
        <time>2017-03-16T11:38:37Z</time>
      </trkpt>
      <trkpt lat="43.65753" lon="3.8159">
        <ele>142.9</ele>
        <time>2017-03-16T11:38:39Z</time>
      </trkpt>
      <trkpt lat="43.65761" lon="3.81581">
        <ele>143.9</ele>
        <time>2017-03-16T11:38:41Z</time>
      </trkpt>
      <trkpt lat="43.65769" lon="3.81572">
        <ele>144.7</ele>
        <time>2017-03-16T11:38:43Z</time>
      </trkpt>
      <trkpt lat="43.65777" lon="3.81561">
        <ele>145.8</ele>
        <time>2017-03-16T11:38:45Z</time>
      </trkpt>
      <trkpt lat="43.65787" lon="3.81552">
        <ele>145</ele>
        <time>2017-03-16T11:38:47Z</time>
      </trkpt>
      <trkpt lat="43.65796" lon="3.81544">
        <ele>143.4</ele>
        <time>2017-03-16T11:38:49Z</time>
      </trkpt>
      <trkpt lat="43.65805" lon="3.81538">
        <ele>140.8</ele>
        <time>2017-03-16T11:38:51Z</time>
      </trkpt>
      <trkpt lat="43.65813" lon="3.81531">
        <ele>138.5</ele>
        <time>2017-03-16T11:38:53Z</time>
      </trkpt>
      <trkpt lat="43.65822" lon="3.81523">
        <ele>138.2</ele>
        <time>2017-03-16T11:38:55Z</time>
      </trkpt>
      <trkpt lat="43.65829" lon="3.81517">
        <ele>138.5</ele>
        <time>2017-03-16T11:38:57Z</time>
      </trkpt>
      <trkpt lat="43.65838" lon="3.81508">
        <ele>138.2</ele>
        <time>2017-03-16T11:38:59Z</time>
      </trkpt>
      <trkpt lat="43.65846" lon="3.81499">
        <ele>138.8</ele>
        <time>2017-03-16T11:39:01Z</time>
      </trkpt>
      <trkpt lat="43.65854" lon="3.8149">
        <ele>138.5</ele>
        <time>2017-03-16T11:39:03Z</time>
      </trkpt>
      <trkpt lat="43.65862" lon="3.81481">
        <ele>139.3</ele>
        <time>2017-03-16T11:39:05Z</time>
      </trkpt>
      <trkpt lat="43.65871" lon="3.81472">
        <ele>140.6</ele>
        <time>2017-03-16T11:39:07Z</time>
      </trkpt>
      <trkpt lat="43.65878" lon="3.81463">
        <ele>140.7</ele>
        <time>2017-03-16T11:39:09Z</time>
      </trkpt>
      <trkpt lat="43.65885" lon="3.81452">
        <ele>140.8</ele>
        <time>2017-03-16T11:39:11Z</time>
      </trkpt>
      <trkpt lat="43.65893" lon="3.81442">
        <ele>140.6</ele>
        <time>2017-03-16T11:39:13Z</time>
      </trkpt>
      <trkpt lat="43.65903" lon="3.81434">
        <ele>139.1</ele>
        <time>2017-03-16T11:39:15Z</time>
      </trkpt>
      <trkpt lat="43.65914" lon="3.81427">
        <ele>137.9</ele>
        <time>2017-03-16T11:39:17Z</time>
      </trkpt>
      <trkpt lat="43.65925" lon="3.81419">
        <ele>138.9</ele>
        <time>2017-03-16T11:39:19Z</time>
      </trkpt>
      <trkpt lat="43.65935" lon="3.81411">
        <ele>139.9</ele>
        <time>2017-03-16T11:39:21Z</time>
      </trkpt>
      <trkpt lat="43.65945" lon="3.81405">
        <ele>140.8</ele>
        <time>2017-03-16T11:39:23Z</time>
      </trkpt>
      <trkpt lat="43.65956" lon="3.81401">
        <ele>141.5</ele>
        <time>2017-03-16T11:39:25Z</time>
      </trkpt>
      <trkpt lat="43.65966" lon="3.81396">
        <ele>141.5</ele>
        <time>2017-03-16T11:39:27Z</time>
      </trkpt>
      <trkpt lat="43.65975" lon="3.81391">
        <ele>140.9</ele>
        <time>2017-03-16T11:39:29Z</time>
      </trkpt>
      <trkpt lat="43.65985" lon="3.81386">
        <ele>139.5</ele>
        <time>2017-03-16T11:39:31Z</time>
      </trkpt>
      <trkpt lat="43.65995" lon="3.81382">
        <ele>139</ele>
        <time>2017-03-16T11:39:33Z</time>
      </trkpt>
      <trkpt lat="43.66002" lon="3.81379">
        <ele>138.5</ele>
        <time>2017-03-16T11:39:35Z</time>
      </trkpt>
      <trkpt lat="43.6601" lon="3.81377">
        <ele>138.5</ele>
        <time>2017-03-16T11:39:37Z</time>
      </trkpt>
      <trkpt lat="43.6602" lon="3.81375">
        <ele>138.6</ele>
        <time>2017-03-16T11:39:40Z</time>
      </trkpt>
      <trkpt lat="43.66029" lon="3.81373">
        <ele>138.6</ele>
        <time>2017-03-16T11:39:42Z</time>
      </trkpt>
      <trkpt lat="43.66039" lon="3.81371">
        <ele>138.5</ele>
        <time>2017-03-16T11:39:44Z</time>
      </trkpt>
      <trkpt lat="43.66047" lon="3.81368">
        <ele>137.8</ele>
        <time>2017-03-16T11:39:46Z</time>
      </trkpt>
      <trkpt lat="43.66056" lon="3.81365">
        <ele>136.9</ele>
        <time>2017-03-16T11:39:48Z</time>
      </trkpt>
      <trkpt lat="43.66064" lon="3.81361">
        <ele>136.4</ele>
        <time>2017-03-16T11:39:50Z</time>
      </trkpt>
      <trkpt lat="43.66074" lon="3.81358">
        <ele>136.2</ele>
        <time>2017-03-16T11:39:53Z</time>
      </trkpt>
      <trkpt lat="43.66081" lon="3.81355">
        <ele>136.2</ele>
        <time>2017-03-16T11:39:55Z</time>
      </trkpt>
      <trkpt lat="43.66091" lon="3.81351">
        <ele>135</ele>
        <time>2017-03-16T11:39:57Z</time>
      </trkpt>
      <trkpt lat="43.66098" lon="3.81347">
        <ele>134.6</ele>
        <time>2017-03-16T11:39:59Z</time>
      </trkpt>
      <trkpt lat="43.66105" lon="3.81344">
        <ele>134.7</ele>
        <time>2017-03-16T11:40:01Z</time>
      </trkpt>
      <trkpt lat="43.66113" lon="3.8134">
        <ele>134.8</ele>
        <time>2017-03-16T11:40:03Z</time>
      </trkpt>
      <trkpt lat="43.66121" lon="3.81336">
        <ele>134.9</ele>
        <time>2017-03-16T11:40:05Z</time>
      </trkpt>
      <trkpt lat="43.66128" lon="3.81332">
        <ele>136.7</ele>
        <time>2017-03-16T11:40:07Z</time>
      </trkpt>
      <trkpt lat="43.66134" lon="3.81328">
        <ele>136.6</ele>
        <time>2017-03-16T11:40:09Z</time>
      </trkpt>
      <trkpt lat="43.66142" lon="3.81323">
        <ele>136.6</ele>
        <time>2017-03-16T11:40:11Z</time>
      </trkpt>
      <trkpt lat="43.66149" lon="3.81319">
        <ele>136.6</ele>
        <time>2017-03-16T11:40:13Z</time>
      </trkpt>
      <trkpt lat="43.66156" lon="3.81312">
        <ele>136.7</ele>
        <time>2017-03-16T11:40:16Z</time>
      </trkpt>
      <trkpt lat="43.66164" lon="3.81305">
        <ele>136.9</ele>
        <time>2017-03-16T11:40:19Z</time>
      </trkpt>
      <trkpt lat="43.66172" lon="3.81298">
        <ele>137.2</ele>
        <time>2017-03-16T11:40:22Z</time>
      </trkpt>
      <trkpt lat="43.6618" lon="3.81292">
        <ele>137.5</ele>
        <time>2017-03-16T11:40:25Z</time>
      </trkpt>
      <trkpt lat="43.66188" lon="3.81287">
        <ele>137.8</ele>
        <time>2017-03-16T11:40:28Z</time>
      </trkpt>
      <trkpt lat="43.66196" lon="3.81282">
        <ele>138.3</ele>
        <time>2017-03-16T11:40:31Z</time>
      </trkpt>
      <trkpt lat="43.66203" lon="3.81278">
        <ele>138.8</ele>
        <time>2017-03-16T11:40:34Z</time>
      </trkpt>
      <trkpt lat="43.6621" lon="3.81274">
        <ele>139.3</ele>
        <time>2017-03-16T11:40:37Z</time>
      </trkpt>
      <trkpt lat="43.66218" lon="3.81268">
        <ele>139.7</ele>
        <time>2017-03-16T11:40:40Z</time>
      </trkpt>
      <trkpt lat="43.66226" lon="3.81266">
        <ele>140</ele>
        <time>2017-03-16T11:40:42Z</time>
      </trkpt>
      <trkpt lat="43.66232" lon="3.81262">
        <ele>140.5</ele>
        <time>2017-03-16T11:40:45Z</time>
      </trkpt>
      <trkpt lat="43.66241" lon="3.81261">
        <ele>140.9</ele>
        <time>2017-03-16T11:40:48Z</time>
      </trkpt>
      <trkpt lat="43.6625" lon="3.81258">
        <ele>141.2</ele>
        <time>2017-03-16T11:40:52Z</time>
      </trkpt>
      <trkpt lat="43.66259" lon="3.81255">
        <ele>141.7</ele>
        <time>2017-03-16T11:40:56Z</time>
      </trkpt>
      <trkpt lat="43.66268" lon="3.81251">
        <ele>142.4</ele>
        <time>2017-03-16T11:41:00Z</time>
      </trkpt>
      <trkpt lat="43.66273" lon="3.81244">
        <ele>143</ele>
        <time>2017-03-16T11:41:04Z</time>
      </trkpt>
      <trkpt lat="43.66282" lon="3.81238">
        <ele>143.8</ele>
        <time>2017-03-16T11:41:08Z</time>
      </trkpt>
      <trkpt lat="43.66291" lon="3.81234">
        <ele>144.7</ele>
        <time>2017-03-16T11:41:12Z</time>
      </trkpt>
      <trkpt lat="43.66299" lon="3.81232">
        <ele>145.5</ele>
        <time>2017-03-16T11:41:15Z</time>
      </trkpt>
      <trkpt lat="43.66308" lon="3.81231">
        <ele>146.2</ele>
        <time>2017-03-16T11:41:18Z</time>
      </trkpt>
      <trkpt lat="43.66317" lon="3.81233">
        <ele>147</ele>
        <time>2017-03-16T11:41:22Z</time>
      </trkpt>
      <trkpt lat="43.66326" lon="3.81232">
        <ele>147.7</ele>
        <time>2017-03-16T11:41:26Z</time>
      </trkpt>
      <trkpt lat="43.66333" lon="3.81232">
        <ele>148.7</ele>
        <time>2017-03-16T11:41:30Z</time>
      </trkpt>
      <trkpt lat="43.66342" lon="3.81227">
        <ele>150</ele>
        <time>2017-03-16T11:41:35Z</time>
      </trkpt>
      <trkpt lat="43.66351" lon="3.81227">
        <ele>151.1</ele>
        <time>2017-03-16T11:41:39Z</time>
      </trkpt>
      <trkpt lat="43.66359" lon="3.81227">
        <ele>151.9</ele>
        <time>2017-03-16T11:41:42Z</time>
      </trkpt>
      <trkpt lat="43.66367" lon="3.81228">
        <ele>153.1</ele>
        <time>2017-03-16T11:41:46Z</time>
      </trkpt>
      <trkpt lat="43.66375" lon="3.81232">
        <ele>154.1</ele>
        <time>2017-03-16T11:41:50Z</time>
      </trkpt>
      <trkpt lat="43.66383" lon="3.81234">
        <ele>155.1</ele>
        <time>2017-03-16T11:41:54Z</time>
      </trkpt>
      <trkpt lat="43.66391" lon="3.81234">
        <ele>156.1</ele>
        <time>2017-03-16T11:41:57Z</time>
      </trkpt>
      <trkpt lat="43.66399" lon="3.81234">
        <ele>156.9</ele>
        <time>2017-03-16T11:42:00Z</time>
      </trkpt>
      <trkpt lat="43.66408" lon="3.81232">
        <ele>157.9</ele>
        <time>2017-03-16T11:42:04Z</time>
      </trkpt>
      <trkpt lat="43.66416" lon="3.81229">
        <ele>159.3</ele>
        <time>2017-03-16T11:42:08Z</time>
      </trkpt>
      <trkpt lat="43.66425" lon="3.81227">
        <ele>160.9</ele>
        <time>2017-03-16T11:42:12Z</time>
      </trkpt>
      <trkpt lat="43.66433" lon="3.81227">
        <ele>162.3</ele>
        <time>2017-03-16T11:42:15Z</time>
      </trkpt>
      <trkpt lat="43.66441" lon="3.81227">
        <ele>163.4</ele>
        <time>2017-03-16T11:42:18Z</time>
      </trkpt>
      <trkpt lat="43.66449" lon="3.81228">
        <ele>164.2</ele>
        <time>2017-03-16T11:42:21Z</time>
      </trkpt>
      <trkpt lat="43.66456" lon="3.8123">
        <ele>164.9</ele>
        <time>2017-03-16T11:42:24Z</time>
      </trkpt>
      <trkpt lat="43.66464" lon="3.81232">
        <ele>165.4</ele>
        <time>2017-03-16T11:42:27Z</time>
      </trkpt>
      <trkpt lat="43.66471" lon="3.81232">
        <ele>166.2</ele>
        <time>2017-03-16T11:42:30Z</time>
      </trkpt>
      <trkpt lat="43.6648" lon="3.81231">
        <ele>167.4</ele>
        <time>2017-03-16T11:42:34Z</time>
      </trkpt>
      <trkpt lat="43.66489" lon="3.81231">
        <ele>168.3</ele>
        <time>2017-03-16T11:42:37Z</time>
      </trkpt>
      <trkpt lat="43.66496" lon="3.81231">
        <ele>169.2</ele>
        <time>2017-03-16T11:42:40Z</time>
      </trkpt>
      <trkpt lat="43.66505" lon="3.8123">
        <ele>170.8</ele>
        <time>2017-03-16T11:42:44Z</time>
      </trkpt>
      <trkpt lat="43.66513" lon="3.8123">
        <ele>171.9</ele>
        <time>2017-03-16T11:42:47Z</time>
      </trkpt>
      <trkpt lat="43.66521" lon="3.81232">
        <ele>172.9</ele>
        <time>2017-03-16T11:42:50Z</time>
      </trkpt>
      <trkpt lat="43.6653" lon="3.81231">
        <ele>174.1</ele>
        <time>2017-03-16T11:42:54Z</time>
      </trkpt>
      <trkpt lat="43.66537" lon="3.81229">
        <ele>174.9</ele>
        <time>2017-03-16T11:42:57Z</time>
      </trkpt>
      <trkpt lat="43.66545" lon="3.8123">
        <ele>175.7</ele>
        <time>2017-03-16T11:43:00Z</time>
      </trkpt>
      <trkpt lat="43.66552" lon="3.81231">
        <ele>176.7</ele>
        <time>2017-03-16T11:43:03Z</time>
      </trkpt>
      <trkpt lat="43.6656" lon="3.81229">
        <ele>178.4</ele>
        <time>2017-03-16T11:43:07Z</time>
      </trkpt>
      <trkpt lat="43.66569" lon="3.8123">
        <ele>179.4</ele>
        <time>2017-03-16T11:43:10Z</time>
      </trkpt>
      <trkpt lat="43.66576" lon="3.81231">
        <ele>180.5</ele>
        <time>2017-03-16T11:43:13Z</time>
      </trkpt>
      <trkpt lat="43.66585" lon="3.81234">
        <ele>181.7</ele>
        <time>2017-03-16T11:43:17Z</time>
      </trkpt>
      <trkpt lat="43.66594" lon="3.81233">
        <ele>182.7</ele>
        <time>2017-03-16T11:43:21Z</time>
      </trkpt>
      <trkpt lat="43.66603" lon="3.81232">
        <ele>183.6</ele>
        <time>2017-03-16T11:43:26Z</time>
      </trkpt>
      <trkpt lat="43.66611" lon="3.81227">
        <ele>183.9</ele>
        <time>2017-03-16T11:43:30Z</time>
      </trkpt>
      <trkpt lat="43.66619" lon="3.81224">
        <ele>184.2</ele>
        <time>2017-03-16T11:43:33Z</time>
      </trkpt>
      <trkpt lat="43.66628" lon="3.81222">
        <ele>184.6</ele>
        <time>2017-03-16T11:43:36Z</time>
      </trkpt>
      <trkpt lat="43.66637" lon="3.81223">
        <ele>184.9</ele>
        <time>2017-03-16T11:43:39Z</time>
      </trkpt>
      <trkpt lat="43.66646" lon="3.81223">
        <ele>185.2</ele>
        <time>2017-03-16T11:43:42Z</time>
      </trkpt>
      <trkpt lat="43.66653" lon="3.81219">
        <ele>185.5</ele>
        <time>2017-03-16T11:43:45Z</time>
      </trkpt>
      <trkpt lat="43.66662" lon="3.81215">
        <ele>185.7</ele>
        <time>2017-03-16T11:43:48Z</time>
      </trkpt>
      <trkpt lat="43.66672" lon="3.81213">
        <ele>186.1</ele>
        <time>2017-03-16T11:43:51Z</time>
      </trkpt>
      <trkpt lat="43.66682" lon="3.81214">
        <ele>186.5</ele>
        <time>2017-03-16T11:43:54Z</time>
      </trkpt>
      <trkpt lat="43.66693" lon="3.81215">
        <ele>188.2</ele>
        <time>2017-03-16T11:43:57Z</time>
      </trkpt>
      <trkpt lat="43.66703" lon="3.81216">
        <ele>190.1</ele>
        <time>2017-03-16T11:43:59Z</time>
      </trkpt>
      <trkpt lat="43.66711" lon="3.81216">
        <ele>190.9</ele>
        <time>2017-03-16T11:44:01Z</time>
      </trkpt>
      <trkpt lat="43.66718" lon="3.81216">
        <ele>192.1</ele>
        <time>2017-03-16T11:44:03Z</time>
      </trkpt>
      <trkpt lat="43.66726" lon="3.81214">
        <ele>192.1</ele>
        <time>2017-03-16T11:44:05Z</time>
      </trkpt>
      <trkpt lat="43.66737" lon="3.81215">
        <ele>192</ele>
        <time>2017-03-16T11:44:08Z</time>
      </trkpt>
      <trkpt lat="43.66744" lon="3.81219">
        <ele>192</ele>
        <time>2017-03-16T11:44:10Z</time>
      </trkpt>
      <trkpt lat="43.66751" lon="3.81214">
        <ele>192</ele>
        <time>2017-03-16T11:44:13Z</time>
      </trkpt>
      <trkpt lat="43.66751" lon="3.81202">
        <ele>192</ele>
        <time>2017-03-16T11:44:18Z</time>
      </trkpt>
      <trkpt lat="43.66752" lon="3.81192">
        <ele>192.4</ele>
        <time>2017-03-16T11:44:21Z</time>
      </trkpt>
      <trkpt lat="43.66755" lon="3.81177">
        <ele>192.8</ele>
        <time>2017-03-16T11:44:24Z</time>
      </trkpt>
      <trkpt lat="43.66754" lon="3.81166">
        <ele>194.3</ele>
        <time>2017-03-16T11:44:26Z</time>
      </trkpt>
      <trkpt lat="43.66752" lon="3.81155">
        <ele>195.4</ele>
        <time>2017-03-16T11:44:28Z</time>
      </trkpt>
      <trkpt lat="43.6675" lon="3.81143">
        <ele>196.1</ele>
        <time>2017-03-16T11:44:30Z</time>
      </trkpt>
      <trkpt lat="43.6675" lon="3.81127">
        <ele>197.3</ele>
        <time>2017-03-16T11:44:32Z</time>
      </trkpt>
      <trkpt lat="43.6675" lon="3.81113">
        <ele>199.3</ele>
        <time>2017-03-16T11:44:34Z</time>
      </trkpt>
      <trkpt lat="43.66752" lon="3.81099">
        <ele>201.5</ele>
        <time>2017-03-16T11:44:36Z</time>
      </trkpt>
      <trkpt lat="43.66752" lon="3.81082">
        <ele>202.7</ele>
        <time>2017-03-16T11:44:38Z</time>
      </trkpt>
      <trkpt lat="43.66751" lon="3.81065">
        <ele>203.4</ele>
        <time>2017-03-16T11:44:40Z</time>
      </trkpt>
      <trkpt lat="43.66752" lon="3.81046">
        <ele>203.5</ele>
        <time>2017-03-16T11:44:42Z</time>
      </trkpt>
      <trkpt lat="43.66752" lon="3.81036">
        <ele>203.3</ele>
        <time>2017-03-16T11:44:43Z</time>
      </trkpt>
      <trkpt lat="43.66753" lon="3.81025">
        <ele>203.4</ele>
        <time>2017-03-16T11:44:44Z</time>
      </trkpt>
      <trkpt lat="43.6676" lon="3.81011">
        <ele>200</ele>
        <time>2017-03-16T11:44:46Z</time>
      </trkpt>
      <trkpt lat="43.66769" lon="3.81006">
        <ele>198.5</ele>
        <time>2017-03-16T11:44:47Z</time>
      </trkpt>
      <trkpt lat="43.66778" lon="3.81003">
        <ele>196.9</ele>
        <time>2017-03-16T11:44:48Z</time>
      </trkpt>
      <trkpt lat="43.66785" lon="3.81001">
        <ele>195.4</ele>
        <time>2017-03-16T11:44:49Z</time>
      </trkpt>
      <trkpt lat="43.66795" lon="3.80996">
        <ele>192.7</ele>
        <time>2017-03-16T11:44:51Z</time>
      </trkpt>
      <trkpt lat="43.66806" lon="3.80989">
        <ele>190.7</ele>
        <time>2017-03-16T11:44:53Z</time>
      </trkpt>
      <trkpt lat="43.66816" lon="3.80983">
        <ele>188.7</ele>
        <time>2017-03-16T11:44:55Z</time>
      </trkpt>
      <trkpt lat="43.66825" lon="3.80978">
        <ele>188.4</ele>
        <time>2017-03-16T11:44:57Z</time>
      </trkpt>
      <trkpt lat="43.66835" lon="3.80972">
        <ele>189.2</ele>
        <time>2017-03-16T11:44:59Z</time>
      </trkpt>
      <trkpt lat="43.66845" lon="3.80965">
        <ele>188.6</ele>
        <time>2017-03-16T11:45:01Z</time>
      </trkpt>
      <trkpt lat="43.66854" lon="3.80958">
        <ele>187.9</ele>
        <time>2017-03-16T11:45:03Z</time>
      </trkpt>
      <trkpt lat="43.6686" lon="3.80952">
        <ele>186.8</ele>
        <time>2017-03-16T11:45:04Z</time>
      </trkpt>
      <trkpt lat="43.66873" lon="3.80941">
        <ele>185.7</ele>
        <time>2017-03-16T11:45:06Z</time>
      </trkpt>
      <trkpt lat="43.66883" lon="3.8093">
        <ele>184.7</ele>
        <time>2017-03-16T11:45:08Z</time>
      </trkpt>
      <trkpt lat="43.66891" lon="3.80918">
        <ele>184.7</ele>
        <time>2017-03-16T11:45:10Z</time>
      </trkpt>
      <trkpt lat="43.66899" lon="3.80908">
        <ele>184.2</ele>
        <time>2017-03-16T11:45:12Z</time>
      </trkpt>
      <trkpt lat="43.66907" lon="3.80891">
        <ele>184.3</ele>
        <time>2017-03-16T11:45:14Z</time>
      </trkpt>
      <trkpt lat="43.66912" lon="3.80875">
        <ele>183.2</ele>
        <time>2017-03-16T11:45:16Z</time>
      </trkpt>
      <trkpt lat="43.66917" lon="3.80859">
        <ele>182.6</ele>
        <time>2017-03-16T11:45:18Z</time>
      </trkpt>
      <trkpt lat="43.66918" lon="3.80846">
        <ele>182.2</ele>
        <time>2017-03-16T11:45:20Z</time>
      </trkpt>
      <trkpt lat="43.66919" lon="3.80834">
        <ele>182.2</ele>
        <time>2017-03-16T11:45:22Z</time>
      </trkpt>
      <trkpt lat="43.66921" lon="3.80824">
        <ele>182.6</ele>
        <time>2017-03-16T11:45:24Z</time>
      </trkpt>
      <trkpt lat="43.66922" lon="3.80812">
        <ele>184.4</ele>
        <time>2017-03-16T11:45:26Z</time>
      </trkpt>
      <trkpt lat="43.66923" lon="3.80799">
        <ele>184.8</ele>
        <time>2017-03-16T11:45:28Z</time>
      </trkpt>
      <trkpt lat="43.66925" lon="3.80786">
        <ele>184.4</ele>
        <time>2017-03-16T11:45:30Z</time>
      </trkpt>
      <trkpt lat="43.66925" lon="3.80769">
        <ele>183.5</ele>
        <time>2017-03-16T11:45:32Z</time>
      </trkpt>
      <trkpt lat="43.66925" lon="3.80749">
        <ele>182.9</ele>
        <time>2017-03-16T11:45:34Z</time>
      </trkpt>
      <trkpt lat="43.66925" lon="3.80738">
        <ele>183.1</ele>
        <time>2017-03-16T11:45:35Z</time>
      </trkpt>
      <trkpt lat="43.66925" lon="3.80726">
        <ele>183.2</ele>
        <time>2017-03-16T11:45:36Z</time>
      </trkpt>
      <trkpt lat="43.66925" lon="3.80715">
        <ele>183.8</ele>
        <time>2017-03-16T11:45:37Z</time>
      </trkpt>
      <trkpt lat="43.66925" lon="3.80702">
        <ele>184.8</ele>
        <time>2017-03-16T11:45:38Z</time>
      </trkpt>
      <trkpt lat="43.66925" lon="3.80687">
        <ele>184.6</ele>
        <time>2017-03-16T11:45:39Z</time>
      </trkpt>
      <trkpt lat="43.66925" lon="3.80671">
        <ele>184.9</ele>
        <time>2017-03-16T11:45:40Z</time>
      </trkpt>
      <trkpt lat="43.66925" lon="3.80656">
        <ele>184.6</ele>
        <time>2017-03-16T11:45:41Z</time>
      </trkpt>
      <trkpt lat="43.66926" lon="3.80638">
        <ele>184.2</ele>
        <time>2017-03-16T11:45:42Z</time>
      </trkpt>
      <trkpt lat="43.66926" lon="3.8062">
        <ele>183.5</ele>
        <time>2017-03-16T11:45:43Z</time>
      </trkpt>
      <trkpt lat="43.66926" lon="3.80604">
        <ele>183</ele>
        <time>2017-03-16T11:45:44Z</time>
      </trkpt>
      <trkpt lat="43.66927" lon="3.80587">
        <ele>182.6</ele>
        <time>2017-03-16T11:45:45Z</time>
      </trkpt>
      <trkpt lat="43.66928" lon="3.80573">
        <ele>182.2</ele>
        <time>2017-03-16T11:45:46Z</time>
      </trkpt>
      <trkpt lat="43.66929" lon="3.8056">
        <ele>181.6</ele>
        <time>2017-03-16T11:45:47Z</time>
      </trkpt>
      <trkpt lat="43.66931" lon="3.8055">
        <ele>180.6</ele>
        <time>2017-03-16T11:45:48Z</time>
      </trkpt>
      <trkpt lat="43.66934" lon="3.80534">
        <ele>177.4</ele>
        <time>2017-03-16T11:45:50Z</time>
      </trkpt>
      <trkpt lat="43.66931" lon="3.80523">
        <ele>174.4</ele>
        <time>2017-03-16T11:45:53Z</time>
      </trkpt>
      <trkpt lat="43.66924" lon="3.80528">
        <ele>174</ele>
        <time>2017-03-16T11:45:59Z</time>
      </trkpt>
      <trkpt lat="43.66917" lon="3.80515">
        <ele>174.1</ele>
        <time>2017-03-16T11:46:02Z</time>
      </trkpt>
      <trkpt lat="43.66918" lon="3.805">
        <ele>174.2</ele>
        <time>2017-03-16T11:46:04Z</time>
      </trkpt>
      <trkpt lat="43.66921" lon="3.80486">
        <ele>174.2</ele>
        <time>2017-03-16T11:46:06Z</time>
      </trkpt>
      <trkpt lat="43.66923" lon="3.80475">
        <ele>174.4</ele>
        <time>2017-03-16T11:46:08Z</time>
      </trkpt>
      <trkpt lat="43.66928" lon="3.80467">
        <ele>174.5</ele>
        <time>2017-03-16T11:46:10Z</time>
      </trkpt>
      <trkpt lat="43.66931" lon="3.80457">
        <ele>174.6</ele>
        <time>2017-03-16T11:46:13Z</time>
      </trkpt>
      <trkpt lat="43.66931" lon="3.80446">
        <ele>174.4</ele>
        <time>2017-03-16T11:46:18Z</time>
      </trkpt>
      <trkpt lat="43.66932" lon="3.80444">
        <ele>174.1</ele>
        <time>2017-03-16T11:46:25Z</time>
      </trkpt>
      <trkpt lat="43.66928" lon="3.80421">
        <ele>173.9</ele>
        <time>2017-03-16T11:46:29Z</time>
      </trkpt>
      <trkpt lat="43.66925" lon="3.80408">
        <ele>174.1</ele>
        <time>2017-03-16T11:46:32Z</time>
      </trkpt>
      <trkpt lat="43.66922" lon="3.80399">
        <ele>174.6</ele>
        <time>2017-03-16T11:46:34Z</time>
      </trkpt>
      <trkpt lat="43.66918" lon="3.80389">
        <ele>175.7</ele>
        <time>2017-03-16T11:46:37Z</time>
      </trkpt>
      <trkpt lat="43.66918" lon="3.80376">
        <ele>176.5</ele>
        <time>2017-03-16T11:46:39Z</time>
      </trkpt>
      <trkpt lat="43.6692" lon="3.80364">
        <ele>177.4</ele>
        <time>2017-03-16T11:46:41Z</time>
      </trkpt>
      <trkpt lat="43.66925" lon="3.80356">
        <ele>178.3</ele>
        <time>2017-03-16T11:46:43Z</time>
      </trkpt>
      <trkpt lat="43.66932" lon="3.80348">
        <ele>179.1</ele>
        <time>2017-03-16T11:46:45Z</time>
      </trkpt>
      <trkpt lat="43.66941" lon="3.80343">
        <ele>179.7</ele>
        <time>2017-03-16T11:46:47Z</time>
      </trkpt>
      <trkpt lat="43.66949" lon="3.8034">
        <ele>180</ele>
        <time>2017-03-16T11:46:49Z</time>
      </trkpt>
      <trkpt lat="43.66959" lon="3.80336">
        <ele>180.1</ele>
        <time>2017-03-16T11:46:51Z</time>
      </trkpt>
      <trkpt lat="43.66967" lon="3.80328">
        <ele>179.9</ele>
        <time>2017-03-16T11:46:54Z</time>
      </trkpt>
      <trkpt lat="43.66965" lon="3.80315">
        <ele>179.6</ele>
        <time>2017-03-16T11:46:58Z</time>
      </trkpt>
      <trkpt lat="43.66962" lon="3.80306">
        <ele>179.5</ele>
        <time>2017-03-16T11:47:02Z</time>
      </trkpt>
      <trkpt lat="43.66959" lon="3.803">
        <ele>179.4</ele>
        <time>2017-03-16T11:47:09Z</time>
      </trkpt>
      <trkpt lat="43.66952" lon="3.80294">
        <ele>179</ele>
        <time>2017-03-16T11:47:12Z</time>
      </trkpt>
      <trkpt lat="43.66944" lon="3.8029">
        <ele>178.8</ele>
        <time>2017-03-16T11:47:14Z</time>
      </trkpt>
      <trkpt lat="43.66935" lon="3.80289">
        <ele>178.6</ele>
        <time>2017-03-16T11:47:16Z</time>
      </trkpt>
      <trkpt lat="43.66922" lon="3.80288">
        <ele>178.2</ele>
        <time>2017-03-16T11:47:23Z</time>
      </trkpt>
      <trkpt lat="43.66912" lon="3.80279">
        <ele>177.9</ele>
        <time>2017-03-16T11:47:25Z</time>
      </trkpt>
      <trkpt lat="43.66905" lon="3.80274">
        <ele>177.5</ele>
        <time>2017-03-16T11:47:27Z</time>
      </trkpt>
      <trkpt lat="43.66897" lon="3.80268">
        <ele>176.8</ele>
        <time>2017-03-16T11:47:31Z</time>
      </trkpt>
      <trkpt lat="43.66889" lon="3.80263">
        <ele>176.8</ele>
        <time>2017-03-16T11:47:35Z</time>
      </trkpt>
      <trkpt lat="43.6688" lon="3.80261">
        <ele>177.1</ele>
        <time>2017-03-16T11:47:39Z</time>
      </trkpt>
      <trkpt lat="43.66871" lon="3.80262">
        <ele>177.3</ele>
        <time>2017-03-16T11:47:42Z</time>
      </trkpt>
      <trkpt lat="43.66861" lon="3.80267">
        <ele>177.7</ele>
        <time>2017-03-16T11:47:45Z</time>
      </trkpt>
      <trkpt lat="43.66853" lon="3.8027">
        <ele>178.1</ele>
        <time>2017-03-16T11:47:47Z</time>
      </trkpt>
      <trkpt lat="43.66844" lon="3.80274">
        <ele>178.5</ele>
        <time>2017-03-16T11:47:50Z</time>
      </trkpt>
      <trkpt lat="43.66835" lon="3.80279">
        <ele>179</ele>
        <time>2017-03-16T11:47:53Z</time>
      </trkpt>
      <trkpt lat="43.66826" lon="3.80284">
        <ele>179.7</ele>
        <time>2017-03-16T11:47:56Z</time>
      </trkpt>
      <trkpt lat="43.66817" lon="3.80287">
        <ele>180.9</ele>
        <time>2017-03-16T11:48:00Z</time>
      </trkpt>
      <trkpt lat="43.66808" lon="3.80287">
        <ele>181.7</ele>
        <time>2017-03-16T11:48:03Z</time>
      </trkpt>
      <trkpt lat="43.66799" lon="3.80285">
        <ele>182.4</ele>
        <time>2017-03-16T11:48:06Z</time>
      </trkpt>
      <trkpt lat="43.66785" lon="3.8029">
        <ele>184</ele>
        <time>2017-03-16T11:48:14Z</time>
      </trkpt>
      <trkpt lat="43.66768" lon="3.80287">
        <ele>184.7</ele>
        <time>2017-03-16T11:48:19Z</time>
      </trkpt>
      <trkpt lat="43.66753" lon="3.80285">
        <ele>185.3</ele>
        <time>2017-03-16T11:48:24Z</time>
      </trkpt>
      <trkpt lat="43.6674" lon="3.80284">
        <ele>186</ele>
        <time>2017-03-16T11:48:27Z</time>
      </trkpt>
      <trkpt lat="43.66731" lon="3.80282">
        <ele>186.4</ele>
        <time>2017-03-16T11:48:29Z</time>
      </trkpt>
      <trkpt lat="43.66722" lon="3.80283">
        <ele>187.3</ele>
        <time>2017-03-16T11:48:33Z</time>
      </trkpt>
      <trkpt lat="43.66714" lon="3.80282">
        <ele>187.8</ele>
        <time>2017-03-16T11:48:36Z</time>
      </trkpt>
      <trkpt lat="43.66706" lon="3.80284">
        <ele>188.1</ele>
        <time>2017-03-16T11:48:39Z</time>
      </trkpt>
      <trkpt lat="43.66695" lon="3.80285">
        <ele>188.4</ele>
        <time>2017-03-16T11:48:41Z</time>
      </trkpt>
      <trkpt lat="43.66685" lon="3.80287">
        <ele>188.5</ele>
        <time>2017-03-16T11:48:43Z</time>
      </trkpt>
      <trkpt lat="43.66677" lon="3.80287">
        <ele>188.7</ele>
        <time>2017-03-16T11:48:45Z</time>
      </trkpt>
      <trkpt lat="43.66668" lon="3.80287">
        <ele>189</ele>
        <time>2017-03-16T11:48:48Z</time>
      </trkpt>
      <trkpt lat="43.66659" lon="3.80285">
        <ele>189.4</ele>
        <time>2017-03-16T11:48:51Z</time>
      </trkpt>
      <trkpt lat="43.66649" lon="3.80283">
        <ele>190</ele>
        <time>2017-03-16T11:48:54Z</time>
      </trkpt>
      <trkpt lat="43.66641" lon="3.80283">
        <ele>190.1</ele>
        <time>2017-03-16T11:48:56Z</time>
      </trkpt>
      <trkpt lat="43.66632" lon="3.80286">
        <ele>190.2</ele>
        <time>2017-03-16T11:48:58Z</time>
      </trkpt>
      <trkpt lat="43.66623" lon="3.8029">
        <ele>190.2</ele>
        <time>2017-03-16T11:49:00Z</time>
      </trkpt>
      <trkpt lat="43.66616" lon="3.80292">
        <ele>190.1</ele>
        <time>2017-03-16T11:49:02Z</time>
      </trkpt>
      <trkpt lat="43.66608" lon="3.80294">
        <ele>189.9</ele>
        <time>2017-03-16T11:49:04Z</time>
      </trkpt>
      <trkpt lat="43.666" lon="3.80299">
        <ele>189.6</ele>
        <time>2017-03-16T11:49:06Z</time>
      </trkpt>
      <trkpt lat="43.66592" lon="3.80307">
        <ele>189.5</ele>
        <time>2017-03-16T11:49:09Z</time>
      </trkpt>
      <trkpt lat="43.66585" lon="3.8031">
        <ele>189.4</ele>
        <time>2017-03-16T11:49:12Z</time>
      </trkpt>
      <trkpt lat="43.66577" lon="3.80314">
        <ele>189.7</ele>
        <time>2017-03-16T11:49:15Z</time>
      </trkpt>
      <trkpt lat="43.66569" lon="3.8032">
        <ele>190.3</ele>
        <time>2017-03-16T11:49:19Z</time>
      </trkpt>
      <trkpt lat="43.6656" lon="3.80327">
        <ele>191.4</ele>
        <time>2017-03-16T11:49:23Z</time>
      </trkpt>
      <trkpt lat="43.6655" lon="3.80333">
        <ele>192.1</ele>
        <time>2017-03-16T11:49:27Z</time>
      </trkpt>
      <trkpt lat="43.66543" lon="3.80338">
        <ele>192.7</ele>
        <time>2017-03-16T11:49:30Z</time>
      </trkpt>
      <trkpt lat="43.66535" lon="3.80344">
        <ele>193.2</ele>
        <time>2017-03-16T11:49:33Z</time>
      </trkpt>
      <trkpt lat="43.66527" lon="3.8035">
        <ele>193.7</ele>
        <time>2017-03-16T11:49:37Z</time>
      </trkpt>
      <trkpt lat="43.66521" lon="3.80358">
        <ele>194.3</ele>
        <time>2017-03-16T11:49:40Z</time>
      </trkpt>
      <trkpt lat="43.6651" lon="3.80379">
        <ele>195.4</ele>
        <time>2017-03-16T11:49:47Z</time>
      </trkpt>
      <trkpt lat="43.66503" lon="3.80393">
        <ele>195.8</ele>
        <time>2017-03-16T11:49:49Z</time>
      </trkpt>
      <trkpt lat="43.66495" lon="3.80401">
        <ele>196.1</ele>
        <time>2017-03-16T11:49:51Z</time>
      </trkpt>
      <trkpt lat="43.66488" lon="3.80407">
        <ele>196.3</ele>
        <time>2017-03-16T11:49:54Z</time>
      </trkpt>
      <trkpt lat="43.66482" lon="3.80415">
        <ele>196.5</ele>
        <time>2017-03-16T11:49:57Z</time>
      </trkpt>
      <trkpt lat="43.66475" lon="3.80418">
        <ele>196.6</ele>
        <time>2017-03-16T11:49:59Z</time>
      </trkpt>
      <trkpt lat="43.66468" lon="3.80429">
        <ele>196.7</ele>
        <time>2017-03-16T11:50:02Z</time>
      </trkpt>
      <trkpt lat="43.66462" lon="3.80438">
        <ele>197.1</ele>
        <time>2017-03-16T11:50:05Z</time>
      </trkpt>
      <trkpt lat="43.66456" lon="3.80445">
        <ele>199.1</ele>
        <time>2017-03-16T11:50:07Z</time>
      </trkpt>
      <trkpt lat="43.66447" lon="3.80452">
        <ele>200.6</ele>
        <time>2017-03-16T11:50:09Z</time>
      </trkpt>
      <trkpt lat="43.66439" lon="3.80456">
        <ele>202</ele>
        <time>2017-03-16T11:50:11Z</time>
      </trkpt>
      <trkpt lat="43.66427" lon="3.80461">
        <ele>201.6</ele>
        <time>2017-03-16T11:50:13Z</time>
      </trkpt>
      <trkpt lat="43.66413" lon="3.80464">
        <ele>201.9</ele>
        <time>2017-03-16T11:50:15Z</time>
      </trkpt>
      <trkpt lat="43.66402" lon="3.80462">
        <ele>202.8</ele>
        <time>2017-03-16T11:50:17Z</time>
      </trkpt>
      <trkpt lat="43.66392" lon="3.80458">
        <ele>204.4</ele>
        <time>2017-03-16T11:50:19Z</time>
      </trkpt>
      <trkpt lat="43.6638" lon="3.80452">
        <ele>206.4</ele>
        <time>2017-03-16T11:50:21Z</time>
      </trkpt>
      <trkpt lat="43.66369" lon="3.80444">
        <ele>206.7</ele>
        <time>2017-03-16T11:50:23Z</time>
      </trkpt>
      <trkpt lat="43.66361" lon="3.80436">
        <ele>207.2</ele>
        <time>2017-03-16T11:50:25Z</time>
      </trkpt>
      <trkpt lat="43.66352" lon="3.8043">
        <ele>207.2</ele>
        <time>2017-03-16T11:50:27Z</time>
      </trkpt>
      <trkpt lat="43.66343" lon="3.80422">
        <ele>206.8</ele>
        <time>2017-03-16T11:50:29Z</time>
      </trkpt>
      <trkpt lat="43.66335" lon="3.80415">
        <ele>207.6</ele>
        <time>2017-03-16T11:50:31Z</time>
      </trkpt>
      <trkpt lat="43.66326" lon="3.80408">
        <ele>206.8</ele>
        <time>2017-03-16T11:50:33Z</time>
      </trkpt>
      <trkpt lat="43.66317" lon="3.80399">
        <ele>207.4</ele>
        <time>2017-03-16T11:50:35Z</time>
      </trkpt>
      <trkpt lat="43.66308" lon="3.8039">
        <ele>207.5</ele>
        <time>2017-03-16T11:50:37Z</time>
      </trkpt>
      <trkpt lat="43.66299" lon="3.80382">
        <ele>206.3</ele>
        <time>2017-03-16T11:50:39Z</time>
      </trkpt>
      <trkpt lat="43.6629" lon="3.80374">
        <ele>205.8</ele>
        <time>2017-03-16T11:50:41Z</time>
      </trkpt>
      <trkpt lat="43.66282" lon="3.80366">
        <ele>204.4</ele>
        <time>2017-03-16T11:50:43Z</time>
      </trkpt>
      <trkpt lat="43.66273" lon="3.80358">
        <ele>203.9</ele>
        <time>2017-03-16T11:50:45Z</time>
      </trkpt>
      <trkpt lat="43.66264" lon="3.8035">
        <ele>205.1</ele>
        <time>2017-03-16T11:50:47Z</time>
      </trkpt>
      <trkpt lat="43.66255" lon="3.80342">
        <ele>205.5</ele>
        <time>2017-03-16T11:50:49Z</time>
      </trkpt>
      <trkpt lat="43.66247" lon="3.80333">
        <ele>206.2</ele>
        <time>2017-03-16T11:50:51Z</time>
      </trkpt>
      <trkpt lat="43.66238" lon="3.80327">
        <ele>206.5</ele>
        <time>2017-03-16T11:50:53Z</time>
      </trkpt>
      <trkpt lat="43.6623" lon="3.80319">
        <ele>206.9</ele>
        <time>2017-03-16T11:50:55Z</time>
      </trkpt>
      <trkpt lat="43.66221" lon="3.80312">
        <ele>206.2</ele>
        <time>2017-03-16T11:50:57Z</time>
      </trkpt>
      <trkpt lat="43.66212" lon="3.80305">
        <ele>205.9</ele>
        <time>2017-03-16T11:50:59Z</time>
      </trkpt>
      <trkpt lat="43.66203" lon="3.80297">
        <ele>204.6</ele>
        <time>2017-03-16T11:51:01Z</time>
      </trkpt>
      <trkpt lat="43.66194" lon="3.80288">
        <ele>205.3</ele>
        <time>2017-03-16T11:51:03Z</time>
      </trkpt>
      <trkpt lat="43.66184" lon="3.80281">
        <ele>205.3</ele>
        <time>2017-03-16T11:51:05Z</time>
      </trkpt>
      <trkpt lat="43.66174" lon="3.80274">
        <ele>204</ele>
        <time>2017-03-16T11:51:07Z</time>
      </trkpt>
      <trkpt lat="43.66164" lon="3.80268">
        <ele>203.8</ele>
        <time>2017-03-16T11:51:09Z</time>
      </trkpt>
      <trkpt lat="43.66154" lon="3.80259">
        <ele>204</ele>
        <time>2017-03-16T11:51:11Z</time>
      </trkpt>
      <trkpt lat="43.66145" lon="3.80253">
        <ele>203.8</ele>
        <time>2017-03-16T11:51:13Z</time>
      </trkpt>
      <trkpt lat="43.66135" lon="3.80247">
        <ele>201.7</ele>
        <time>2017-03-16T11:51:15Z</time>
      </trkpt>
      <trkpt lat="43.66127" lon="3.8024">
        <ele>200.5</ele>
        <time>2017-03-16T11:51:17Z</time>
      </trkpt>
      <trkpt lat="43.66118" lon="3.80235">
        <ele>198.4</ele>
        <time>2017-03-16T11:51:19Z</time>
      </trkpt>
      <trkpt lat="43.66108" lon="3.80231">
        <ele>196.9</ele>
        <time>2017-03-16T11:51:21Z</time>
      </trkpt>
      <trkpt lat="43.66098" lon="3.80228">
        <ele>196.4</ele>
        <time>2017-03-16T11:51:23Z</time>
      </trkpt>
      <trkpt lat="43.66088" lon="3.80232">
        <ele>197.5</ele>
        <time>2017-03-16T11:51:25Z</time>
      </trkpt>
      <trkpt lat="43.66077" lon="3.80238">
        <ele>197.6</ele>
        <time>2017-03-16T11:51:27Z</time>
      </trkpt>
      <trkpt lat="43.66066" lon="3.80245">
        <ele>197.7</ele>
        <time>2017-03-16T11:51:29Z</time>
      </trkpt>
      <trkpt lat="43.66054" lon="3.80248">
        <ele>198.2</ele>
        <time>2017-03-16T11:51:31Z</time>
      </trkpt>
      <trkpt lat="43.66042" lon="3.80248">
        <ele>198.7</ele>
        <time>2017-03-16T11:51:33Z</time>
      </trkpt>
      <trkpt lat="43.6603" lon="3.80249">
        <ele>197.4</ele>
        <time>2017-03-16T11:51:35Z</time>
      </trkpt>
      <trkpt lat="43.66019" lon="3.80248">
        <ele>197.7</ele>
        <time>2017-03-16T11:51:37Z</time>
      </trkpt>
      <trkpt lat="43.66007" lon="3.80247">
        <ele>197.2</ele>
        <time>2017-03-16T11:51:39Z</time>
      </trkpt>
      <trkpt lat="43.65995" lon="3.80244">
        <ele>197.4</ele>
        <time>2017-03-16T11:51:41Z</time>
      </trkpt>
      <trkpt lat="43.65983" lon="3.80241">
        <ele>196.5</ele>
        <time>2017-03-16T11:51:43Z</time>
      </trkpt>
      <trkpt lat="43.65973" lon="3.80236">
        <ele>196.2</ele>
        <time>2017-03-16T11:51:45Z</time>
      </trkpt>
      <trkpt lat="43.65961" lon="3.8023">
        <ele>196</ele>
        <time>2017-03-16T11:51:47Z</time>
      </trkpt>
      <trkpt lat="43.6595" lon="3.80222">
        <ele>194.1</ele>
        <time>2017-03-16T11:51:49Z</time>
      </trkpt>
      <trkpt lat="43.65939" lon="3.80215">
        <ele>193.2</ele>
        <time>2017-03-16T11:51:51Z</time>
      </trkpt>
      <trkpt lat="43.65928" lon="3.80208">
        <ele>191.4</ele>
        <time>2017-03-16T11:51:53Z</time>
      </trkpt>
      <trkpt lat="43.65917" lon="3.80201">
        <ele>189.8</ele>
        <time>2017-03-16T11:51:55Z</time>
      </trkpt>
      <trkpt lat="43.65906" lon="3.80193">
        <ele>188.9</ele>
        <time>2017-03-16T11:51:57Z</time>
      </trkpt>
      <trkpt lat="43.65894" lon="3.80182">
        <ele>188.4</ele>
        <time>2017-03-16T11:51:59Z</time>
      </trkpt>
      <trkpt lat="43.65885" lon="3.80171">
        <ele>188.4</ele>
        <time>2017-03-16T11:52:01Z</time>
      </trkpt>
      <trkpt lat="43.65877" lon="3.8016">
        <ele>188.8</ele>
        <time>2017-03-16T11:52:03Z</time>
      </trkpt>
      <trkpt lat="43.65869" lon="3.80148">
        <ele>190.7</ele>
        <time>2017-03-16T11:52:05Z</time>
      </trkpt>
      <trkpt lat="43.65862" lon="3.80138">
        <ele>192.3</ele>
        <time>2017-03-16T11:52:07Z</time>
      </trkpt>
      <trkpt lat="43.65854" lon="3.80128">
        <ele>193.6</ele>
        <time>2017-03-16T11:52:09Z</time>
      </trkpt>
      <trkpt lat="43.65847" lon="3.80116">
        <ele>194.2</ele>
        <time>2017-03-16T11:52:11Z</time>
      </trkpt>
      <trkpt lat="43.6584" lon="3.80103">
        <ele>194.2</ele>
        <time>2017-03-16T11:52:13Z</time>
      </trkpt>
      <trkpt lat="43.65831" lon="3.8009">
        <ele>194</ele>
        <time>2017-03-16T11:52:15Z</time>
      </trkpt>
      <trkpt lat="43.65823" lon="3.80078">
        <ele>194</ele>
        <time>2017-03-16T11:52:17Z</time>
      </trkpt>
      <trkpt lat="43.65813" lon="3.80065">
        <ele>193.5</ele>
        <time>2017-03-16T11:52:19Z</time>
      </trkpt>
      <trkpt lat="43.65804" lon="3.80051">
        <ele>193.5</ele>
        <time>2017-03-16T11:52:21Z</time>
      </trkpt>
      <trkpt lat="43.65796" lon="3.8004">
        <ele>191.3</ele>
        <time>2017-03-16T11:52:23Z</time>
      </trkpt>
      <trkpt lat="43.65789" lon="3.80027">
        <ele>189.1</ele>
        <time>2017-03-16T11:52:25Z</time>
      </trkpt>
      <trkpt lat="43.65784" lon="3.80014">
        <ele>186.8</ele>
        <time>2017-03-16T11:52:27Z</time>
      </trkpt>
      <trkpt lat="43.65784" lon="3.8">
        <ele>186.3</ele>
        <time>2017-03-16T11:52:31Z</time>
      </trkpt>
      <trkpt lat="43.65784" lon="3.79986">
        <ele>186.2</ele>
        <time>2017-03-16T11:52:34Z</time>
      </trkpt>
      <trkpt lat="43.65781" lon="3.79974">
        <ele>186.1</ele>
        <time>2017-03-16T11:52:38Z</time>
      </trkpt>
      <trkpt lat="43.65778" lon="3.79964">
        <ele>186</ele>
        <time>2017-03-16T11:52:41Z</time>
      </trkpt>
      <trkpt lat="43.65776" lon="3.79953">
        <ele>186.1</ele>
        <time>2017-03-16T11:52:45Z</time>
      </trkpt>
      <trkpt lat="43.65774" lon="3.79941">
        <ele>186.5</ele>
        <time>2017-03-16T11:52:49Z</time>
      </trkpt>
      <trkpt lat="43.65771" lon="3.79929">
        <ele>186.9</ele>
        <time>2017-03-16T11:52:53Z</time>
      </trkpt>
      <trkpt lat="43.65767" lon="3.79918">
        <ele>187.4</ele>
        <time>2017-03-16T11:52:57Z</time>
      </trkpt>
      <trkpt lat="43.65765" lon="3.79908">
        <ele>187.9</ele>
        <time>2017-03-16T11:53:00Z</time>
      </trkpt>
      <trkpt lat="43.65762" lon="3.79897">
        <ele>188.4</ele>
        <time>2017-03-16T11:53:03Z</time>
      </trkpt>
      <trkpt lat="43.65758" lon="3.79888">
        <ele>188.7</ele>
        <time>2017-03-16T11:53:06Z</time>
      </trkpt>
      <trkpt lat="43.65754" lon="3.79879">
        <ele>189.1</ele>
        <time>2017-03-16T11:53:09Z</time>
      </trkpt>
      <trkpt lat="43.65749" lon="3.79869">
        <ele>189.5</ele>
        <time>2017-03-16T11:53:12Z</time>
      </trkpt>
      <trkpt lat="43.6574" lon="3.79865">
        <ele>190.1</ele>
        <time>2017-03-16T11:53:17Z</time>
      </trkpt>
      <trkpt lat="43.65731" lon="3.79861">
        <ele>190.5</ele>
        <time>2017-03-16T11:53:20Z</time>
      </trkpt>
      <trkpt lat="43.65724" lon="3.79857">
        <ele>190.8</ele>
        <time>2017-03-16T11:53:23Z</time>
      </trkpt>
      <trkpt lat="43.65714" lon="3.7985">
        <ele>190.9</ele>
        <time>2017-03-16T11:53:26Z</time>
      </trkpt>
      <trkpt lat="43.65708" lon="3.79844">
        <ele>190.9</ele>
        <time>2017-03-16T11:53:28Z</time>
      </trkpt>
      <trkpt lat="43.65698" lon="3.79837">
        <ele>190.7</ele>
        <time>2017-03-16T11:53:31Z</time>
      </trkpt>
      <trkpt lat="43.65688" lon="3.7983">
        <ele>190.7</ele>
        <time>2017-03-16T11:53:34Z</time>
      </trkpt>
      <trkpt lat="43.65681" lon="3.79825">
        <ele>190.8</ele>
        <time>2017-03-16T11:53:36Z</time>
      </trkpt>
      <trkpt lat="43.65674" lon="3.79819">
        <ele>190.9</ele>
        <time>2017-03-16T11:53:38Z</time>
      </trkpt>
      <trkpt lat="43.65664" lon="3.79813">
        <ele>191.1</ele>
        <time>2017-03-16T11:53:41Z</time>
      </trkpt>
      <trkpt lat="43.65657" lon="3.79808">
        <ele>191.3</ele>
        <time>2017-03-16T11:53:43Z</time>
      </trkpt>
      <trkpt lat="43.65648" lon="3.79801">
        <ele>193.2</ele>
        <time>2017-03-16T11:53:46Z</time>
      </trkpt>
      <trkpt lat="43.65641" lon="3.79795">
        <ele>193.1</ele>
        <time>2017-03-16T11:53:48Z</time>
      </trkpt>
      <trkpt lat="43.65634" lon="3.79789">
        <ele>193.3</ele>
        <time>2017-03-16T11:53:50Z</time>
      </trkpt>
      <trkpt lat="43.65625" lon="3.79782">
        <ele>192.3</ele>
        <time>2017-03-16T11:53:52Z</time>
      </trkpt>
      <trkpt lat="43.65615" lon="3.79775">
        <ele>190.3</ele>
        <time>2017-03-16T11:53:54Z</time>
      </trkpt>
      <trkpt lat="43.65604" lon="3.79768">
        <ele>188.8</ele>
        <time>2017-03-16T11:53:56Z</time>
      </trkpt>
      <trkpt lat="43.65596" lon="3.79764">
        <ele>187.9</ele>
        <time>2017-03-16T11:53:58Z</time>
      </trkpt>
      <trkpt lat="43.65585" lon="3.79758">
        <ele>187.4</ele>
        <time>2017-03-16T11:54:00Z</time>
      </trkpt>
      <trkpt lat="43.65573" lon="3.79752">
        <ele>187.2</ele>
        <time>2017-03-16T11:54:02Z</time>
      </trkpt>
      <trkpt lat="43.6556" lon="3.79745">
        <ele>187.5</ele>
        <time>2017-03-16T11:54:04Z</time>
      </trkpt>
      <trkpt lat="43.65555" lon="3.79738">
        <ele>187.7</ele>
        <time>2017-03-16T11:54:05Z</time>
      </trkpt>
      <trkpt lat="43.65549" lon="3.7973">
        <ele>187.9</ele>
        <time>2017-03-16T11:54:06Z</time>
      </trkpt>
      <trkpt lat="43.65543" lon="3.79722">
        <ele>188.1</ele>
        <time>2017-03-16T11:54:07Z</time>
      </trkpt>
      <trkpt lat="43.65538" lon="3.79714">
        <ele>187.5</ele>
        <time>2017-03-16T11:54:08Z</time>
      </trkpt>
      <trkpt lat="43.65532" lon="3.79696">
        <ele>186.6</ele>
        <time>2017-03-16T11:54:10Z</time>
      </trkpt>
      <trkpt lat="43.65528" lon="3.79679">
        <ele>185</ele>
        <time>2017-03-16T11:54:12Z</time>
      </trkpt>
      <trkpt lat="43.65524" lon="3.79665">
        <ele>184.1</ele>
        <time>2017-03-16T11:54:14Z</time>
      </trkpt>
      <trkpt lat="43.65522" lon="3.79654">
        <ele>183.6</ele>
        <time>2017-03-16T11:54:16Z</time>
      </trkpt>
      <trkpt lat="43.65519" lon="3.79643">
        <ele>184.4</ele>
        <time>2017-03-16T11:54:18Z</time>
      </trkpt>
      <trkpt lat="43.65517" lon="3.79633">
        <ele>185.6</ele>
        <time>2017-03-16T11:54:20Z</time>
      </trkpt>
      <trkpt lat="43.65512" lon="3.79624">
        <ele>186.7</ele>
        <time>2017-03-16T11:54:22Z</time>
      </trkpt>
      <trkpt lat="43.65505" lon="3.79615">
        <ele>187.7</ele>
        <time>2017-03-16T11:54:24Z</time>
      </trkpt>
      <trkpt lat="43.655" lon="3.79606">
        <ele>187.8</ele>
        <time>2017-03-16T11:54:26Z</time>
      </trkpt>
      <trkpt lat="43.65494" lon="3.79598">
        <ele>187.6</ele>
        <time>2017-03-16T11:54:28Z</time>
      </trkpt>
      <trkpt lat="43.65487" lon="3.79588">
        <ele>188.1</ele>
        <time>2017-03-16T11:54:31Z</time>
      </trkpt>
      <trkpt lat="43.65482" lon="3.79581">
        <ele>188.6</ele>
        <time>2017-03-16T11:54:33Z</time>
      </trkpt>
      <trkpt lat="43.65477" lon="3.79573">
        <ele>188.8</ele>
        <time>2017-03-16T11:54:35Z</time>
      </trkpt>
      <trkpt lat="43.6547" lon="3.79563">
        <ele>188.9</ele>
        <time>2017-03-16T11:54:38Z</time>
      </trkpt>
      <trkpt lat="43.65465" lon="3.79554">
        <ele>189.1</ele>
        <time>2017-03-16T11:54:41Z</time>
      </trkpt>
      <trkpt lat="43.65459" lon="3.79548">
        <ele>189.4</ele>
        <time>2017-03-16T11:54:44Z</time>
      </trkpt>
      <trkpt lat="43.65452" lon="3.79541">
        <ele>189.7</ele>
        <time>2017-03-16T11:54:47Z</time>
      </trkpt>
      <trkpt lat="43.65445" lon="3.79535">
        <ele>190</ele>
        <time>2017-03-16T11:54:50Z</time>
      </trkpt>
      <trkpt lat="43.65436" lon="3.79528">
        <ele>190.4</ele>
        <time>2017-03-16T11:54:53Z</time>
      </trkpt>
      <trkpt lat="43.65429" lon="3.79521">
        <ele>190.5</ele>
        <time>2017-03-16T11:54:55Z</time>
      </trkpt>
      <trkpt lat="43.65422" lon="3.79514">
        <ele>192</ele>
        <time>2017-03-16T11:54:57Z</time>
      </trkpt>
      <trkpt lat="43.65414" lon="3.79506">
        <ele>192.7</ele>
        <time>2017-03-16T11:54:59Z</time>
      </trkpt>
      <trkpt lat="43.65405" lon="3.79498">
        <ele>193.5</ele>
        <time>2017-03-16T11:55:01Z</time>
      </trkpt>
      <trkpt lat="43.65393" lon="3.79495">
        <ele>193</ele>
        <time>2017-03-16T11:55:03Z</time>
      </trkpt>
      <trkpt lat="43.65384" lon="3.79494">
        <ele>192.1</ele>
        <time>2017-03-16T11:55:04Z</time>
      </trkpt>
      <trkpt lat="43.65375" lon="3.79493">
        <ele>190.2</ele>
        <time>2017-03-16T11:55:05Z</time>
      </trkpt>
      <trkpt lat="43.65365" lon="3.79493">
        <ele>188.5</ele>
        <time>2017-03-16T11:55:06Z</time>
      </trkpt>
      <trkpt lat="43.65356" lon="3.79492">
        <ele>187.2</ele>
        <time>2017-03-16T11:55:07Z</time>
      </trkpt>
      <trkpt lat="43.65346" lon="3.79493">
        <ele>185.5</ele>
        <time>2017-03-16T11:55:08Z</time>
      </trkpt>
      <trkpt lat="43.65337" lon="3.79493">
        <ele>184.9</ele>
        <time>2017-03-16T11:55:09Z</time>
      </trkpt>
      <trkpt lat="43.65327" lon="3.79492">
        <ele>184.3</ele>
        <time>2017-03-16T11:55:10Z</time>
      </trkpt>
      <trkpt lat="43.65316" lon="3.79491">
        <ele>184</ele>
        <time>2017-03-16T11:55:11Z</time>
      </trkpt>
      <trkpt lat="43.65305" lon="3.79491">
        <ele>183.9</ele>
        <time>2017-03-16T11:55:12Z</time>
      </trkpt>
      <trkpt lat="43.65293" lon="3.79489">
        <ele>183.6</ele>
        <time>2017-03-16T11:55:13Z</time>
      </trkpt>
      <trkpt lat="43.65281" lon="3.79485">
        <ele>183.2</ele>
        <time>2017-03-16T11:55:14Z</time>
      </trkpt>
      <trkpt lat="43.65273" lon="3.79478">
        <ele>182.9</ele>
        <time>2017-03-16T11:55:15Z</time>
      </trkpt>
      <trkpt lat="43.65263" lon="3.79468">
        <ele>182.3</ele>
        <time>2017-03-16T11:55:16Z</time>
      </trkpt>
      <trkpt lat="43.65255" lon="3.79458">
        <ele>181.4</ele>
        <time>2017-03-16T11:55:17Z</time>
      </trkpt>
      <trkpt lat="43.65246" lon="3.79451">
        <ele>180</ele>
        <time>2017-03-16T11:55:18Z</time>
      </trkpt>
      <trkpt lat="43.65239" lon="3.79446">
        <ele>178.7</ele>
        <time>2017-03-16T11:55:19Z</time>
      </trkpt>
      <trkpt lat="43.65232" lon="3.79441">
        <ele>177.3</ele>
        <time>2017-03-16T11:55:20Z</time>
      </trkpt>
      <trkpt lat="43.65225" lon="3.79432">
        <ele>175.6</ele>
        <time>2017-03-16T11:55:21Z</time>
      </trkpt>
      <trkpt lat="43.65219" lon="3.79425">
        <ele>173.9</ele>
        <time>2017-03-16T11:55:22Z</time>
      </trkpt>
      <trkpt lat="43.65214" lon="3.79417">
        <ele>172.3</ele>
        <time>2017-03-16T11:55:23Z</time>
      </trkpt>
      <trkpt lat="43.65208" lon="3.79411">
        <ele>171.5</ele>
        <time>2017-03-16T11:55:24Z</time>
      </trkpt>
      <trkpt lat="43.652" lon="3.79396">
        <ele>170.6</ele>
        <time>2017-03-16T11:55:26Z</time>
      </trkpt>
      <trkpt lat="43.65196" lon="3.79388">
        <ele>170.1</ele>
        <time>2017-03-16T11:55:27Z</time>
      </trkpt>
      <trkpt lat="43.65187" lon="3.79372">
        <ele>168.8</ele>
        <time>2017-03-16T11:55:29Z</time>
      </trkpt>
      <trkpt lat="43.6518" lon="3.79365">
        <ele>168.3</ele>
        <time>2017-03-16T11:55:30Z</time>
      </trkpt>
      <trkpt lat="43.65174" lon="3.79359">
        <ele>168.7</ele>
        <time>2017-03-16T11:55:31Z</time>
      </trkpt>
      <trkpt lat="43.65169" lon="3.79352">
        <ele>170.2</ele>
        <time>2017-03-16T11:55:32Z</time>
      </trkpt>
      <trkpt lat="43.65164" lon="3.79343">
        <ele>170.8</ele>
        <time>2017-03-16T11:55:33Z</time>
      </trkpt>
      <trkpt lat="43.65159" lon="3.79332">
        <ele>171</ele>
        <time>2017-03-16T11:55:35Z</time>
      </trkpt>
      <trkpt lat="43.65162" lon="3.79319">
        <ele>170.8</ele>
        <time>2017-03-16T11:55:37Z</time>
      </trkpt>
      <trkpt lat="43.65164" lon="3.79302">
        <ele>171.1</ele>
        <time>2017-03-16T11:55:39Z</time>
      </trkpt>
      <trkpt lat="43.65168" lon="3.79283">
        <ele>172.2</ele>
        <time>2017-03-16T11:55:41Z</time>
      </trkpt>
      <trkpt lat="43.6517" lon="3.7927">
        <ele>172</ele>
        <time>2017-03-16T11:55:42Z</time>
      </trkpt>
      <trkpt lat="43.65171" lon="3.79259">
        <ele>171.5</ele>
        <time>2017-03-16T11:55:43Z</time>
      </trkpt>
      <trkpt lat="43.65175" lon="3.79249">
        <ele>170.8</ele>
        <time>2017-03-16T11:55:44Z</time>
      </trkpt>
      <trkpt lat="43.65179" lon="3.79238">
        <ele>169.5</ele>
        <time>2017-03-16T11:55:45Z</time>
      </trkpt>
      <trkpt lat="43.65185" lon="3.79224">
        <ele>168.2</ele>
        <time>2017-03-16T11:55:47Z</time>
      </trkpt>
      <trkpt lat="43.65191" lon="3.7921">
        <ele>167.9</ele>
        <time>2017-03-16T11:55:49Z</time>
      </trkpt>
      <trkpt lat="43.65202" lon="3.79196">
        <ele>163.8</ele>
        <time>2017-03-16T11:55:51Z</time>
      </trkpt>
      <trkpt lat="43.6521" lon="3.79185">
        <ele>160.3</ele>
        <time>2017-03-16T11:55:53Z</time>
      </trkpt>
      <trkpt lat="43.65216" lon="3.79177">
        <ele>159.8</ele>
        <time>2017-03-16T11:55:56Z</time>
      </trkpt>
      <trkpt lat="43.65223" lon="3.79173">
        <ele>159</ele>
        <time>2017-03-16T11:56:00Z</time>
      </trkpt>
      <trkpt lat="43.65228" lon="3.79162">
        <ele>158.2</ele>
        <time>2017-03-16T11:56:03Z</time>
      </trkpt>
      <trkpt lat="43.65235" lon="3.79152">
        <ele>157.6</ele>
        <time>2017-03-16T11:56:05Z</time>
      </trkpt>
      <trkpt lat="43.65242" lon="3.79144">
        <ele>153.4</ele>
        <time>2017-03-16T11:56:07Z</time>
      </trkpt>
      <trkpt lat="43.65245" lon="3.79144">
        <ele>151.1</ele>
        <time>2017-03-16T11:56:14Z</time>
      </trkpt>
      <trkpt lat="43.65246" lon="3.79127">
        <ele>143.7</ele>
        <time>2017-03-16T11:56:22Z</time>
      </trkpt>
      <trkpt lat="43.65239" lon="3.79115">
        <ele>138.8</ele>
        <time>2017-03-16T11:56:24Z</time>
      </trkpt>
      <trkpt lat="43.65236" lon="3.79106">
        <ele>135.9</ele>
        <time>2017-03-16T11:56:26Z</time>
      </trkpt>
      <trkpt lat="43.6523" lon="3.79101">
        <ele>131.8</ele>
        <time>2017-03-16T11:56:27Z</time>
      </trkpt>
      <trkpt lat="43.65217" lon="3.79093">
        <ele>127.2</ele>
        <time>2017-03-16T11:56:29Z</time>
      </trkpt>
      <trkpt lat="43.65207" lon="3.79087">
        <ele>122.7</ele>
        <time>2017-03-16T11:56:31Z</time>
      </trkpt>
      <trkpt lat="43.65199" lon="3.79082">
        <ele>120.3</ele>
        <time>2017-03-16T11:56:34Z</time>
      </trkpt>
      <trkpt lat="43.65195" lon="3.7908">
        <ele>120.1</ele>
        <time>2017-03-16T11:56:41Z</time>
      </trkpt>
      <trkpt lat="43.65191" lon="3.79068">
        <ele>120</ele>
        <time>2017-03-16T11:56:43Z</time>
      </trkpt>
      <trkpt lat="43.65183" lon="3.79063">
        <ele>119.6</ele>
        <time>2017-03-16T11:56:47Z</time>
      </trkpt>
      <trkpt lat="43.65175" lon="3.79062">
        <ele>118.8</ele>
        <time>2017-03-16T11:56:51Z</time>
      </trkpt>
      <trkpt lat="43.65166" lon="3.79062">
        <ele>118.5</ele>
        <time>2017-03-16T11:56:54Z</time>
      </trkpt>
      <trkpt lat="43.65158" lon="3.79062">
        <ele>117</ele>
        <time>2017-03-16T11:56:56Z</time>
      </trkpt>
      <trkpt lat="43.6515" lon="3.79062">
        <ele>116.9</ele>
        <time>2017-03-16T11:56:58Z</time>
      </trkpt>
      <trkpt lat="43.65141" lon="3.79063">
        <ele>115.8</ele>
        <time>2017-03-16T11:57:00Z</time>
      </trkpt>
      <trkpt lat="43.65131" lon="3.79064">
        <ele>114.8</ele>
        <time>2017-03-16T11:57:02Z</time>
      </trkpt>
      <trkpt lat="43.65123" lon="3.79068">
        <ele>116.5</ele>
        <time>2017-03-16T11:57:04Z</time>
      </trkpt>
      <trkpt lat="43.65115" lon="3.79073">
        <ele>119.5</ele>
        <time>2017-03-16T11:57:06Z</time>
      </trkpt>
      <trkpt lat="43.65107" lon="3.79077">
        <ele>123.9</ele>
        <time>2017-03-16T11:57:08Z</time>
      </trkpt>
      <trkpt lat="43.65099" lon="3.7908">
        <ele>126.2</ele>
        <time>2017-03-16T11:57:10Z</time>
      </trkpt>
      <trkpt lat="43.65092" lon="3.79088">
        <ele>126.2</ele>
        <time>2017-03-16T11:57:13Z</time>
      </trkpt>
      <trkpt lat="43.65085" lon="3.79092">
        <ele>125.8</ele>
        <time>2017-03-16T11:57:16Z</time>
      </trkpt>
      <trkpt lat="43.6507" lon="3.79062">
        <ele>119.9</ele>
        <time>2017-03-16T11:57:22Z</time>
      </trkpt>
      <trkpt lat="43.65079" lon="3.7905">
        <ele>117</ele>
        <time>2017-03-16T11:57:24Z</time>
      </trkpt>
      <trkpt lat="43.65085" lon="3.79036">
        <ele>115.3</ele>
        <time>2017-03-16T11:57:26Z</time>
      </trkpt>
      <trkpt lat="43.65088" lon="3.79024">
        <ele>114.7</ele>
        <time>2017-03-16T11:57:28Z</time>
      </trkpt>
      <trkpt lat="43.65089" lon="3.79009">
        <ele>114</ele>
        <time>2017-03-16T11:57:30Z</time>
      </trkpt>
      <trkpt lat="43.65088" lon="3.78997">
        <ele>112.7</ele>
        <time>2017-03-16T11:57:32Z</time>
      </trkpt>
      <trkpt lat="43.65086" lon="3.78983">
        <ele>111.4</ele>
        <time>2017-03-16T11:57:34Z</time>
      </trkpt>
      <trkpt lat="43.65083" lon="3.78972">
        <ele>110.2</ele>
        <time>2017-03-16T11:57:36Z</time>
      </trkpt>
      <trkpt lat="43.6508" lon="3.78962">
        <ele>110.3</ele>
        <time>2017-03-16T11:57:38Z</time>
      </trkpt>
      <trkpt lat="43.65077" lon="3.78953">
        <ele>110.5</ele>
        <time>2017-03-16T11:57:40Z</time>
      </trkpt>
      <trkpt lat="43.65073" lon="3.78943">
        <ele>110.6</ele>
        <time>2017-03-16T11:57:42Z</time>
      </trkpt>
      <trkpt lat="43.65068" lon="3.7893">
        <ele>110.4</ele>
        <time>2017-03-16T11:57:44Z</time>
      </trkpt>
      <trkpt lat="43.65065" lon="3.78918">
        <ele>110</ele>
        <time>2017-03-16T11:57:46Z</time>
      </trkpt>
      <trkpt lat="43.65057" lon="3.78919">
        <ele>111.4</ele>
        <time>2017-03-16T11:57:51Z</time>
      </trkpt>
      <trkpt lat="43.65049" lon="3.7893">
        <ele>113.4</ele>
        <time>2017-03-16T11:57:54Z</time>
      </trkpt>
      <trkpt lat="43.65044" lon="3.78942">
        <ele>113.4</ele>
        <time>2017-03-16T11:57:58Z</time>
      </trkpt>
      <trkpt lat="43.65038" lon="3.78949">
        <ele>113.4</ele>
        <time>2017-03-16T11:58:01Z</time>
      </trkpt>
      <trkpt lat="43.65032" lon="3.78956">
        <ele>113.1</ele>
        <time>2017-03-16T11:58:03Z</time>
      </trkpt>
      <trkpt lat="43.65023" lon="3.78961">
        <ele>113</ele>
        <time>2017-03-16T11:58:06Z</time>
      </trkpt>
      <trkpt lat="43.65015" lon="3.78966">
        <ele>113</ele>
        <time>2017-03-16T11:58:08Z</time>
      </trkpt>
      <trkpt lat="43.65008" lon="3.78973">
        <ele>112.7</ele>
        <time>2017-03-16T11:58:10Z</time>
      </trkpt>
      <trkpt lat="43.65002" lon="3.78981">
        <ele>112.7</ele>
        <time>2017-03-16T11:58:13Z</time>
      </trkpt>
      <trkpt lat="43.64989" lon="3.78993">
        <ele>113.3</ele>
        <time>2017-03-16T11:58:18Z</time>
      </trkpt>
      <trkpt lat="43.64977" lon="3.79001">
        <ele>113.4</ele>
        <time>2017-03-16T11:58:20Z</time>
      </trkpt>
      <trkpt lat="43.64968" lon="3.79008">
        <ele>113.6</ele>
        <time>2017-03-16T11:58:22Z</time>
      </trkpt>
      <trkpt lat="43.64959" lon="3.79016">
        <ele>113.8</ele>
        <time>2017-03-16T11:58:24Z</time>
      </trkpt>
      <trkpt lat="43.64951" lon="3.79024">
        <ele>114.3</ele>
        <time>2017-03-16T11:58:26Z</time>
      </trkpt>
      <trkpt lat="43.64942" lon="3.79031">
        <ele>114.3</ele>
        <time>2017-03-16T11:58:28Z</time>
      </trkpt>
      <trkpt lat="43.64935" lon="3.79037">
        <ele>114.9</ele>
        <time>2017-03-16T11:58:30Z</time>
      </trkpt>
      <trkpt lat="43.64928" lon="3.79044">
        <ele>115</ele>
        <time>2017-03-16T11:58:32Z</time>
      </trkpt>
      <trkpt lat="43.64921" lon="3.79052">
        <ele>115.4</ele>
        <time>2017-03-16T11:58:34Z</time>
      </trkpt>
      <trkpt lat="43.64912" lon="3.79056">
        <ele>115.7</ele>
        <time>2017-03-16T11:58:36Z</time>
      </trkpt>
      <trkpt lat="43.64905" lon="3.79061">
        <ele>116</ele>
        <time>2017-03-16T11:58:38Z</time>
      </trkpt>
      <trkpt lat="43.64898" lon="3.79065">
        <ele>117.2</ele>
        <time>2017-03-16T11:58:40Z</time>
      </trkpt>
      <trkpt lat="43.64891" lon="3.7907">
        <ele>117.3</ele>
        <time>2017-03-16T11:58:42Z</time>
      </trkpt>
      <trkpt lat="43.64883" lon="3.79074">
        <ele>117.1</ele>
        <time>2017-03-16T11:58:44Z</time>
      </trkpt>
      <trkpt lat="43.64875" lon="3.79077">
        <ele>116.9</ele>
        <time>2017-03-16T11:58:46Z</time>
      </trkpt>
      <trkpt lat="43.64867" lon="3.7908">
        <ele>116.7</ele>
        <time>2017-03-16T11:58:48Z</time>
      </trkpt>
      <trkpt lat="43.64858" lon="3.79085">
        <ele>116.4</ele>
        <time>2017-03-16T11:58:50Z</time>
      </trkpt>
      <trkpt lat="43.64851" lon="3.79093">
        <ele>116</ele>
        <time>2017-03-16T11:58:53Z</time>
      </trkpt>
      <trkpt lat="43.64845" lon="3.79101">
        <ele>116</ele>
        <time>2017-03-16T11:58:55Z</time>
      </trkpt>
      <trkpt lat="43.64838" lon="3.79108">
        <ele>117.1</ele>
        <time>2017-03-16T11:58:57Z</time>
      </trkpt>
      <trkpt lat="43.64829" lon="3.79116">
        <ele>118</ele>
        <time>2017-03-16T11:59:00Z</time>
      </trkpt>
      <trkpt lat="43.64821" lon="3.79125">
        <ele>118.3</ele>
        <time>2017-03-16T11:59:03Z</time>
      </trkpt>
      <trkpt lat="43.64815" lon="3.79132">
        <ele>118.3</ele>
        <time>2017-03-16T11:59:05Z</time>
      </trkpt>
      <trkpt lat="43.64806" lon="3.7914">
        <ele>118.3</ele>
        <time>2017-03-16T11:59:07Z</time>
      </trkpt>
      <trkpt lat="43.64798" lon="3.79145">
        <ele>118.1</ele>
        <time>2017-03-16T11:59:10Z</time>
      </trkpt>
      <trkpt lat="43.6479" lon="3.79149">
        <ele>117.8</ele>
        <time>2017-03-16T11:59:13Z</time>
      </trkpt>
      <trkpt lat="43.64781" lon="3.79153">
        <ele>117.9</ele>
        <time>2017-03-16T11:59:16Z</time>
      </trkpt>
      <trkpt lat="43.64773" lon="3.79161">
        <ele>118</ele>
        <time>2017-03-16T11:59:19Z</time>
      </trkpt>
      <trkpt lat="43.64764" lon="3.79166">
        <ele>118</ele>
        <time>2017-03-16T11:59:22Z</time>
      </trkpt>
      <trkpt lat="43.64758" lon="3.79172">
        <ele>118.1</ele>
        <time>2017-03-16T11:59:25Z</time>
      </trkpt>
      <trkpt lat="43.64753" lon="3.79182">
        <ele>118.6</ele>
        <time>2017-03-16T11:59:28Z</time>
      </trkpt>
      <trkpt lat="43.64746" lon="3.79191">
        <ele>119</ele>
        <time>2017-03-16T11:59:31Z</time>
      </trkpt>
      <trkpt lat="43.64738" lon="3.79198">
        <ele>119.3</ele>
        <time>2017-03-16T11:59:34Z</time>
      </trkpt>
      <trkpt lat="43.64731" lon="3.79201">
        <ele>119.7</ele>
        <time>2017-03-16T11:59:36Z</time>
      </trkpt>
      <trkpt lat="43.64722" lon="3.79207">
        <ele>120.4</ele>
        <time>2017-03-16T11:59:39Z</time>
      </trkpt>
      <trkpt lat="43.64717" lon="3.79215">
        <ele>120.7</ele>
        <time>2017-03-16T11:59:43Z</time>
      </trkpt>
      <trkpt lat="43.64716" lon="3.79227">
        <ele>124</ele>
        <time>2017-03-16T11:59:46Z</time>
      </trkpt>
      <trkpt lat="43.64717" lon="3.79242">
        <ele>125.5</ele>
        <time>2017-03-16T11:59:49Z</time>
      </trkpt>
      <trkpt lat="43.64717" lon="3.79254">
        <ele>125.7</ele>
        <time>2017-03-16T11:59:51Z</time>
      </trkpt>
      <trkpt lat="43.64715" lon="3.79263">
        <ele>125.4</ele>
        <time>2017-03-16T11:59:53Z</time>
      </trkpt>
      <trkpt lat="43.64698" lon="3.79296">
        <ele>124.5</ele>
        <time>2017-03-16T11:59:59Z</time>
      </trkpt>
      <trkpt lat="43.64686" lon="3.79303">
        <ele>124.1</ele>
        <time>2017-03-16T12:00:03Z</time>
      </trkpt>
      <trkpt lat="43.64681" lon="3.79312">
        <ele>123.8</ele>
        <time>2017-03-16T12:00:06Z</time>
      </trkpt>
      <trkpt lat="43.64676" lon="3.79321">
        <ele>123.6</ele>
        <time>2017-03-16T12:00:10Z</time>
      </trkpt>
      <trkpt lat="43.64672" lon="3.79334">
        <ele>123.5</ele>
        <time>2017-03-16T12:00:12Z</time>
      </trkpt>
      <trkpt lat="43.64667" lon="3.79349">
        <ele>123.3</ele>
        <time>2017-03-16T12:00:14Z</time>
      </trkpt>
      <trkpt lat="43.64661" lon="3.79363">
        <ele>123.1</ele>
        <time>2017-03-16T12:00:16Z</time>
      </trkpt>
      <trkpt lat="43.64654" lon="3.79381">
        <ele>121.9</ele>
        <time>2017-03-16T12:00:18Z</time>
      </trkpt>
      <trkpt lat="43.64647" lon="3.79394">
        <ele>121.8</ele>
        <time>2017-03-16T12:00:20Z</time>
      </trkpt>
      <trkpt lat="43.64637" lon="3.79407">
        <ele>118.9</ele>
        <time>2017-03-16T12:00:22Z</time>
      </trkpt>
      <trkpt lat="43.64629" lon="3.7942">
        <ele>116.4</ele>
        <time>2017-03-16T12:00:24Z</time>
      </trkpt>
      <trkpt lat="43.64622" lon="3.7943">
        <ele>115.8</ele>
        <time>2017-03-16T12:00:26Z</time>
      </trkpt>
      <trkpt lat="43.64615" lon="3.7944">
        <ele>115.1</ele>
        <time>2017-03-16T12:00:28Z</time>
      </trkpt>
      <trkpt lat="43.64605" lon="3.79451">
        <ele>114.8</ele>
        <time>2017-03-16T12:00:31Z</time>
      </trkpt>
      <trkpt lat="43.64601" lon="3.79462">
        <ele>114.5</ele>
        <time>2017-03-16T12:00:34Z</time>
      </trkpt>
      <trkpt lat="43.646" lon="3.79475">
        <ele>113.7</ele>
        <time>2017-03-16T12:00:39Z</time>
      </trkpt>
      <trkpt lat="43.64596" lon="3.79486">
        <ele>113.2</ele>
        <time>2017-03-16T12:00:42Z</time>
      </trkpt>
      <trkpt lat="43.64594" lon="3.79497">
        <ele>112.9</ele>
        <time>2017-03-16T12:00:45Z</time>
      </trkpt>
      <trkpt lat="43.64591" lon="3.79506">
        <ele>112.7</ele>
        <time>2017-03-16T12:00:47Z</time>
      </trkpt>
      <trkpt lat="43.64588" lon="3.79516">
        <ele>112.4</ele>
        <time>2017-03-16T12:00:49Z</time>
      </trkpt>
      <trkpt lat="43.64583" lon="3.79528">
        <ele>112.1</ele>
        <time>2017-03-16T12:00:51Z</time>
      </trkpt>
      <trkpt lat="43.64579" lon="3.79538">
        <ele>111.9</ele>
        <time>2017-03-16T12:00:53Z</time>
      </trkpt>
      <trkpt lat="43.64576" lon="3.79547">
        <ele>111.6</ele>
        <time>2017-03-16T12:00:55Z</time>
      </trkpt>
      <trkpt lat="43.64573" lon="3.7956">
        <ele>109.9</ele>
        <time>2017-03-16T12:00:57Z</time>
      </trkpt>
      <trkpt lat="43.64569" lon="3.79571">
        <ele>109</ele>
        <time>2017-03-16T12:00:59Z</time>
      </trkpt>
      <trkpt lat="43.64567" lon="3.79583">
        <ele>109.3</ele>
        <time>2017-03-16T12:01:01Z</time>
      </trkpt>
      <trkpt lat="43.64563" lon="3.79595">
        <ele>108.3</ele>
        <time>2017-03-16T12:01:03Z</time>
      </trkpt>
      <trkpt lat="43.64559" lon="3.79607">
        <ele>108.2</ele>
        <time>2017-03-16T12:01:05Z</time>
      </trkpt>
      <trkpt lat="43.64555" lon="3.79619">
        <ele>107.8</ele>
        <time>2017-03-16T12:01:07Z</time>
      </trkpt>
      <trkpt lat="43.64552" lon="3.7963">
        <ele>107.9</ele>
        <time>2017-03-16T12:01:09Z</time>
      </trkpt>
      <trkpt lat="43.64547" lon="3.79644">
        <ele>108.1</ele>
        <time>2017-03-16T12:01:11Z</time>
      </trkpt>
      <trkpt lat="43.64543" lon="3.79658">
        <ele>108.1</ele>
        <time>2017-03-16T12:01:13Z</time>
      </trkpt>
      <trkpt lat="43.6454" lon="3.79668">
        <ele>108.1</ele>
        <time>2017-03-16T12:01:15Z</time>
      </trkpt>
      <trkpt lat="43.64534" lon="3.79677">
        <ele>107.8</ele>
        <time>2017-03-16T12:01:17Z</time>
      </trkpt>
      <trkpt lat="43.64529" lon="3.79689">
        <ele>109.1</ele>
        <time>2017-03-16T12:01:19Z</time>
      </trkpt>
      <trkpt lat="43.64523" lon="3.79701">
        <ele>109.6</ele>
        <time>2017-03-16T12:01:21Z</time>
      </trkpt>
      <trkpt lat="43.64517" lon="3.79713">
        <ele>108.9</ele>
        <time>2017-03-16T12:01:23Z</time>
      </trkpt>
      <trkpt lat="43.64511" lon="3.79724">
        <ele>107.7</ele>
        <time>2017-03-16T12:01:25Z</time>
      </trkpt>
      <trkpt lat="43.64506" lon="3.79733">
        <ele>107.6</ele>
        <time>2017-03-16T12:01:27Z</time>
      </trkpt>
      <trkpt lat="43.645" lon="3.79742">
        <ele>106.9</ele>
        <time>2017-03-16T12:01:29Z</time>
      </trkpt>
      <trkpt lat="43.64491" lon="3.79753">
        <ele>106.8</ele>
        <time>2017-03-16T12:01:32Z</time>
      </trkpt>
      <trkpt lat="43.64484" lon="3.7976">
        <ele>106.7</ele>
        <time>2017-03-16T12:01:34Z</time>
      </trkpt>
      <trkpt lat="43.64476" lon="3.79769">
        <ele>106.6</ele>
        <time>2017-03-16T12:01:37Z</time>
      </trkpt>
      <trkpt lat="43.6447" lon="3.79779">
        <ele>106.6</ele>
        <time>2017-03-16T12:01:40Z</time>
      </trkpt>
      <trkpt lat="43.64463" lon="3.79783">
        <ele>106.7</ele>
        <time>2017-03-16T12:01:42Z</time>
      </trkpt>
      <trkpt lat="43.64456" lon="3.79786">
        <ele>106.7</ele>
        <time>2017-03-16T12:01:44Z</time>
      </trkpt>
      <trkpt lat="43.64449" lon="3.79787">
        <ele>106.7</ele>
        <time>2017-03-16T12:01:46Z</time>
      </trkpt>
      <trkpt lat="43.64439" lon="3.79789">
        <ele>106</ele>
        <time>2017-03-16T12:01:48Z</time>
      </trkpt>
      <trkpt lat="43.64429" lon="3.79791">
        <ele>105.9</ele>
        <time>2017-03-16T12:01:50Z</time>
      </trkpt>
      <trkpt lat="43.64418" lon="3.7979">
        <ele>103.8</ele>
        <time>2017-03-16T12:01:52Z</time>
      </trkpt>
      <trkpt lat="43.64406" lon="3.79793">
        <ele>104.1</ele>
        <time>2017-03-16T12:01:55Z</time>
      </trkpt>
      <trkpt lat="43.64396" lon="3.79794">
        <ele>103.7</ele>
        <time>2017-03-16T12:01:57Z</time>
      </trkpt>
      <trkpt lat="43.64387" lon="3.79797">
        <ele>103.5</ele>
        <time>2017-03-16T12:01:59Z</time>
      </trkpt>
      <trkpt lat="43.64376" lon="3.798">
        <ele>103.7</ele>
        <time>2017-03-16T12:02:01Z</time>
      </trkpt>
      <trkpt lat="43.64368" lon="3.79803">
        <ele>103.8</ele>
        <time>2017-03-16T12:02:03Z</time>
      </trkpt>
      <trkpt lat="43.64357" lon="3.79807">
        <ele>104.8</ele>
        <time>2017-03-16T12:02:05Z</time>
      </trkpt>
      <trkpt lat="43.64347" lon="3.7981">
        <ele>105.1</ele>
        <time>2017-03-16T12:02:07Z</time>
      </trkpt>
      <trkpt lat="43.64339" lon="3.79815">
        <ele>105.1</ele>
        <time>2017-03-16T12:02:09Z</time>
      </trkpt>
      <trkpt lat="43.64328" lon="3.79819">
        <ele>106.3</ele>
        <time>2017-03-16T12:02:11Z</time>
      </trkpt>
      <trkpt lat="43.64316" lon="3.79822">
        <ele>106.1</ele>
        <time>2017-03-16T12:02:13Z</time>
      </trkpt>
      <trkpt lat="43.64304" lon="3.79826">
        <ele>106</ele>
        <time>2017-03-16T12:02:15Z</time>
      </trkpt>
      <trkpt lat="43.64294" lon="3.7983">
        <ele>105.9</ele>
        <time>2017-03-16T12:02:17Z</time>
      </trkpt>
      <trkpt lat="43.64283" lon="3.79836">
        <ele>104.9</ele>
        <time>2017-03-16T12:02:19Z</time>
      </trkpt>
      <trkpt lat="43.64273" lon="3.79841">
        <ele>103.5</ele>
        <time>2017-03-16T12:02:21Z</time>
      </trkpt>
      <trkpt lat="43.64262" lon="3.79846">
        <ele>102.2</ele>
        <time>2017-03-16T12:02:23Z</time>
      </trkpt>
      <trkpt lat="43.64253" lon="3.79851">
        <ele>102.2</ele>
        <time>2017-03-16T12:02:25Z</time>
      </trkpt>
      <trkpt lat="43.64244" lon="3.79857">
        <ele>102.6</ele>
        <time>2017-03-16T12:02:27Z</time>
      </trkpt>
      <trkpt lat="43.64236" lon="3.79862">
        <ele>101.9</ele>
        <time>2017-03-16T12:02:29Z</time>
      </trkpt>
      <trkpt lat="43.64231" lon="3.79871">
        <ele>101.3</ele>
        <time>2017-03-16T12:02:31Z</time>
      </trkpt>
      <trkpt lat="43.64228" lon="3.79885">
        <ele>100.2</ele>
        <time>2017-03-16T12:02:33Z</time>
      </trkpt>
      <trkpt lat="43.64223" lon="3.79896">
        <ele>100.7</ele>
        <time>2017-03-16T12:02:35Z</time>
      </trkpt>
      <trkpt lat="43.64215" lon="3.79897">
        <ele>100.8</ele>
        <time>2017-03-16T12:02:37Z</time>
      </trkpt>
      <trkpt lat="43.64205" lon="3.79898">
        <ele>101.7</ele>
        <time>2017-03-16T12:02:39Z</time>
      </trkpt>
      <trkpt lat="43.64195" lon="3.79903">
        <ele>101.2</ele>
        <time>2017-03-16T12:02:41Z</time>
      </trkpt>
      <trkpt lat="43.64188" lon="3.79907">
        <ele>101.2</ele>
        <time>2017-03-16T12:02:43Z</time>
      </trkpt>
      <trkpt lat="43.6418" lon="3.79914">
        <ele>101.9</ele>
        <time>2017-03-16T12:02:45Z</time>
      </trkpt>
      <trkpt lat="43.64171" lon="3.79923">
        <ele>101.7</ele>
        <time>2017-03-16T12:02:47Z</time>
      </trkpt>
      <trkpt lat="43.64162" lon="3.7993">
        <ele>102.1</ele>
        <time>2017-03-16T12:02:49Z</time>
      </trkpt>
      <trkpt lat="43.64155" lon="3.79938">
        <ele>102.6</ele>
        <time>2017-03-16T12:02:51Z</time>
      </trkpt>
      <trkpt lat="43.64148" lon="3.79944">
        <ele>102.9</ele>
        <time>2017-03-16T12:02:53Z</time>
      </trkpt>
      <trkpt lat="43.64139" lon="3.79949">
        <ele>103.9</ele>
        <time>2017-03-16T12:02:55Z</time>
      </trkpt>
      <trkpt lat="43.6413" lon="3.79956">
        <ele>104.2</ele>
        <time>2017-03-16T12:02:57Z</time>
      </trkpt>
      <trkpt lat="43.64123" lon="3.79962">
        <ele>103</ele>
        <time>2017-03-16T12:02:59Z</time>
      </trkpt>
      <trkpt lat="43.64117" lon="3.79968">
        <ele>102.4</ele>
        <time>2017-03-16T12:03:01Z</time>
      </trkpt>
      <trkpt lat="43.6411" lon="3.79974">
        <ele>102.2</ele>
        <time>2017-03-16T12:03:03Z</time>
      </trkpt>
      <trkpt lat="43.64103" lon="3.7998">
        <ele>102.1</ele>
        <time>2017-03-16T12:03:05Z</time>
      </trkpt>
      <trkpt lat="43.64092" lon="3.79987">
        <ele>100.9</ele>
        <time>2017-03-16T12:03:07Z</time>
      </trkpt>
      <trkpt lat="43.6408" lon="3.79993">
        <ele>100.2</ele>
        <time>2017-03-16T12:03:09Z</time>
      </trkpt>
      <trkpt lat="43.64071" lon="3.79999">
        <ele>100.2</ele>
        <time>2017-03-16T12:03:11Z</time>
      </trkpt>
      <trkpt lat="43.64064" lon="3.80003">
        <ele>100.4</ele>
        <time>2017-03-16T12:03:13Z</time>
      </trkpt>
      <trkpt lat="43.64057" lon="3.80007">
        <ele>100.4</ele>
        <time>2017-03-16T12:03:15Z</time>
      </trkpt>
      <trkpt lat="43.6405" lon="3.80012">
        <ele>100.2</ele>
        <time>2017-03-16T12:03:17Z</time>
      </trkpt>
      <trkpt lat="43.64041" lon="3.8002">
        <ele>101.8</ele>
        <time>2017-03-16T12:03:20Z</time>
      </trkpt>
      <trkpt lat="43.64033" lon="3.80024">
        <ele>102</ele>
        <time>2017-03-16T12:03:22Z</time>
      </trkpt>
      <trkpt lat="43.64026" lon="3.80027">
        <ele>102.4</ele>
        <time>2017-03-16T12:03:24Z</time>
      </trkpt>
      <trkpt lat="43.64017" lon="3.80033">
        <ele>104.2</ele>
        <time>2017-03-16T12:03:26Z</time>
      </trkpt>
      <trkpt lat="43.64009" lon="3.80041">
        <ele>104.7</ele>
        <time>2017-03-16T12:03:29Z</time>
      </trkpt>
      <trkpt lat="43.64002" lon="3.80049">
        <ele>105.4</ele>
        <time>2017-03-16T12:03:32Z</time>
      </trkpt>
      <trkpt lat="43.63995" lon="3.80054">
        <ele>106.2</ele>
        <time>2017-03-16T12:03:34Z</time>
      </trkpt>
      <trkpt lat="43.63986" lon="3.80064">
        <ele>107.3</ele>
        <time>2017-03-16T12:03:37Z</time>
      </trkpt>
      <trkpt lat="43.63977" lon="3.8007">
        <ele>108</ele>
        <time>2017-03-16T12:03:39Z</time>
      </trkpt>
      <trkpt lat="43.63969" lon="3.80075">
        <ele>107.9</ele>
        <time>2017-03-16T12:03:41Z</time>
      </trkpt>
      <trkpt lat="43.63961" lon="3.8008">
        <ele>107.8</ele>
        <time>2017-03-16T12:03:43Z</time>
      </trkpt>
      <trkpt lat="43.63953" lon="3.80085">
        <ele>107.7</ele>
        <time>2017-03-16T12:03:45Z</time>
      </trkpt>
      <trkpt lat="43.63943" lon="3.80087">
        <ele>105.7</ele>
        <time>2017-03-16T12:03:47Z</time>
      </trkpt>
      <trkpt lat="43.63935" lon="3.80092">
        <ele>105.5</ele>
        <time>2017-03-16T12:03:49Z</time>
      </trkpt>
      <trkpt lat="43.63927" lon="3.80099">
        <ele>105.4</ele>
        <time>2017-03-16T12:03:52Z</time>
      </trkpt>
      <trkpt lat="43.63919" lon="3.80107">
        <ele>105.3</ele>
        <time>2017-03-16T12:03:55Z</time>
      </trkpt>
      <trkpt lat="43.63911" lon="3.80116">
        <ele>104.9</ele>
        <time>2017-03-16T12:03:58Z</time>
      </trkpt>
      <trkpt lat="43.63903" lon="3.80124">
        <ele>104.4</ele>
        <time>2017-03-16T12:04:01Z</time>
      </trkpt>
      <trkpt lat="43.63894" lon="3.80128">
        <ele>104.2</ele>
        <time>2017-03-16T12:04:03Z</time>
      </trkpt>
      <trkpt lat="43.63884" lon="3.80136">
        <ele>102.5</ele>
        <time>2017-03-16T12:04:06Z</time>
      </trkpt>
      <trkpt lat="43.63875" lon="3.80145">
        <ele>102.5</ele>
        <time>2017-03-16T12:04:08Z</time>
      </trkpt>
      <trkpt lat="43.63867" lon="3.80153">
        <ele>103.1</ele>
        <time>2017-03-16T12:04:10Z</time>
      </trkpt>
      <trkpt lat="43.63858" lon="3.8016">
        <ele>103.7</ele>
        <time>2017-03-16T12:04:12Z</time>
      </trkpt>
      <trkpt lat="43.63851" lon="3.80169">
        <ele>104</ele>
        <time>2017-03-16T12:04:14Z</time>
      </trkpt>
      <trkpt lat="43.63846" lon="3.80176">
        <ele>103.9</ele>
        <time>2017-03-16T12:04:16Z</time>
      </trkpt>
      <trkpt lat="43.63843" lon="3.80185">
        <ele>103.8</ele>
        <time>2017-03-16T12:04:19Z</time>
      </trkpt>
      <trkpt lat="43.63839" lon="3.80195">
        <ele>103.7</ele>
        <time>2017-03-16T12:04:21Z</time>
      </trkpt>
      <trkpt lat="43.63835" lon="3.80208">
        <ele>103.8</ele>
        <time>2017-03-16T12:04:24Z</time>
      </trkpt>
      <trkpt lat="43.63832" lon="3.80219">
        <ele>104.7</ele>
        <time>2017-03-16T12:04:26Z</time>
      </trkpt>
      <trkpt lat="43.6383" lon="3.80235">
        <ele>104.8</ele>
        <time>2017-03-16T12:04:29Z</time>
      </trkpt>
      <trkpt lat="43.63829" lon="3.80249">
        <ele>104.9</ele>
        <time>2017-03-16T12:04:32Z</time>
      </trkpt>
      <trkpt lat="43.6383" lon="3.80259">
        <ele>104.9</ele>
        <time>2017-03-16T12:04:34Z</time>
      </trkpt>
      <trkpt lat="43.63832" lon="3.80269">
        <ele>104.9</ele>
        <time>2017-03-16T12:04:36Z</time>
      </trkpt>
      <trkpt lat="43.63836" lon="3.80278">
        <ele>104.6</ele>
        <time>2017-03-16T12:04:39Z</time>
      </trkpt>
      <trkpt lat="43.63841" lon="3.80288">
        <ele>104.4</ele>
        <time>2017-03-16T12:04:41Z</time>
      </trkpt>
      <trkpt lat="43.63844" lon="3.803">
        <ele>104.3</ele>
        <time>2017-03-16T12:04:44Z</time>
      </trkpt>
      <trkpt lat="43.63851" lon="3.80309">
        <ele>103.7</ele>
        <time>2017-03-16T12:04:47Z</time>
      </trkpt>
      <trkpt lat="43.63851" lon="3.80322">
        <ele>103.6</ele>
        <time>2017-03-16T12:04:50Z</time>
      </trkpt>
      <trkpt lat="43.63848" lon="3.80334">
        <ele>102.8</ele>
        <time>2017-03-16T12:04:52Z</time>
      </trkpt>
      <trkpt lat="43.63846" lon="3.80345">
        <ele>102.7</ele>
        <time>2017-03-16T12:04:54Z</time>
      </trkpt>
      <trkpt lat="43.63844" lon="3.8036">
        <ele>102.5</ele>
        <time>2017-03-16T12:04:56Z</time>
      </trkpt>
      <trkpt lat="43.63842" lon="3.80376">
        <ele>102.2</ele>
        <time>2017-03-16T12:04:58Z</time>
      </trkpt>
      <trkpt lat="43.63846" lon="3.80388">
        <ele>101.9</ele>
        <time>2017-03-16T12:05:00Z</time>
      </trkpt>
      <trkpt lat="43.63851" lon="3.80396">
        <ele>102.1</ele>
        <time>2017-03-16T12:05:02Z</time>
      </trkpt>
      <trkpt lat="43.63857" lon="3.80405">
        <ele>101.7</ele>
        <time>2017-03-16T12:05:04Z</time>
      </trkpt>
      <trkpt lat="43.63863" lon="3.80413">
        <ele>101.5</ele>
        <time>2017-03-16T12:05:06Z</time>
      </trkpt>
      <trkpt lat="43.63868" lon="3.80424">
        <ele>100.6</ele>
        <time>2017-03-16T12:05:08Z</time>
      </trkpt>
      <trkpt lat="43.63874" lon="3.80434">
        <ele>100.6</ele>
        <time>2017-03-16T12:05:10Z</time>
      </trkpt>
      <trkpt lat="43.6388" lon="3.80442">
        <ele>101.1</ele>
        <time>2017-03-16T12:05:12Z</time>
      </trkpt>
      <trkpt lat="43.63886" lon="3.80451">
        <ele>101.1</ele>
        <time>2017-03-16T12:05:14Z</time>
      </trkpt>
      <trkpt lat="43.63891" lon="3.80459">
        <ele>101.1</ele>
        <time>2017-03-16T12:05:16Z</time>
      </trkpt>
      <trkpt lat="43.63896" lon="3.80468">
        <ele>101</ele>
        <time>2017-03-16T12:05:18Z</time>
      </trkpt>
      <trkpt lat="43.63903" lon="3.80478">
        <ele>100.8</ele>
        <time>2017-03-16T12:05:21Z</time>
      </trkpt>
      <trkpt lat="43.63911" lon="3.80482">
        <ele>100.8</ele>
        <time>2017-03-16T12:05:24Z</time>
      </trkpt>
      <trkpt lat="43.63911" lon="3.80493">
        <ele>101.1</ele>
        <time>2017-03-16T12:05:27Z</time>
      </trkpt>
      <trkpt lat="43.63912" lon="3.80507">
        <ele>101.5</ele>
        <time>2017-03-16T12:05:30Z</time>
      </trkpt>
      <trkpt lat="43.6391" lon="3.80518">
        <ele>101.7</ele>
        <time>2017-03-16T12:05:32Z</time>
      </trkpt>
      <trkpt lat="43.6391" lon="3.80532">
        <ele>103.6</ele>
        <time>2017-03-16T12:05:34Z</time>
      </trkpt>
      <trkpt lat="43.63908" lon="3.80549">
        <ele>105</ele>
        <time>2017-03-16T12:05:36Z</time>
      </trkpt>
      <trkpt lat="43.63907" lon="3.80561">
        <ele>104.5</ele>
        <time>2017-03-16T12:05:38Z</time>
      </trkpt>
      <trkpt lat="43.63908" lon="3.80576">
        <ele>103.6</ele>
        <time>2017-03-16T12:05:40Z</time>
      </trkpt>
      <trkpt lat="43.63909" lon="3.80593">
        <ele>102.8</ele>
        <time>2017-03-16T12:05:42Z</time>
      </trkpt>
      <trkpt lat="43.63908" lon="3.80611">
        <ele>101.8</ele>
        <time>2017-03-16T12:05:44Z</time>
      </trkpt>
      <trkpt lat="43.63909" lon="3.80625">
        <ele>100.7</ele>
        <time>2017-03-16T12:05:46Z</time>
      </trkpt>
      <trkpt lat="43.63909" lon="3.80638">
        <ele>101</ele>
        <time>2017-03-16T12:05:48Z</time>
      </trkpt>
      <trkpt lat="43.63911" lon="3.80651">
        <ele>101.3</ele>
        <time>2017-03-16T12:05:50Z</time>
      </trkpt>
      <trkpt lat="43.63913" lon="3.80662">
        <ele>101.3</ele>
        <time>2017-03-16T12:05:52Z</time>
      </trkpt>
      <trkpt lat="43.63918" lon="3.80666">
        <ele>101.4</ele>
        <time>2017-03-16T12:05:59Z</time>
      </trkpt>
      <trkpt lat="43.63926" lon="3.80665">
        <ele>101.4</ele>
        <time>2017-03-16T12:06:03Z</time>
      </trkpt>
      <trkpt lat="43.63935" lon="3.80663">
        <ele>101.5</ele>
        <time>2017-03-16T12:06:08Z</time>
      </trkpt>
      <trkpt lat="43.63942" lon="3.80661">
        <ele>101.7</ele>
        <time>2017-03-16T12:06:12Z</time>
      </trkpt>
      <trkpt lat="43.6395" lon="3.80657">
        <ele>102.2</ele>
        <time>2017-03-16T12:06:17Z</time>
      </trkpt>
      <trkpt lat="43.63957" lon="3.80652">
        <ele>102.3</ele>
        <time>2017-03-16T12:06:23Z</time>
      </trkpt>
      <trkpt lat="43.63963" lon="3.80653">
        <ele>102.4</ele>
        <time>2017-03-16T12:06:30Z</time>
      </trkpt>
      <trkpt lat="43.63967" lon="3.80651">
        <ele>102.2</ele>
        <time>2017-03-16T12:06:37Z</time>
      </trkpt>
      <trkpt lat="43.63977" lon="3.80645">
        <ele>102.4</ele>
        <time>2017-03-16T12:06:42Z</time>
      </trkpt>
      <trkpt lat="43.63986" lon="3.80644">
        <ele>103.1</ele>
        <time>2017-03-16T12:06:47Z</time>
      </trkpt>
      <trkpt lat="43.63993" lon="3.80641">
        <ele>103.8</ele>
        <time>2017-03-16T12:06:51Z</time>
      </trkpt>
      <trkpt lat="43.64001" lon="3.80637">
        <ele>104.3</ele>
        <time>2017-03-16T12:06:54Z</time>
      </trkpt>
      <trkpt lat="43.64009" lon="3.80636">
        <ele>104.6</ele>
        <time>2017-03-16T12:06:57Z</time>
      </trkpt>
      <trkpt lat="43.64017" lon="3.80632">
        <ele>104.8</ele>
        <time>2017-03-16T12:07:01Z</time>
      </trkpt>
      <trkpt lat="43.64024" lon="3.8063">
        <ele>105.1</ele>
        <time>2017-03-16T12:07:05Z</time>
      </trkpt>
      <trkpt lat="43.64032" lon="3.80628">
        <ele>105.7</ele>
        <time>2017-03-16T12:07:09Z</time>
      </trkpt>
      <trkpt lat="43.64039" lon="3.80628">
        <ele>106.8</ele>
        <time>2017-03-16T12:07:16Z</time>
      </trkpt>
      <trkpt lat="43.64046" lon="3.80622">
        <ele>107.4</ele>
        <time>2017-03-16T12:07:21Z</time>
      </trkpt>
      <trkpt lat="43.6405" lon="3.80621">
        <ele>108.5</ele>
        <time>2017-03-16T12:07:28Z</time>
      </trkpt>
      <trkpt lat="43.64056" lon="3.80628">
        <ele>109.5</ele>
        <time>2017-03-16T12:07:34Z</time>
      </trkpt>
      <trkpt lat="43.64068" lon="3.80632">
        <ele>110.9</ele>
        <time>2017-03-16T12:07:46Z</time>
      </trkpt>
      <trkpt lat="43.64072" lon="3.80631">
        <ele>111.5</ele>
        <time>2017-03-16T12:07:53Z</time>
      </trkpt>
      <trkpt lat="43.64079" lon="3.80628">
        <ele>111.9</ele>
        <time>2017-03-16T12:08:00Z</time>
      </trkpt>
      <trkpt lat="43.64084" lon="3.80624">
        <ele>112.6</ele>
        <time>2017-03-16T12:08:07Z</time>
      </trkpt>
      <trkpt lat="43.64088" lon="3.80617">
        <ele>113.4</ele>
        <time>2017-03-16T12:08:14Z</time>
      </trkpt>
      <trkpt lat="43.6409" lon="3.80614">
        <ele>113.9</ele>
        <time>2017-03-16T12:08:21Z</time>
      </trkpt>
      <trkpt lat="43.64095" lon="3.80606">
        <ele>114.5</ele>
        <time>2017-03-16T12:08:25Z</time>
      </trkpt>
      <trkpt lat="43.64095" lon="3.80595">
        <ele>115.2</ele>
        <time>2017-03-16T12:08:29Z</time>
      </trkpt>
      <trkpt lat="43.64098" lon="3.80585">
        <ele>116</ele>
        <time>2017-03-16T12:08:34Z</time>
      </trkpt>
      <trkpt lat="43.64108" lon="3.80583">
        <ele>117</ele>
        <time>2017-03-16T12:08:38Z</time>
      </trkpt>
      <trkpt lat="43.6411" lon="3.80593">
        <ele>118.2</ele>
        <time>2017-03-16T12:08:42Z</time>
      </trkpt>
      <trkpt lat="43.64115" lon="3.80602">
        <ele>119.2</ele>
        <time>2017-03-16T12:08:46Z</time>
      </trkpt>
      <trkpt lat="43.64122" lon="3.80607">
        <ele>120.3</ele>
        <time>2017-03-16T12:08:50Z</time>
      </trkpt>
      <trkpt lat="43.64129" lon="3.80615">
        <ele>121.7</ele>
        <time>2017-03-16T12:08:55Z</time>
      </trkpt>
      <trkpt lat="43.64137" lon="3.8062">
        <ele>123.1</ele>
        <time>2017-03-16T12:09:00Z</time>
      </trkpt>
      <trkpt lat="43.64144" lon="3.80627">
        <ele>124.3</ele>
        <time>2017-03-16T12:09:05Z</time>
      </trkpt>
      <trkpt lat="43.64147" lon="3.80638">
        <ele>125.4</ele>
        <time>2017-03-16T12:09:10Z</time>
      </trkpt>
      <trkpt lat="43.64151" lon="3.80652">
        <ele>126</ele>
        <time>2017-03-16T12:09:14Z</time>
      </trkpt>
      <trkpt lat="43.64154" lon="3.80663">
        <ele>126.4</ele>
        <time>2017-03-16T12:09:17Z</time>
      </trkpt>
      <trkpt lat="43.64156" lon="3.80673">
        <ele>127.1</ele>
        <time>2017-03-16T12:09:21Z</time>
      </trkpt>
      <trkpt lat="43.64157" lon="3.80683">
        <ele>127.8</ele>
        <time>2017-03-16T12:09:25Z</time>
      </trkpt>
      <trkpt lat="43.64159" lon="3.80693">
        <ele>128.6</ele>
        <time>2017-03-16T12:09:30Z</time>
      </trkpt>
      <trkpt lat="43.64162" lon="3.80704">
        <ele>129.7</ele>
        <time>2017-03-16T12:09:36Z</time>
      </trkpt>
      <trkpt lat="43.64164" lon="3.80713">
        <ele>130.4</ele>
        <time>2017-03-16T12:09:40Z</time>
      </trkpt>
      <trkpt lat="43.64165" lon="3.80724">
        <ele>131.2</ele>
        <time>2017-03-16T12:09:45Z</time>
      </trkpt>
      <trkpt lat="43.64166" lon="3.80736">
        <ele>132.5</ele>
        <time>2017-03-16T12:09:50Z</time>
      </trkpt>
      <trkpt lat="43.64165" lon="3.80747">
        <ele>133.6</ele>
        <time>2017-03-16T12:09:54Z</time>
      </trkpt>
      <trkpt lat="43.64166" lon="3.80759">
        <ele>134.8</ele>
        <time>2017-03-16T12:09:58Z</time>
      </trkpt>
      <trkpt lat="43.64168" lon="3.80771">
        <ele>136.1</ele>
        <time>2017-03-16T12:10:03Z</time>
      </trkpt>
      <trkpt lat="43.6417" lon="3.80782">
        <ele>137.7</ele>
        <time>2017-03-16T12:10:08Z</time>
      </trkpt>
      <trkpt lat="43.64167" lon="3.80791">
        <ele>138.7</ele>
        <time>2017-03-16T12:10:11Z</time>
      </trkpt>
      <trkpt lat="43.64166" lon="3.80803">
        <ele>140.6</ele>
        <time>2017-03-16T12:10:18Z</time>
      </trkpt>
      <trkpt lat="43.64167" lon="3.80816">
        <ele>141.5</ele>
        <time>2017-03-16T12:10:23Z</time>
      </trkpt>
      <trkpt lat="43.64169" lon="3.80828">
        <ele>142.1</ele>
        <time>2017-03-16T12:10:26Z</time>
      </trkpt>
      <trkpt lat="43.64171" lon="3.80838">
        <ele>142.5</ele>
        <time>2017-03-16T12:10:28Z</time>
      </trkpt>
      <trkpt lat="43.64175" lon="3.8085">
        <ele>143.1</ele>
        <time>2017-03-16T12:10:31Z</time>
      </trkpt>
      <trkpt lat="43.64176" lon="3.8086">
        <ele>143.5</ele>
        <time>2017-03-16T12:10:34Z</time>
      </trkpt>
      <trkpt lat="43.64179" lon="3.80869">
        <ele>144.2</ele>
        <time>2017-03-16T12:10:38Z</time>
      </trkpt>
      <trkpt lat="43.64182" lon="3.8088">
        <ele>144.8</ele>
        <time>2017-03-16T12:10:43Z</time>
      </trkpt>
      <trkpt lat="43.64186" lon="3.80889">
        <ele>145.1</ele>
        <time>2017-03-16T12:10:46Z</time>
      </trkpt>
      <trkpt lat="43.64187" lon="3.809">
        <ele>145.9</ele>
        <time>2017-03-16T12:10:51Z</time>
      </trkpt>
      <trkpt lat="43.64184" lon="3.80909">
        <ele>147.1</ele>
        <time>2017-03-16T12:10:56Z</time>
      </trkpt>
      <trkpt lat="43.64179" lon="3.80917">
        <ele>148.2</ele>
        <time>2017-03-16T12:11:01Z</time>
      </trkpt>
      <trkpt lat="43.64174" lon="3.80926">
        <ele>149.2</ele>
        <time>2017-03-16T12:11:06Z</time>
      </trkpt>
      <trkpt lat="43.64167" lon="3.80934">
        <ele>150</ele>
        <time>2017-03-16T12:11:10Z</time>
      </trkpt>
      <trkpt lat="43.6416" lon="3.80944">
        <ele>150.5</ele>
        <time>2017-03-16T12:11:14Z</time>
      </trkpt>
      <trkpt lat="43.64156" lon="3.80952">
        <ele>152.1</ele>
        <time>2017-03-16T12:11:16Z</time>
      </trkpt>
      <trkpt lat="43.64149" lon="3.80961">
        <ele>154.4</ele>
        <time>2017-03-16T12:11:18Z</time>
      </trkpt>
      <trkpt lat="43.64143" lon="3.80973">
        <ele>155.5</ele>
        <time>2017-03-16T12:11:20Z</time>
      </trkpt>
      <trkpt lat="43.6414" lon="3.80984">
        <ele>155.5</ele>
        <time>2017-03-16T12:11:22Z</time>
      </trkpt>
      <trkpt lat="43.64133" lon="3.80992">
        <ele>155.4</ele>
        <time>2017-03-16T12:11:24Z</time>
      </trkpt>
      <trkpt lat="43.64126" lon="3.81">
        <ele>155.5</ele>
        <time>2017-03-16T12:11:26Z</time>
      </trkpt>
      <trkpt lat="43.64122" lon="3.81008">
        <ele>155.7</ele>
        <time>2017-03-16T12:11:29Z</time>
      </trkpt>
      <trkpt lat="43.64119" lon="3.81019">
        <ele>156.6</ele>
        <time>2017-03-16T12:11:34Z</time>
      </trkpt>
      <trkpt lat="43.64117" lon="3.81029">
        <ele>157</ele>
        <time>2017-03-16T12:11:39Z</time>
      </trkpt>
      <trkpt lat="43.64115" lon="3.81039">
        <ele>157.3</ele>
        <time>2017-03-16T12:11:42Z</time>
      </trkpt>
      <trkpt lat="43.64111" lon="3.8105">
        <ele>157.6</ele>
        <time>2017-03-16T12:11:45Z</time>
      </trkpt>
      <trkpt lat="43.64106" lon="3.81058">
        <ele>157.9</ele>
        <time>2017-03-16T12:11:48Z</time>
      </trkpt>
      <trkpt lat="43.64101" lon="3.81068">
        <ele>158.7</ele>
        <time>2017-03-16T12:11:52Z</time>
      </trkpt>
      <trkpt lat="43.64096" lon="3.81076">
        <ele>159</ele>
        <time>2017-03-16T12:11:55Z</time>
      </trkpt>
      <trkpt lat="43.64092" lon="3.81085">
        <ele>159.5</ele>
        <time>2017-03-16T12:11:59Z</time>
      </trkpt>
      <trkpt lat="43.64089" lon="3.81095">
        <ele>160.3</ele>
        <time>2017-03-16T12:12:04Z</time>
      </trkpt>
      <trkpt lat="43.64093" lon="3.81104">
        <ele>161</ele>
        <time>2017-03-16T12:12:10Z</time>
      </trkpt>
      <trkpt lat="43.64099" lon="3.8111">
        <ele>161.4</ele>
        <time>2017-03-16T12:12:14Z</time>
      </trkpt>
      <trkpt lat="43.64105" lon="3.81117">
        <ele>161.6</ele>
        <time>2017-03-16T12:12:18Z</time>
      </trkpt>
      <trkpt lat="43.64112" lon="3.81127">
        <ele>161.9</ele>
        <time>2017-03-16T12:12:22Z</time>
      </trkpt>
      <trkpt lat="43.64117" lon="3.81135">
        <ele>162.2</ele>
        <time>2017-03-16T12:12:25Z</time>
      </trkpt>
      <trkpt lat="43.64123" lon="3.81142">
        <ele>162.5</ele>
        <time>2017-03-16T12:12:28Z</time>
      </trkpt>
      <trkpt lat="43.64129" lon="3.81149">
        <ele>162.7</ele>
        <time>2017-03-16T12:12:31Z</time>
      </trkpt>
      <trkpt lat="43.64135" lon="3.81155">
        <ele>162.8</ele>
        <time>2017-03-16T12:12:34Z</time>
      </trkpt>
      <trkpt lat="43.6414" lon="3.81164">
        <ele>163.1</ele>
        <time>2017-03-16T12:12:37Z</time>
      </trkpt>
      <trkpt lat="43.64148" lon="3.81173">
        <ele>163.6</ele>
        <time>2017-03-16T12:12:41Z</time>
      </trkpt>
      <trkpt lat="43.64157" lon="3.81182">
        <ele>163.8</ele>
        <time>2017-03-16T12:12:44Z</time>
      </trkpt>
      <trkpt lat="43.64164" lon="3.81189">
        <ele>163.9</ele>
        <time>2017-03-16T12:12:47Z</time>
      </trkpt>
      <trkpt lat="43.64169" lon="3.81196">
        <ele>163.9</ele>
        <time>2017-03-16T12:12:50Z</time>
      </trkpt>
      <trkpt lat="43.64175" lon="3.81205">
        <ele>164</ele>
        <time>2017-03-16T12:12:53Z</time>
      </trkpt>
      <trkpt lat="43.64182" lon="3.81215">
        <ele>164.2</ele>
        <time>2017-03-16T12:12:56Z</time>
      </trkpt>
      <trkpt lat="43.64188" lon="3.81225">
        <ele>164.3</ele>
        <time>2017-03-16T12:12:59Z</time>
      </trkpt>
      <trkpt lat="43.64194" lon="3.81235">
        <ele>164.6</ele>
        <time>2017-03-16T12:13:02Z</time>
      </trkpt>
      <trkpt lat="43.64201" lon="3.81246">
        <ele>164.8</ele>
        <time>2017-03-16T12:13:05Z</time>
      </trkpt>
      <trkpt lat="43.64208" lon="3.81247">
        <ele>165</ele>
        <time>2017-03-16T12:13:12Z</time>
      </trkpt>
      <trkpt lat="43.64218" lon="3.81238">
        <ele>164.6</ele>
        <time>2017-03-16T12:13:16Z</time>
      </trkpt>
      <trkpt lat="43.64227" lon="3.81228">
        <ele>162.5</ele>
        <time>2017-03-16T12:13:18Z</time>
      </trkpt>
      <trkpt lat="43.64235" lon="3.81219">
        <ele>160.4</ele>
        <time>2017-03-16T12:13:20Z</time>
      </trkpt>
      <trkpt lat="43.6424" lon="3.81209">
        <ele>159</ele>
        <time>2017-03-16T12:13:22Z</time>
      </trkpt>
      <trkpt lat="43.64247" lon="3.81206">
        <ele>158.9</ele>
        <time>2017-03-16T12:13:24Z</time>
      </trkpt>
      <trkpt lat="43.64254" lon="3.81208">
        <ele>158.7</ele>
        <time>2017-03-16T12:13:27Z</time>
      </trkpt>
      <trkpt lat="43.64262" lon="3.81209">
        <ele>158.4</ele>
        <time>2017-03-16T12:13:31Z</time>
      </trkpt>
      <trkpt lat="43.64271" lon="3.8121">
        <ele>158</ele>
        <time>2017-03-16T12:13:37Z</time>
      </trkpt>
      <trkpt lat="43.64278" lon="3.81212">
        <ele>157.6</ele>
        <time>2017-03-16T12:13:41Z</time>
      </trkpt>
      <trkpt lat="43.64286" lon="3.81215">
        <ele>157.2</ele>
        <time>2017-03-16T12:13:45Z</time>
      </trkpt>
      <trkpt lat="43.64293" lon="3.81224">
        <ele>156.4</ele>
        <time>2017-03-16T12:13:49Z</time>
      </trkpt>
      <trkpt lat="43.64302" lon="3.81234">
        <ele>155.3</ele>
        <time>2017-03-16T12:13:52Z</time>
      </trkpt>
      <trkpt lat="43.64308" lon="3.81242">
        <ele>154.7</ele>
        <time>2017-03-16T12:13:54Z</time>
      </trkpt>
      <trkpt lat="43.64315" lon="3.81249">
        <ele>153.7</ele>
        <time>2017-03-16T12:13:57Z</time>
      </trkpt>
      <trkpt lat="43.64319" lon="3.81259">
        <ele>152.6</ele>
        <time>2017-03-16T12:14:02Z</time>
      </trkpt>
      <trkpt lat="43.64323" lon="3.8127">
        <ele>151.9</ele>
        <time>2017-03-16T12:14:08Z</time>
      </trkpt>
      <trkpt lat="43.64327" lon="3.81279">
        <ele>152</ele>
        <time>2017-03-16T12:14:11Z</time>
      </trkpt>
      <trkpt lat="43.6433" lon="3.81288">
        <ele>151.6</ele>
        <time>2017-03-16T12:14:15Z</time>
      </trkpt>
      <trkpt lat="43.64334" lon="3.81298">
        <ele>150.5</ele>
        <time>2017-03-16T12:14:19Z</time>
      </trkpt>
      <trkpt lat="43.6434" lon="3.81309">
        <ele>150</ele>
        <time>2017-03-16T12:14:22Z</time>
      </trkpt>
      <trkpt lat="43.64342" lon="3.8132">
        <ele>149.7</ele>
        <time>2017-03-16T12:14:25Z</time>
      </trkpt>
      <trkpt lat="43.64345" lon="3.8133">
        <ele>148.5</ele>
        <time>2017-03-16T12:14:30Z</time>
      </trkpt>
      <trkpt lat="43.64348" lon="3.81339">
        <ele>147.6</ele>
        <time>2017-03-16T12:14:34Z</time>
      </trkpt>
      <trkpt lat="43.64351" lon="3.81348">
        <ele>147</ele>
        <time>2017-03-16T12:14:37Z</time>
      </trkpt>
      <trkpt lat="43.64356" lon="3.81359">
        <ele>146.3</ele>
        <time>2017-03-16T12:14:41Z</time>
      </trkpt>
      <trkpt lat="43.6436" lon="3.8137">
        <ele>145.8</ele>
        <time>2017-03-16T12:14:44Z</time>
      </trkpt>
      <trkpt lat="43.64366" lon="3.81377">
        <ele>145.3</ele>
        <time>2017-03-16T12:14:48Z</time>
      </trkpt>
      <trkpt lat="43.64371" lon="3.81386">
        <ele>145.2</ele>
        <time>2017-03-16T12:14:51Z</time>
      </trkpt>
      <trkpt lat="43.64376" lon="3.81394">
        <ele>145</ele>
        <time>2017-03-16T12:14:55Z</time>
      </trkpt>
      <trkpt lat="43.6438" lon="3.81402">
        <ele>144.8</ele>
        <time>2017-03-16T12:14:57Z</time>
      </trkpt>
      <trkpt lat="43.64386" lon="3.81411">
        <ele>144.6</ele>
        <time>2017-03-16T12:15:02Z</time>
      </trkpt>
      <trkpt lat="43.64387" lon="3.81422">
        <ele>144.8</ele>
        <time>2017-03-16T12:15:07Z</time>
      </trkpt>
      <trkpt lat="43.64392" lon="3.81432">
        <ele>144.7</ele>
        <time>2017-03-16T12:15:12Z</time>
      </trkpt>
      <trkpt lat="43.64395" lon="3.81441">
        <ele>144.4</ele>
        <time>2017-03-16T12:15:17Z</time>
      </trkpt>
      <trkpt lat="43.64401" lon="3.81448">
        <ele>144.9</ele>
        <time>2017-03-16T12:15:23Z</time>
      </trkpt>
      <trkpt lat="43.64409" lon="3.81457">
        <ele>145.1</ele>
        <time>2017-03-16T12:15:26Z</time>
      </trkpt>
      <trkpt lat="43.64414" lon="3.81466">
        <ele>145.2</ele>
        <time>2017-03-16T12:15:28Z</time>
      </trkpt>
      <trkpt lat="43.64417" lon="3.81475">
        <ele>145.3</ele>
        <time>2017-03-16T12:15:30Z</time>
      </trkpt>
      <trkpt lat="43.64422" lon="3.81485">
        <ele>145.5</ele>
        <time>2017-03-16T12:15:32Z</time>
      </trkpt>
      <trkpt lat="43.64429" lon="3.81493">
        <ele>145.5</ele>
        <time>2017-03-16T12:15:34Z</time>
      </trkpt>
      <trkpt lat="43.64436" lon="3.81504">
        <ele>144.6</ele>
        <time>2017-03-16T12:15:36Z</time>
      </trkpt>
      <trkpt lat="43.64444" lon="3.81513">
        <ele>145.9</ele>
        <time>2017-03-16T12:15:38Z</time>
      </trkpt>
      <trkpt lat="43.64451" lon="3.81527">
        <ele>145.3</ele>
        <time>2017-03-16T12:15:40Z</time>
      </trkpt>
      <trkpt lat="43.64455" lon="3.81538">
        <ele>145.3</ele>
        <time>2017-03-16T12:15:42Z</time>
      </trkpt>
      <trkpt lat="43.6446" lon="3.81553">
        <ele>144.9</ele>
        <time>2017-03-16T12:15:44Z</time>
      </trkpt>
      <trkpt lat="43.64462" lon="3.81563">
        <ele>145</ele>
        <time>2017-03-16T12:15:46Z</time>
      </trkpt>
      <trkpt lat="43.64463" lon="3.81573">
        <ele>145</ele>
        <time>2017-03-16T12:15:48Z</time>
      </trkpt>
      <trkpt lat="43.64467" lon="3.81585">
        <ele>144.5</ele>
        <time>2017-03-16T12:15:51Z</time>
      </trkpt>
      <trkpt lat="43.64469" lon="3.81596">
        <ele>144.2</ele>
        <time>2017-03-16T12:15:54Z</time>
      </trkpt>
      <trkpt lat="43.64471" lon="3.81606">
        <ele>143.9</ele>
        <time>2017-03-16T12:15:57Z</time>
      </trkpt>
      <trkpt lat="43.64473" lon="3.81616">
        <ele>143.5</ele>
        <time>2017-03-16T12:16:02Z</time>
      </trkpt>
      <trkpt lat="43.64476" lon="3.81629">
        <ele>143.6</ele>
        <time>2017-03-16T12:16:07Z</time>
      </trkpt>
      <trkpt lat="43.6448" lon="3.81641">
        <ele>143.4</ele>
        <time>2017-03-16T12:16:11Z</time>
      </trkpt>
      <trkpt lat="43.64483" lon="3.81652">
        <ele>143.5</ele>
        <time>2017-03-16T12:16:15Z</time>
      </trkpt>
      <trkpt lat="43.64487" lon="3.81664">
        <ele>143.9</ele>
        <time>2017-03-16T12:16:20Z</time>
      </trkpt>
      <trkpt lat="43.64489" lon="3.81675">
        <ele>144.3</ele>
        <time>2017-03-16T12:16:23Z</time>
      </trkpt>
      <trkpt lat="43.64493" lon="3.81688">
        <ele>144.9</ele>
        <time>2017-03-16T12:16:26Z</time>
      </trkpt>
      <trkpt lat="43.64495" lon="3.81698">
        <ele>145</ele>
        <time>2017-03-16T12:16:28Z</time>
      </trkpt>
      <trkpt lat="43.64498" lon="3.81713">
        <ele>145.1</ele>
        <time>2017-03-16T12:16:32Z</time>
      </trkpt>
      <trkpt lat="43.645" lon="3.81723">
        <ele>145.3</ele>
        <time>2017-03-16T12:16:37Z</time>
      </trkpt>
      <trkpt lat="43.64498" lon="3.81734">
        <ele>145.7</ele>
        <time>2017-03-16T12:16:41Z</time>
      </trkpt>
      <trkpt lat="43.64494" lon="3.81742">
        <ele>146.3</ele>
        <time>2017-03-16T12:16:44Z</time>
      </trkpt>
      <trkpt lat="43.64493" lon="3.81752">
        <ele>147</ele>
        <time>2017-03-16T12:16:47Z</time>
      </trkpt>
      <trkpt lat="43.6449" lon="3.81765">
        <ele>147.6</ele>
        <time>2017-03-16T12:16:50Z</time>
      </trkpt>
      <trkpt lat="43.64489" lon="3.81776">
        <ele>148.2</ele>
        <time>2017-03-16T12:16:53Z</time>
      </trkpt>
      <trkpt lat="43.64489" lon="3.81788">
        <ele>148.8</ele>
        <time>2017-03-16T12:16:56Z</time>
      </trkpt>
      <trkpt lat="43.64488" lon="3.81798">
        <ele>149.4</ele>
        <time>2017-03-16T12:16:59Z</time>
      </trkpt>
      <trkpt lat="43.64487" lon="3.81809">
        <ele>150.1</ele>
        <time>2017-03-16T12:17:02Z</time>
      </trkpt>
      <trkpt lat="43.64484" lon="3.81819">
        <ele>150.5</ele>
        <time>2017-03-16T12:17:04Z</time>
      </trkpt>
      <trkpt lat="43.64482" lon="3.81829">
        <ele>150.9</ele>
        <time>2017-03-16T12:17:06Z</time>
      </trkpt>
      <trkpt lat="43.64479" lon="3.81841">
        <ele>151.6</ele>
        <time>2017-03-16T12:17:09Z</time>
      </trkpt>
      <trkpt lat="43.64477" lon="3.81854">
        <ele>152.4</ele>
        <time>2017-03-16T12:17:13Z</time>
      </trkpt>
      <trkpt lat="43.64475" lon="3.81864">
        <ele>152.9</ele>
        <time>2017-03-16T12:17:16Z</time>
      </trkpt>
      <trkpt lat="43.64472" lon="3.81877">
        <ele>153.7</ele>
        <time>2017-03-16T12:17:20Z</time>
      </trkpt>
      <trkpt lat="43.64468" lon="3.81888">
        <ele>154</ele>
        <time>2017-03-16T12:17:23Z</time>
      </trkpt>
      <trkpt lat="43.64467" lon="3.81902">
        <ele>154.6</ele>
        <time>2017-03-16T12:17:26Z</time>
      </trkpt>
      <trkpt lat="43.64464" lon="3.8192">
        <ele>154.9</ele>
        <time>2017-03-16T12:17:28Z</time>
      </trkpt>
      <trkpt lat="43.64458" lon="3.81929">
        <ele>155.5</ele>
        <time>2017-03-16T12:17:33Z</time>
      </trkpt>
      <trkpt lat="43.64454" lon="3.8194">
        <ele>155.7</ele>
        <time>2017-03-16T12:17:35Z</time>
      </trkpt>
      <trkpt lat="43.64448" lon="3.81956">
        <ele>156.3</ele>
        <time>2017-03-16T12:17:37Z</time>
      </trkpt>
      <trkpt lat="43.64442" lon="3.81967">
        <ele>155.2</ele>
        <time>2017-03-16T12:17:39Z</time>
      </trkpt>
      <trkpt lat="43.64436" lon="3.81979">
        <ele>153.7</ele>
        <time>2017-03-16T12:17:41Z</time>
      </trkpt>
      <trkpt lat="43.64429" lon="3.81991">
        <ele>154.4</ele>
        <time>2017-03-16T12:17:43Z</time>
      </trkpt>
      <trkpt lat="43.64424" lon="3.82001">
        <ele>152.6</ele>
        <time>2017-03-16T12:17:45Z</time>
      </trkpt>
      <trkpt lat="43.64418" lon="3.8201">
        <ele>152.2</ele>
        <time>2017-03-16T12:17:47Z</time>
      </trkpt>
      <trkpt lat="43.64411" lon="3.8202">
        <ele>153</ele>
        <time>2017-03-16T12:17:49Z</time>
      </trkpt>
      <trkpt lat="43.64404" lon="3.82032">
        <ele>152</ele>
        <time>2017-03-16T12:17:51Z</time>
      </trkpt>
      <trkpt lat="43.64398" lon="3.82043">
        <ele>151.5</ele>
        <time>2017-03-16T12:17:53Z</time>
      </trkpt>
      <trkpt lat="43.64391" lon="3.82052">
        <ele>150.9</ele>
        <time>2017-03-16T12:17:55Z</time>
      </trkpt>
      <trkpt lat="43.64385" lon="3.82063">
        <ele>149.1</ele>
        <time>2017-03-16T12:17:57Z</time>
      </trkpt>
      <trkpt lat="43.64381" lon="3.82075">
        <ele>148.8</ele>
        <time>2017-03-16T12:17:59Z</time>
      </trkpt>
      <trkpt lat="43.64373" lon="3.82091">
        <ele>148.3</ele>
        <time>2017-03-16T12:18:01Z</time>
      </trkpt>
      <trkpt lat="43.64368" lon="3.82101">
        <ele>148</ele>
        <time>2017-03-16T12:18:03Z</time>
      </trkpt>
      <trkpt lat="43.64364" lon="3.82113">
        <ele>148.8</ele>
        <time>2017-03-16T12:18:05Z</time>
      </trkpt>
      <trkpt lat="43.64358" lon="3.82121">
        <ele>149.1</ele>
        <time>2017-03-16T12:18:07Z</time>
      </trkpt>
      <trkpt lat="43.6435" lon="3.82126">
        <ele>149.5</ele>
        <time>2017-03-16T12:18:10Z</time>
      </trkpt>
      <trkpt lat="43.64345" lon="3.82135">
        <ele>151</ele>
        <time>2017-03-16T12:18:17Z</time>
      </trkpt>
      <trkpt lat="43.64344" lon="3.82145">
        <ele>151.2</ele>
        <time>2017-03-16T12:18:23Z</time>
      </trkpt>
      <trkpt lat="43.64344" lon="3.82154">
        <ele>152.1</ele>
        <time>2017-03-16T12:18:30Z</time>
      </trkpt>
      <trkpt lat="43.64338" lon="3.82168">
        <ele>152.5</ele>
        <time>2017-03-16T12:18:32Z</time>
      </trkpt>
      <trkpt lat="43.64338" lon="3.82178">
        <ele>152.7</ele>
        <time>2017-03-16T12:18:34Z</time>
      </trkpt>
      <trkpt lat="43.64338" lon="3.82191">
        <ele>153.5</ele>
        <time>2017-03-16T12:18:36Z</time>
      </trkpt>
      <trkpt lat="43.64338" lon="3.82202">
        <ele>153.5</ele>
        <time>2017-03-16T12:18:38Z</time>
      </trkpt>
      <trkpt lat="43.64341" lon="3.82215">
        <ele>152.7</ele>
        <time>2017-03-16T12:18:40Z</time>
      </trkpt>
      <trkpt lat="43.64348" lon="3.82232">
        <ele>151.1</ele>
        <time>2017-03-16T12:18:42Z</time>
      </trkpt>
      <trkpt lat="43.64354" lon="3.82243">
        <ele>150.4</ele>
        <time>2017-03-16T12:18:44Z</time>
      </trkpt>
      <trkpt lat="43.64356" lon="3.82257">
        <ele>149.5</ele>
        <time>2017-03-16T12:18:46Z</time>
      </trkpt>
      <trkpt lat="43.64352" lon="3.82266">
        <ele>149.3</ele>
        <time>2017-03-16T12:18:48Z</time>
      </trkpt>
      <trkpt lat="43.64346" lon="3.82278">
        <ele>148.9</ele>
        <time>2017-03-16T12:18:51Z</time>
      </trkpt>
      <trkpt lat="43.64341" lon="3.82287">
        <ele>149</ele>
        <time>2017-03-16T12:18:54Z</time>
      </trkpt>
      <trkpt lat="43.64333" lon="3.82293">
        <ele>148.9</ele>
        <time>2017-03-16T12:18:57Z</time>
      </trkpt>
      <trkpt lat="43.64325" lon="3.82299">
        <ele>149</ele>
        <time>2017-03-16T12:19:00Z</time>
      </trkpt>
      <trkpt lat="43.64323" lon="3.8231">
        <ele>149.2</ele>
        <time>2017-03-16T12:19:03Z</time>
      </trkpt>
      <trkpt lat="43.64315" lon="3.82309">
        <ele>150</ele>
        <time>2017-03-16T12:19:05Z</time>
      </trkpt>
      <trkpt lat="43.64307" lon="3.82312">
        <ele>150.1</ele>
        <time>2017-03-16T12:19:07Z</time>
      </trkpt>
      <trkpt lat="43.64303" lon="3.82321">
        <ele>150.4</ele>
        <time>2017-03-16T12:19:09Z</time>
      </trkpt>
      <trkpt lat="43.64295" lon="3.82325">
        <ele>150.2</ele>
        <time>2017-03-16T12:19:11Z</time>
      </trkpt>
      <trkpt lat="43.64287" lon="3.82327">
        <ele>150.3</ele>
        <time>2017-03-16T12:19:13Z</time>
      </trkpt>
      <trkpt lat="43.64278" lon="3.82324">
        <ele>150.8</ele>
        <time>2017-03-16T12:19:15Z</time>
      </trkpt>
      <trkpt lat="43.6427" lon="3.8232">
        <ele>151</ele>
        <time>2017-03-16T12:19:16Z</time>
      </trkpt>
      <trkpt lat="43.64261" lon="3.82317">
        <ele>151.3</ele>
        <time>2017-03-16T12:19:18Z</time>
      </trkpt>
      <trkpt lat="43.64254" lon="3.82318">
        <ele>152.1</ele>
        <time>2017-03-16T12:19:21Z</time>
      </trkpt>
      <trkpt lat="43.64245" lon="3.82317">
        <ele>152.5</ele>
        <time>2017-03-16T12:19:24Z</time>
      </trkpt>
      <trkpt lat="43.64234" lon="3.82314">
        <ele>152.9</ele>
        <time>2017-03-16T12:19:27Z</time>
      </trkpt>
      <trkpt lat="43.64227" lon="3.82316">
        <ele>153.1</ele>
        <time>2017-03-16T12:19:32Z</time>
      </trkpt>
      <trkpt lat="43.64217" lon="3.82323">
        <ele>153.2</ele>
        <time>2017-03-16T12:19:36Z</time>
      </trkpt>
      <trkpt lat="43.64209" lon="3.82328">
        <ele>153.5</ele>
        <time>2017-03-16T12:19:38Z</time>
      </trkpt>
      <trkpt lat="43.64201" lon="3.82332">
        <ele>153.5</ele>
        <time>2017-03-16T12:19:40Z</time>
      </trkpt>
      <trkpt lat="43.64195" lon="3.82339">
        <ele>153.6</ele>
        <time>2017-03-16T12:19:43Z</time>
      </trkpt>
      <trkpt lat="43.64189" lon="3.8235">
        <ele>153.5</ele>
        <time>2017-03-16T12:19:46Z</time>
      </trkpt>
      <trkpt lat="43.64185" lon="3.82359">
        <ele>153.4</ele>
        <time>2017-03-16T12:19:49Z</time>
      </trkpt>
      <trkpt lat="43.64178" lon="3.82369">
        <ele>153.5</ele>
        <time>2017-03-16T12:19:52Z</time>
      </trkpt>
      <trkpt lat="43.64174" lon="3.82377">
        <ele>153.5</ele>
        <time>2017-03-16T12:19:54Z</time>
      </trkpt>
      <trkpt lat="43.64167" lon="3.82384">
        <ele>153.6</ele>
        <time>2017-03-16T12:19:57Z</time>
      </trkpt>
      <trkpt lat="43.64161" lon="3.82396">
        <ele>153.6</ele>
        <time>2017-03-16T12:20:01Z</time>
      </trkpt>
      <trkpt lat="43.64157" lon="3.8241">
        <ele>154.7</ele>
        <time>2017-03-16T12:20:03Z</time>
      </trkpt>
      <trkpt lat="43.64156" lon="3.82422">
        <ele>154.3</ele>
        <time>2017-03-16T12:20:05Z</time>
      </trkpt>
      <trkpt lat="43.6415" lon="3.82435">
        <ele>154.3</ele>
        <time>2017-03-16T12:20:08Z</time>
      </trkpt>
      <trkpt lat="43.6415" lon="3.8245">
        <ele>154.2</ele>
        <time>2017-03-16T12:20:11Z</time>
      </trkpt>
      <trkpt lat="43.64147" lon="3.8246">
        <ele>154</ele>
        <time>2017-03-16T12:20:13Z</time>
      </trkpt>
      <trkpt lat="43.64142" lon="3.82469">
        <ele>154</ele>
        <time>2017-03-16T12:20:15Z</time>
      </trkpt>
      <trkpt lat="43.64141" lon="3.82479">
        <ele>153.8</ele>
        <time>2017-03-16T12:20:17Z</time>
      </trkpt>
      <trkpt lat="43.64135" lon="3.82491">
        <ele>153.4</ele>
        <time>2017-03-16T12:20:19Z</time>
      </trkpt>
      <trkpt lat="43.64129" lon="3.82501">
        <ele>152.6</ele>
        <time>2017-03-16T12:20:20Z</time>
      </trkpt>
      <trkpt lat="43.64122" lon="3.8251">
        <ele>152.2</ele>
        <time>2017-03-16T12:20:21Z</time>
      </trkpt>
      <trkpt lat="43.64116" lon="3.82526">
        <ele>152.3</ele>
        <time>2017-03-16T12:20:23Z</time>
      </trkpt>
      <trkpt lat="43.64111" lon="3.82545">
        <ele>151.4</ele>
        <time>2017-03-16T12:20:25Z</time>
      </trkpt>
      <trkpt lat="43.64109" lon="3.82555">
        <ele>151</ele>
        <time>2017-03-16T12:20:26Z</time>
      </trkpt>
      <trkpt lat="43.64106" lon="3.82564">
        <ele>150</ele>
        <time>2017-03-16T12:20:27Z</time>
      </trkpt>
      <trkpt lat="43.64102" lon="3.82573">
        <ele>148.7</ele>
        <time>2017-03-16T12:20:28Z</time>
      </trkpt>
      <trkpt lat="43.64097" lon="3.82582">
        <ele>147.7</ele>
        <time>2017-03-16T12:20:29Z</time>
      </trkpt>
      <trkpt lat="43.64091" lon="3.826">
        <ele>145.8</ele>
        <time>2017-03-16T12:20:31Z</time>
      </trkpt>
      <trkpt lat="43.64087" lon="3.82609">
        <ele>145.1</ele>
        <time>2017-03-16T12:20:32Z</time>
      </trkpt>
      <trkpt lat="43.64084" lon="3.8262">
        <ele>143.8</ele>
        <time>2017-03-16T12:20:33Z</time>
      </trkpt>
      <trkpt lat="43.64084" lon="3.82629">
        <ele>142.6</ele>
        <time>2017-03-16T12:20:34Z</time>
      </trkpt>
      <trkpt lat="43.64083" lon="3.8264">
        <ele>142.1</ele>
        <time>2017-03-16T12:20:35Z</time>
      </trkpt>
      <trkpt lat="43.64079" lon="3.82651">
        <ele>141.7</ele>
        <time>2017-03-16T12:20:36Z</time>
      </trkpt>
      <trkpt lat="43.64075" lon="3.82661">
        <ele>140.9</ele>
        <time>2017-03-16T12:20:37Z</time>
      </trkpt>
      <trkpt lat="43.6407" lon="3.82671">
        <ele>138.8</ele>
        <time>2017-03-16T12:20:38Z</time>
      </trkpt>
      <trkpt lat="43.64065" lon="3.82681">
        <ele>137.6</ele>
        <time>2017-03-16T12:20:39Z</time>
      </trkpt>
      <trkpt lat="43.64063" lon="3.82691">
        <ele>136.5</ele>
        <time>2017-03-16T12:20:40Z</time>
      </trkpt>
      <trkpt lat="43.6406" lon="3.82701">
        <ele>136.2</ele>
        <time>2017-03-16T12:20:41Z</time>
      </trkpt>
      <trkpt lat="43.64055" lon="3.8271">
        <ele>136.2</ele>
        <time>2017-03-16T12:20:42Z</time>
      </trkpt>
      <trkpt lat="43.64049" lon="3.8272">
        <ele>136.1</ele>
        <time>2017-03-16T12:20:43Z</time>
      </trkpt>
      <trkpt lat="43.64044" lon="3.82729">
        <ele>135.7</ele>
        <time>2017-03-16T12:20:44Z</time>
      </trkpt>
      <trkpt lat="43.64039" lon="3.82739">
        <ele>135.7</ele>
        <time>2017-03-16T12:20:45Z</time>
      </trkpt>
      <trkpt lat="43.64034" lon="3.82747">
        <ele>135.4</ele>
        <time>2017-03-16T12:20:46Z</time>
      </trkpt>
      <trkpt lat="43.64025" lon="3.82766">
        <ele>133.3</ele>
        <time>2017-03-16T12:20:48Z</time>
      </trkpt>
      <trkpt lat="43.6402" lon="3.82774">
        <ele>131.8</ele>
        <time>2017-03-16T12:20:49Z</time>
      </trkpt>
      <trkpt lat="43.64016" lon="3.8279">
        <ele>130.4</ele>
        <time>2017-03-16T12:20:51Z</time>
      </trkpt>
      <trkpt lat="43.6401" lon="3.82796">
        <ele>129.9</ele>
        <time>2017-03-16T12:20:52Z</time>
      </trkpt>
      <trkpt lat="43.63996" lon="3.82799">
        <ele>129.8</ele>
        <time>2017-03-16T12:20:54Z</time>
      </trkpt>
      <trkpt lat="43.63984" lon="3.82803">
        <ele>130.5</ele>
        <time>2017-03-16T12:20:56Z</time>
      </trkpt>
      <trkpt lat="43.63972" lon="3.82811">
        <ele>131.5</ele>
        <time>2017-03-16T12:20:58Z</time>
      </trkpt>
      <trkpt lat="43.6396" lon="3.8282">
        <ele>131.8</ele>
        <time>2017-03-16T12:21:00Z</time>
      </trkpt>
      <trkpt lat="43.63954" lon="3.82828">
        <ele>132</ele>
        <time>2017-03-16T12:21:02Z</time>
      </trkpt>
      <trkpt lat="43.63944" lon="3.82823">
        <ele>131.9</ele>
        <time>2017-03-16T12:21:04Z</time>
      </trkpt>
      <trkpt lat="43.63936" lon="3.82836">
        <ele>132</ele>
        <time>2017-03-16T12:21:13Z</time>
      </trkpt>
      <trkpt lat="43.63929" lon="3.82838">
        <ele>132</ele>
        <time>2017-03-16T12:21:16Z</time>
      </trkpt>
      <trkpt lat="43.63918" lon="3.82834">
        <ele>131.8</ele>
        <time>2017-03-16T12:21:18Z</time>
      </trkpt>
      <trkpt lat="43.63907" lon="3.82827">
        <ele>131.7</ele>
        <time>2017-03-16T12:21:19Z</time>
      </trkpt>
      <trkpt lat="43.63905" lon="3.82816">
        <ele>130.9</ele>
        <time>2017-03-16T12:21:24Z</time>
      </trkpt>
      <trkpt lat="43.6389" lon="3.82799">
        <ele>131.1</ele>
        <time>2017-03-16T12:21:27Z</time>
      </trkpt>
      <trkpt lat="43.63883" lon="3.82786">
        <ele>131.2</ele>
        <time>2017-03-16T12:21:29Z</time>
      </trkpt>
      <trkpt lat="43.63875" lon="3.82788">
        <ele>130.6</ele>
        <time>2017-03-16T12:21:33Z</time>
      </trkpt>
      <trkpt lat="43.63868" lon="3.82795">
        <ele>130.5</ele>
        <time>2017-03-16T12:21:35Z</time>
      </trkpt>
      <trkpt lat="43.6386" lon="3.82802">
        <ele>129.7</ele>
        <time>2017-03-16T12:21:37Z</time>
      </trkpt>
      <trkpt lat="43.63852" lon="3.82807">
        <ele>129.5</ele>
        <time>2017-03-16T12:21:39Z</time>
      </trkpt>
      <trkpt lat="43.63839" lon="3.82807">
        <ele>129.8</ele>
        <time>2017-03-16T12:21:41Z</time>
      </trkpt>
      <trkpt lat="43.6383" lon="3.82808">
        <ele>128.9</ele>
        <time>2017-03-16T12:21:43Z</time>
      </trkpt>
      <trkpt lat="43.63818" lon="3.82812">
        <ele>128.4</ele>
        <time>2017-03-16T12:21:45Z</time>
      </trkpt>
      <trkpt lat="43.63805" lon="3.82814">
        <ele>128.1</ele>
        <time>2017-03-16T12:21:47Z</time>
      </trkpt>
      <trkpt lat="43.63795" lon="3.82816">
        <ele>128.4</ele>
        <time>2017-03-16T12:21:49Z</time>
      </trkpt>
      <trkpt lat="43.63787" lon="3.82819">
        <ele>129.8</ele>
        <time>2017-03-16T12:21:51Z</time>
      </trkpt>
      <trkpt lat="43.63779" lon="3.82826">
        <ele>129.7</ele>
        <time>2017-03-16T12:21:53Z</time>
      </trkpt>
      <trkpt lat="43.63779" lon="3.8284">
        <ele>129.3</ele>
        <time>2017-03-16T12:21:57Z</time>
      </trkpt>
      <trkpt lat="43.63779" lon="3.82851">
        <ele>129.3</ele>
        <time>2017-03-16T12:21:59Z</time>
      </trkpt>
      <trkpt lat="43.63771" lon="3.82857">
        <ele>129.2</ele>
        <time>2017-03-16T12:22:04Z</time>
      </trkpt>
      <trkpt lat="43.63762" lon="3.82852">
        <ele>129.2</ele>
        <time>2017-03-16T12:22:07Z</time>
      </trkpt>
      <trkpt lat="43.63764" lon="3.82854">
        <ele>126.9</ele>
        <time>2017-03-16T12:26:50Z</time>
      </trkpt>
      <trkpt lat="43.63771" lon="3.82858">
        <ele>126.6</ele>
        <time>2017-03-16T12:26:54Z</time>
      </trkpt>
      <trkpt lat="43.63779" lon="3.82861">
        <ele>126.2</ele>
        <time>2017-03-16T12:27:01Z</time>
      </trkpt>
      <trkpt lat="43.63785" lon="3.82867">
        <ele>126.3</ele>
        <time>2017-03-16T12:27:06Z</time>
      </trkpt>
      <trkpt lat="43.63791" lon="3.82876">
        <ele>126.2</ele>
        <time>2017-03-16T12:27:11Z</time>
      </trkpt>
      <trkpt lat="43.63797" lon="3.82886">
        <ele>126.2</ele>
        <time>2017-03-16T12:27:15Z</time>
      </trkpt>
      <trkpt lat="43.63801" lon="3.82894">
        <ele>125.9</ele>
        <time>2017-03-16T12:27:19Z</time>
      </trkpt>
      <trkpt lat="43.63804" lon="3.82903">
        <ele>126</ele>
        <time>2017-03-16T12:27:23Z</time>
      </trkpt>
      <trkpt lat="43.63806" lon="3.82914">
        <ele>126</ele>
        <time>2017-03-16T12:27:29Z</time>
      </trkpt>
      <trkpt lat="43.63805" lon="3.82925">
        <ele>126</ele>
        <time>2017-03-16T12:27:35Z</time>
      </trkpt>
      <trkpt lat="43.63801" lon="3.82933">
        <ele>126.2</ele>
        <time>2017-03-16T12:27:40Z</time>
      </trkpt>
      <trkpt lat="43.63793" lon="3.82939">
        <ele>126.4</ele>
        <time>2017-03-16T12:27:45Z</time>
      </trkpt>
      <trkpt lat="43.63787" lon="3.82943">
        <ele>126.8</ele>
        <time>2017-03-16T12:27:52Z</time>
      </trkpt>
    </trkseg>
  </trk>
</gpx>